<?xml version="1.0" encoding="UTF-8" standalone="no" ?>
<gpx xmlns="http://www.topografix.com/GPX/1/1" xmlns:xsi="http://www.w3.org/2001/XMLSchema-instance" xsi:schemaLocation="http://www.topografix.com/GPX/1/1 http://www.topografix.com/GPX/1/1/gpx.xsd" version="1.1" creator="VisuGPX - https://www.visugpx.com">
  <metadata>
    <name>Cussey-sur-Lison - Belvédère des Grands Ruins - Echay</name>
    <desc><![CDATA[Randonnée effectuée le 23 novembre 2017.
Après de nombreux détours dans les bois alentours, la grotte de l'Ermitage n'a pas été trouvée.
L'indice IBP d'effort est de 57, (suivant l'échelle de la FFRP) un score compris entre 51 et 75 correspond au niveau 3 qualifié de "PEU DIFFICILE". La randonnée pédestre nécessite un certain engagement physique qui reste toutefois mesuré. Ce niveau correspond à des randonnées pédestres modérées.]]></desc>
  </metadata>
  <trk>
    <name><![CDATA[23 nov. 2017 à 09:08:11]]></name>
    <cmt><![CDATA[23 nov. 2017 à 09:08:11]]></cmt>
    <trkseg>
      <trkpt lat="47.05996" lon="5.95667">
        <ele>321</ele>
        <time>2017-11-23T08:08:12Z</time>
      </trkpt>
      <trkpt lat="47.05998" lon="5.95667">
        <ele>321</ele>
        <time>2017-11-23T08:09:55Z</time>
      </trkpt>
      <trkpt lat="47.05998" lon="5.9566">
        <ele>321</ele>
        <time>2017-11-23T08:10:41Z</time>
      </trkpt>
      <trkpt lat="47.06001" lon="5.95654">
        <ele>321</ele>
        <time>2017-11-23T08:10:50Z</time>
      </trkpt>
      <trkpt lat="47.06004" lon="5.95638">
        <ele>321</ele>
        <time>2017-11-23T08:11:06Z</time>
      </trkpt>
      <trkpt lat="47.06005" lon="5.9563">
        <ele>320</ele>
        <time>2017-11-23T08:11:15Z</time>
      </trkpt>
      <trkpt lat="47.0601" lon="5.95616">
        <ele>320</ele>
        <time>2017-11-23T08:11:26Z</time>
      </trkpt>
      <trkpt lat="47.0601" lon="5.95609">
        <ele>320</ele>
        <time>2017-11-23T08:11:30Z</time>
      </trkpt>
      <trkpt lat="47.06009" lon="5.95587">
        <ele>317</ele>
        <time>2017-11-23T08:11:46Z</time>
      </trkpt>
      <trkpt lat="47.06007" lon="5.95579">
        <ele>317</ele>
        <time>2017-11-23T08:11:52Z</time>
      </trkpt>
      <trkpt lat="47.06003" lon="5.95557">
        <ele>317</ele>
        <time>2017-11-23T08:12:08Z</time>
      </trkpt>
      <trkpt lat="47.06004" lon="5.95541">
        <ele>318</ele>
        <time>2017-11-23T08:12:17Z</time>
      </trkpt>
      <trkpt lat="47.06004" lon="5.95535">
        <ele>317</ele>
        <time>2017-11-23T08:12:21Z</time>
      </trkpt>
      <trkpt lat="47.06006" lon="5.95528">
        <ele>317</ele>
        <time>2017-11-23T08:12:25Z</time>
      </trkpt>
      <trkpt lat="47.0601" lon="5.95524">
        <ele>317</ele>
        <time>2017-11-23T08:12:31Z</time>
      </trkpt>
      <trkpt lat="47.06017" lon="5.95512">
        <ele>318</ele>
        <time>2017-11-23T08:12:42Z</time>
      </trkpt>
      <trkpt lat="47.06022" lon="5.95511">
        <ele>318</ele>
        <time>2017-11-23T08:12:47Z</time>
      </trkpt>
      <trkpt lat="47.06026" lon="5.95513">
        <ele>319</ele>
        <time>2017-11-23T08:12:52Z</time>
      </trkpt>
      <trkpt lat="47.0603" lon="5.95511">
        <ele>319</ele>
        <time>2017-11-23T08:13:02Z</time>
      </trkpt>
      <trkpt lat="47.06035" lon="5.95512">
        <ele>319</ele>
        <time>2017-11-23T08:13:25Z</time>
      </trkpt>
      <trkpt lat="47.06039" lon="5.95515">
        <ele>320</ele>
        <time>2017-11-23T08:13:28Z</time>
      </trkpt>
      <trkpt lat="47.06072" lon="5.95523">
        <ele>323</ele>
        <time>2017-11-23T08:13:59Z</time>
      </trkpt>
      <trkpt lat="47.06082" lon="5.95525">
        <ele>324</ele>
        <time>2017-11-23T08:14:08Z</time>
      </trkpt>
      <trkpt lat="47.06087" lon="5.95529">
        <ele>325</ele>
        <time>2017-11-23T08:14:13Z</time>
      </trkpt>
      <trkpt lat="47.0609" lon="5.95535">
        <ele>326</ele>
        <time>2017-11-23T08:14:19Z</time>
      </trkpt>
      <trkpt lat="47.06094" lon="5.9554">
        <ele>327</ele>
        <time>2017-11-23T08:14:24Z</time>
      </trkpt>
      <trkpt lat="47.06098" lon="5.95544">
        <ele>327</ele>
        <time>2017-11-23T08:14:29Z</time>
      </trkpt>
      <trkpt lat="47.06101" lon="5.9555">
        <ele>328</ele>
        <time>2017-11-23T08:14:34Z</time>
      </trkpt>
      <trkpt lat="47.06102" lon="5.95557">
        <ele>328</ele>
        <time>2017-11-23T08:14:38Z</time>
      </trkpt>
      <trkpt lat="47.06108" lon="5.95568">
        <ele>329</ele>
        <time>2017-11-23T08:14:48Z</time>
      </trkpt>
      <trkpt lat="47.06112" lon="5.95573">
        <ele>330</ele>
        <time>2017-11-23T08:14:53Z</time>
      </trkpt>
      <trkpt lat="47.06115" lon="5.95578">
        <ele>330</ele>
        <time>2017-11-23T08:14:58Z</time>
      </trkpt>
      <trkpt lat="47.06122" lon="5.95588">
        <ele>332</ele>
        <time>2017-11-23T08:15:09Z</time>
      </trkpt>
      <trkpt lat="47.06125" lon="5.95594">
        <ele>332</ele>
        <time>2017-11-23T08:15:14Z</time>
      </trkpt>
      <trkpt lat="47.06128" lon="5.956">
        <ele>333</ele>
        <time>2017-11-23T08:15:19Z</time>
      </trkpt>
      <trkpt lat="47.06131" lon="5.95605">
        <ele>334</ele>
        <time>2017-11-23T08:15:24Z</time>
      </trkpt>
      <trkpt lat="47.06133" lon="5.9561">
        <ele>334</ele>
        <time>2017-11-23T08:15:30Z</time>
      </trkpt>
      <trkpt lat="47.06135" lon="5.95618">
        <ele>335</ele>
        <time>2017-11-23T08:15:36Z</time>
      </trkpt>
      <trkpt lat="47.06137" lon="5.95624">
        <ele>335</ele>
        <time>2017-11-23T08:15:41Z</time>
      </trkpt>
      <trkpt lat="47.06151" lon="5.95644">
        <ele>338</ele>
        <time>2017-11-23T08:16:03Z</time>
      </trkpt>
      <trkpt lat="47.06162" lon="5.95676">
        <ele>344</ele>
        <time>2017-11-23T08:16:34Z</time>
      </trkpt>
      <trkpt lat="47.06171" lon="5.95701">
        <ele>350</ele>
        <time>2017-11-23T08:17:00Z</time>
      </trkpt>
      <trkpt lat="47.06178" lon="5.95711">
        <ele>351</ele>
        <time>2017-11-23T08:17:11Z</time>
      </trkpt>
      <trkpt lat="47.06182" lon="5.95714">
        <ele>353</ele>
        <time>2017-11-23T08:17:17Z</time>
      </trkpt>
      <trkpt lat="47.06193" lon="5.95715">
        <ele>354</ele>
        <time>2017-11-23T08:17:30Z</time>
      </trkpt>
      <trkpt lat="47.06198" lon="5.95713">
        <ele>354</ele>
        <time>2017-11-23T08:17:38Z</time>
      </trkpt>
      <trkpt lat="47.06202" lon="5.95713">
        <ele>356</ele>
        <time>2017-11-23T08:17:45Z</time>
      </trkpt>
      <trkpt lat="47.06211" lon="5.95719">
        <ele>359</ele>
        <time>2017-11-23T08:17:57Z</time>
      </trkpt>
      <trkpt lat="47.06215" lon="5.95724">
        <ele>360</ele>
        <time>2017-11-23T08:18:04Z</time>
      </trkpt>
      <trkpt lat="47.06218" lon="5.95738">
        <ele>363</ele>
        <time>2017-11-23T08:18:16Z</time>
      </trkpt>
      <trkpt lat="47.06219" lon="5.95744">
        <ele>364</ele>
        <time>2017-11-23T08:18:22Z</time>
      </trkpt>
      <trkpt lat="47.06217" lon="5.95758">
        <ele>365</ele>
        <time>2017-11-23T08:18:35Z</time>
      </trkpt>
      <trkpt lat="47.06218" lon="5.95766">
        <ele>366</ele>
        <time>2017-11-23T08:18:41Z</time>
      </trkpt>
      <trkpt lat="47.06219" lon="5.95773">
        <ele>366</ele>
        <time>2017-11-23T08:18:46Z</time>
      </trkpt>
      <trkpt lat="47.06222" lon="5.95779">
        <ele>367</ele>
        <time>2017-11-23T08:18:51Z</time>
      </trkpt>
      <trkpt lat="47.06227" lon="5.95791">
        <ele>367</ele>
        <time>2017-11-23T08:19:02Z</time>
      </trkpt>
      <trkpt lat="47.0623" lon="5.95796">
        <ele>367</ele>
        <time>2017-11-23T08:19:07Z</time>
      </trkpt>
      <trkpt lat="47.06233" lon="5.95802">
        <ele>368</ele>
        <time>2017-11-23T08:19:11Z</time>
      </trkpt>
      <trkpt lat="47.06237" lon="5.95806">
        <ele>369</ele>
        <time>2017-11-23T08:19:16Z</time>
      </trkpt>
      <trkpt lat="47.06249" lon="5.95829">
        <ele>374</ele>
        <time>2017-11-23T08:19:44Z</time>
      </trkpt>
      <trkpt lat="47.06257" lon="5.95836">
        <ele>375</ele>
        <time>2017-11-23T08:20:00Z</time>
      </trkpt>
      <trkpt lat="47.06261" lon="5.95848">
        <ele>377</ele>
        <time>2017-11-23T08:20:12Z</time>
      </trkpt>
      <trkpt lat="47.06261" lon="5.95862">
        <ele>377</ele>
        <time>2017-11-23T08:20:22Z</time>
      </trkpt>
      <trkpt lat="47.06263" lon="5.95869">
        <ele>377</ele>
        <time>2017-11-23T08:20:28Z</time>
      </trkpt>
      <trkpt lat="47.06263" lon="5.95883">
        <ele>380</ele>
        <time>2017-11-23T08:20:40Z</time>
      </trkpt>
      <trkpt lat="47.06271" lon="5.95902">
        <ele>383</ele>
        <time>2017-11-23T08:20:58Z</time>
      </trkpt>
      <trkpt lat="47.06273" lon="5.95912">
        <ele>384</ele>
        <time>2017-11-23T08:21:07Z</time>
      </trkpt>
      <trkpt lat="47.06273" lon="5.95919">
        <ele>384</ele>
        <time>2017-11-23T08:21:11Z</time>
      </trkpt>
      <trkpt lat="47.06272" lon="5.95927">
        <ele>384</ele>
        <time>2017-11-23T08:21:15Z</time>
      </trkpt>
      <trkpt lat="47.06285" lon="5.95971">
        <ele>387</ele>
        <time>2017-11-23T08:21:53Z</time>
      </trkpt>
      <trkpt lat="47.06292" lon="5.9599">
        <ele>392</ele>
        <time>2017-11-23T08:22:10Z</time>
      </trkpt>
      <trkpt lat="47.0629" lon="5.95997">
        <ele>393</ele>
        <time>2017-11-23T08:22:15Z</time>
      </trkpt>
      <trkpt lat="47.06294" lon="5.96003">
        <ele>393</ele>
        <time>2017-11-23T08:22:20Z</time>
      </trkpt>
      <trkpt lat="47.06296" lon="5.96017">
        <ele>395</ele>
        <time>2017-11-23T08:22:30Z</time>
      </trkpt>
      <trkpt lat="47.06297" lon="5.96032">
        <ele>395</ele>
        <time>2017-11-23T08:22:41Z</time>
      </trkpt>
      <trkpt lat="47.06301" lon="5.96045">
        <ele>396</ele>
        <time>2017-11-23T08:22:52Z</time>
      </trkpt>
      <trkpt lat="47.06301" lon="5.96053">
        <ele>396</ele>
        <time>2017-11-23T08:22:57Z</time>
      </trkpt>
      <trkpt lat="47.06305" lon="5.96075">
        <ele>397</ele>
        <time>2017-11-23T08:23:13Z</time>
      </trkpt>
      <trkpt lat="47.06302" lon="5.96089">
        <ele>397</ele>
        <time>2017-11-23T08:23:21Z</time>
      </trkpt>
      <trkpt lat="47.06303" lon="5.96103">
        <ele>397</ele>
        <time>2017-11-23T08:23:31Z</time>
      </trkpt>
      <trkpt lat="47.06305" lon="5.9613">
        <ele>400</ele>
        <time>2017-11-23T08:23:50Z</time>
      </trkpt>
      <trkpt lat="47.06304" lon="5.96145">
        <ele>402</ele>
        <time>2017-11-23T08:24:00Z</time>
      </trkpt>
      <trkpt lat="47.06306" lon="5.9616">
        <ele>403</ele>
        <time>2017-11-23T08:24:10Z</time>
      </trkpt>
      <trkpt lat="47.06304" lon="5.96182">
        <ele>405</ele>
        <time>2017-11-23T08:24:24Z</time>
      </trkpt>
      <trkpt lat="47.06308" lon="5.96196">
        <ele>406</ele>
        <time>2017-11-23T08:24:34Z</time>
      </trkpt>
      <trkpt lat="47.06309" lon="5.96203">
        <ele>407</ele>
        <time>2017-11-23T08:24:38Z</time>
      </trkpt>
      <trkpt lat="47.06309" lon="5.9621">
        <ele>407</ele>
        <time>2017-11-23T08:24:43Z</time>
      </trkpt>
      <trkpt lat="47.06311" lon="5.96217">
        <ele>408</ele>
        <time>2017-11-23T08:24:49Z</time>
      </trkpt>
      <trkpt lat="47.0631" lon="5.9624">
        <ele>410</ele>
        <time>2017-11-23T08:25:07Z</time>
      </trkpt>
      <trkpt lat="47.06312" lon="5.96249">
        <ele>411</ele>
        <time>2017-11-23T08:25:21Z</time>
      </trkpt>
      <trkpt lat="47.06315" lon="5.96255">
        <ele>411</ele>
        <time>2017-11-23T08:25:52Z</time>
      </trkpt>
      <trkpt lat="47.06316" lon="5.96244">
        <ele>417</ele>
        <time>2017-11-23T08:27:36Z</time>
      </trkpt>
      <trkpt lat="47.0632" lon="5.96231">
        <ele>417</ele>
        <time>2017-11-23T08:27:45Z</time>
      </trkpt>
      <trkpt lat="47.06323" lon="5.96204">
        <ele>418</ele>
        <time>2017-11-23T08:28:03Z</time>
      </trkpt>
      <trkpt lat="47.0632" lon="5.9619">
        <ele>419</ele>
        <time>2017-11-23T08:28:18Z</time>
      </trkpt>
      <trkpt lat="47.06321" lon="5.96177">
        <ele>419</ele>
        <time>2017-11-23T08:28:24Z</time>
      </trkpt>
      <trkpt lat="47.06323" lon="5.96164">
        <ele>419</ele>
        <time>2017-11-23T08:28:32Z</time>
      </trkpt>
      <trkpt lat="47.06325" lon="5.96135">
        <ele>419</ele>
        <time>2017-11-23T08:28:47Z</time>
      </trkpt>
      <trkpt lat="47.06327" lon="5.96128">
        <ele>420</ele>
        <time>2017-11-23T08:28:54Z</time>
      </trkpt>
      <trkpt lat="47.06325" lon="5.96121">
        <ele>419</ele>
        <time>2017-11-23T08:28:58Z</time>
      </trkpt>
      <trkpt lat="47.06324" lon="5.96105">
        <ele>418</ele>
        <time>2017-11-23T08:29:06Z</time>
      </trkpt>
      <trkpt lat="47.06325" lon="5.96097">
        <ele>418</ele>
        <time>2017-11-23T08:29:11Z</time>
      </trkpt>
      <trkpt lat="47.06327" lon="5.9609">
        <ele>418</ele>
        <time>2017-11-23T08:29:17Z</time>
      </trkpt>
      <trkpt lat="47.06326" lon="5.96083">
        <ele>418</ele>
        <time>2017-11-23T08:29:20Z</time>
      </trkpt>
      <trkpt lat="47.06325" lon="5.96077">
        <ele>418</ele>
        <time>2017-11-23T08:29:23Z</time>
      </trkpt>
      <trkpt lat="47.06323" lon="5.96055">
        <ele>418</ele>
        <time>2017-11-23T08:29:38Z</time>
      </trkpt>
      <trkpt lat="47.06324" lon="5.96047">
        <ele>418</ele>
        <time>2017-11-23T08:29:46Z</time>
      </trkpt>
      <trkpt lat="47.06323" lon="5.9604">
        <ele>418</ele>
        <time>2017-11-23T08:29:52Z</time>
      </trkpt>
      <trkpt lat="47.06323" lon="5.96033">
        <ele>418</ele>
        <time>2017-11-23T08:29:58Z</time>
      </trkpt>
      <trkpt lat="47.06325" lon="5.96025">
        <ele>418</ele>
        <time>2017-11-23T08:30:34Z</time>
      </trkpt>
      <trkpt lat="47.06329" lon="5.96022">
        <ele>419</ele>
        <time>2017-11-23T08:30:44Z</time>
      </trkpt>
      <trkpt lat="47.06326" lon="5.96008">
        <ele>419</ele>
        <time>2017-11-23T08:30:57Z</time>
      </trkpt>
      <trkpt lat="47.06332" lon="5.95992">
        <ele>420</ele>
        <time>2017-11-23T08:31:26Z</time>
      </trkpt>
      <trkpt lat="47.06338" lon="5.95976">
        <ele>422</ele>
        <time>2017-11-23T08:32:39Z</time>
      </trkpt>
      <trkpt lat="47.0635" lon="5.95976">
        <ele>425</ele>
        <time>2017-11-23T08:33:58Z</time>
      </trkpt>
      <trkpt lat="47.06362" lon="5.95991">
        <ele>433</ele>
        <time>2017-11-23T08:34:54Z</time>
      </trkpt>
      <trkpt lat="47.06367" lon="5.95997">
        <ele>439</ele>
        <time>2017-11-23T08:35:56Z</time>
      </trkpt>
      <trkpt lat="47.06369" lon="5.9601">
        <ele>439</ele>
        <time>2017-11-23T08:36:22Z</time>
      </trkpt>
      <trkpt lat="47.06371" lon="5.96016">
        <ele>440</ele>
        <time>2017-11-23T08:36:31Z</time>
      </trkpt>
      <trkpt lat="47.06381" lon="5.96021">
        <ele>443</ele>
        <time>2017-11-23T08:36:45Z</time>
      </trkpt>
      <trkpt lat="47.06385" lon="5.96034">
        <ele>445</ele>
        <time>2017-11-23T08:37:18Z</time>
      </trkpt>
      <trkpt lat="47.06388" lon="5.96047">
        <ele>450</ele>
        <time>2017-11-23T08:37:50Z</time>
      </trkpt>
      <trkpt lat="47.06386" lon="5.96065">
        <ele>451</ele>
        <time>2017-11-23T08:38:32Z</time>
      </trkpt>
      <trkpt lat="47.06389" lon="5.96073">
        <ele>452</ele>
        <time>2017-11-23T08:40:24Z</time>
      </trkpt>
      <trkpt lat="47.06384" lon="5.96076">
        <ele>452</ele>
        <time>2017-11-23T08:41:02Z</time>
      </trkpt>
      <trkpt lat="47.06384" lon="5.96083">
        <ele>451</ele>
        <time>2017-11-23T08:42:05Z</time>
      </trkpt>
      <trkpt lat="47.06384" lon="5.9609">
        <ele>450</ele>
        <time>2017-11-23T08:42:11Z</time>
      </trkpt>
      <trkpt lat="47.06387" lon="5.96095">
        <ele>450</ele>
        <time>2017-11-23T08:42:18Z</time>
      </trkpt>
      <trkpt lat="47.06385" lon="5.96129">
        <ele>455</ele>
        <time>2017-11-23T08:42:56Z</time>
      </trkpt>
      <trkpt lat="47.06388" lon="5.96138">
        <ele>463</ele>
        <time>2017-11-23T08:44:58Z</time>
      </trkpt>
      <trkpt lat="47.06383" lon="5.96138">
        <ele>467</ele>
        <time>2017-11-23T08:45:28Z</time>
      </trkpt>
      <trkpt lat="47.06388" lon="5.96107">
        <ele>458</ele>
        <time>2017-11-23T08:46:13Z</time>
      </trkpt>
      <trkpt lat="47.0639" lon="5.96094">
        <ele>456</ele>
        <time>2017-11-23T08:46:44Z</time>
      </trkpt>
      <trkpt lat="47.06392" lon="5.96081">
        <ele>457</ele>
        <time>2017-11-23T08:47:15Z</time>
      </trkpt>
      <trkpt lat="47.06395" lon="5.96067">
        <ele>457</ele>
        <time>2017-11-23T08:47:32Z</time>
      </trkpt>
      <trkpt lat="47.0639" lon="5.96056">
        <ele>455</ele>
        <time>2017-11-23T08:48:22Z</time>
      </trkpt>
      <trkpt lat="47.06387" lon="5.96041">
        <ele>455</ele>
        <time>2017-11-23T08:50:38Z</time>
      </trkpt>
      <trkpt lat="47.06376" lon="5.96023">
        <ele>456</ele>
        <time>2017-11-23T08:51:28Z</time>
      </trkpt>
      <trkpt lat="47.06368" lon="5.96015">
        <ele>454</ele>
        <time>2017-11-23T08:52:06Z</time>
      </trkpt>
      <trkpt lat="47.06363" lon="5.96002">
        <ele>454</ele>
        <time>2017-11-23T08:52:30Z</time>
      </trkpt>
      <trkpt lat="47.0636" lon="5.95989">
        <ele>449</ele>
        <time>2017-11-23T08:52:57Z</time>
      </trkpt>
      <trkpt lat="47.0635" lon="5.95988">
        <ele>448</ele>
        <time>2017-11-23T08:53:11Z</time>
      </trkpt>
      <trkpt lat="47.06341" lon="5.95992">
        <ele>445</ele>
        <time>2017-11-23T08:53:34Z</time>
      </trkpt>
      <trkpt lat="47.06333" lon="5.95971">
        <ele>436</ele>
        <time>2017-11-23T08:55:05Z</time>
      </trkpt>
      <trkpt lat="47.06325" lon="5.95967">
        <ele>437</ele>
        <time>2017-11-23T08:55:19Z</time>
      </trkpt>
      <trkpt lat="47.06322" lon="5.95957">
        <ele>421</ele>
        <time>2017-11-23T08:57:05Z</time>
      </trkpt>
      <trkpt lat="47.0632" lon="5.95941">
        <ele>417</ele>
        <time>2017-11-23T08:57:23Z</time>
      </trkpt>
      <trkpt lat="47.06323" lon="5.95911">
        <ele>416</ele>
        <time>2017-11-23T08:57:43Z</time>
      </trkpt>
      <trkpt lat="47.06317" lon="5.95857">
        <ele>417</ele>
        <time>2017-11-23T08:58:22Z</time>
      </trkpt>
      <trkpt lat="47.06315" lon="5.95829">
        <ele>418</ele>
        <time>2017-11-23T08:58:36Z</time>
      </trkpt>
      <trkpt lat="47.06314" lon="5.95815">
        <ele>417</ele>
        <time>2017-11-23T08:58:44Z</time>
      </trkpt>
      <trkpt lat="47.06315" lon="5.95801">
        <ele>416</ele>
        <time>2017-11-23T08:58:52Z</time>
      </trkpt>
      <trkpt lat="47.06316" lon="5.95786">
        <ele>415</ele>
        <time>2017-11-23T08:59:02Z</time>
      </trkpt>
      <trkpt lat="47.06314" lon="5.95773">
        <ele>416</ele>
        <time>2017-11-23T08:59:14Z</time>
      </trkpt>
      <trkpt lat="47.06314" lon="5.95758">
        <ele>415</ele>
        <time>2017-11-23T08:59:21Z</time>
      </trkpt>
      <trkpt lat="47.06313" lon="5.95744">
        <ele>415</ele>
        <time>2017-11-23T08:59:29Z</time>
      </trkpt>
      <trkpt lat="47.06316" lon="5.9573">
        <ele>415</ele>
        <time>2017-11-23T08:59:37Z</time>
      </trkpt>
      <trkpt lat="47.06319" lon="5.95703">
        <ele>413</ele>
        <time>2017-11-23T08:59:57Z</time>
      </trkpt>
      <trkpt lat="47.06325" lon="5.9569">
        <ele>412</ele>
        <time>2017-11-23T09:00:05Z</time>
      </trkpt>
      <trkpt lat="47.06328" lon="5.95677">
        <ele>412</ele>
        <time>2017-11-23T09:00:15Z</time>
      </trkpt>
      <trkpt lat="47.06329" lon="5.95663">
        <ele>412</ele>
        <time>2017-11-23T09:00:23Z</time>
      </trkpt>
      <trkpt lat="47.06338" lon="5.95623">
        <ele>410</ele>
        <time>2017-11-23T09:00:43Z</time>
      </trkpt>
      <trkpt lat="47.06344" lon="5.95583">
        <ele>408</ele>
        <time>2017-11-23T09:01:17Z</time>
      </trkpt>
      <trkpt lat="47.06344" lon="5.95568">
        <ele>408</ele>
        <time>2017-11-23T09:01:28Z</time>
      </trkpt>
      <trkpt lat="47.06362" lon="5.95535">
        <ele>408</ele>
        <time>2017-11-23T09:01:57Z</time>
      </trkpt>
      <trkpt lat="47.06369" lon="5.95509">
        <ele>407</ele>
        <time>2017-11-23T09:02:10Z</time>
      </trkpt>
      <trkpt lat="47.06376" lon="5.95483">
        <ele>405</ele>
        <time>2017-11-23T09:02:29Z</time>
      </trkpt>
      <trkpt lat="47.06382" lon="5.95473">
        <ele>404</ele>
        <time>2017-11-23T09:02:42Z</time>
      </trkpt>
      <trkpt lat="47.06388" lon="5.95462">
        <ele>403</ele>
        <time>2017-11-23T09:02:52Z</time>
      </trkpt>
      <trkpt lat="47.06396" lon="5.95454">
        <ele>403</ele>
        <time>2017-11-23T09:03:01Z</time>
      </trkpt>
      <trkpt lat="47.06405" lon="5.9545">
        <ele>403</ele>
        <time>2017-11-23T09:03:10Z</time>
      </trkpt>
      <trkpt lat="47.06414" lon="5.95449">
        <ele>402</ele>
        <time>2017-11-23T09:03:22Z</time>
      </trkpt>
      <trkpt lat="47.06419" lon="5.9545">
        <ele>402</ele>
        <time>2017-11-23T09:03:31Z</time>
      </trkpt>
      <trkpt lat="47.06423" lon="5.95449">
        <ele>402</ele>
        <time>2017-11-23T09:03:39Z</time>
      </trkpt>
      <trkpt lat="47.06433" lon="5.95452">
        <ele>403</ele>
        <time>2017-11-23T09:03:51Z</time>
      </trkpt>
      <trkpt lat="47.06438" lon="5.9545">
        <ele>404</ele>
        <time>2017-11-23T09:04:00Z</time>
      </trkpt>
      <trkpt lat="47.06443" lon="5.95451">
        <ele>405</ele>
        <time>2017-11-23T09:04:08Z</time>
      </trkpt>
      <trkpt lat="47.06452" lon="5.95455">
        <ele>407</ele>
        <time>2017-11-23T09:04:17Z</time>
      </trkpt>
      <trkpt lat="47.06457" lon="5.95454">
        <ele>407</ele>
        <time>2017-11-23T09:04:21Z</time>
      </trkpt>
      <trkpt lat="47.06464" lon="5.95446">
        <ele>408</ele>
        <time>2017-11-23T09:04:32Z</time>
      </trkpt>
      <trkpt lat="47.06476" lon="5.95448">
        <ele>409</ele>
        <time>2017-11-23T09:04:52Z</time>
      </trkpt>
      <trkpt lat="47.06494" lon="5.95442">
        <ele>411</ele>
        <time>2017-11-23T09:05:18Z</time>
      </trkpt>
      <trkpt lat="47.06521" lon="5.95456">
        <ele>418</ele>
        <time>2017-11-23T09:05:58Z</time>
      </trkpt>
      <trkpt lat="47.06534" lon="5.95459">
        <ele>421</ele>
        <time>2017-11-23T09:06:24Z</time>
      </trkpt>
      <trkpt lat="47.06552" lon="5.95476">
        <ele>427</ele>
        <time>2017-11-23T09:06:58Z</time>
      </trkpt>
      <trkpt lat="47.0656" lon="5.95481">
        <ele>428</ele>
        <time>2017-11-23T09:07:08Z</time>
      </trkpt>
      <trkpt lat="47.06571" lon="5.95503">
        <ele>434</ele>
        <time>2017-11-23T09:07:45Z</time>
      </trkpt>
      <trkpt lat="47.0658" lon="5.95522">
        <ele>437</ele>
        <time>2017-11-23T09:08:31Z</time>
      </trkpt>
      <trkpt lat="47.06581" lon="5.95535">
        <ele>438</ele>
        <time>2017-11-23T09:08:57Z</time>
      </trkpt>
      <trkpt lat="47.06595" lon="5.95533">
        <ele>442</ele>
        <time>2017-11-23T09:09:56Z</time>
      </trkpt>
      <trkpt lat="47.06596" lon="5.95547">
        <ele>451</ele>
        <time>2017-11-23T09:10:16Z</time>
      </trkpt>
      <trkpt lat="47.06605" lon="5.95558">
        <ele>452</ele>
        <time>2017-11-23T09:10:45Z</time>
      </trkpt>
      <trkpt lat="47.06597" lon="5.95568">
        <ele>455</ele>
        <time>2017-11-23T09:11:43Z</time>
      </trkpt>
      <trkpt lat="47.06593" lon="5.95581">
        <ele>458</ele>
        <time>2017-11-23T09:11:56Z</time>
      </trkpt>
      <trkpt lat="47.06584" lon="5.95588">
        <ele>460</ele>
        <time>2017-11-23T09:12:07Z</time>
      </trkpt>
      <trkpt lat="47.06571" lon="5.95581">
        <ele>460</ele>
        <time>2017-11-23T09:12:34Z</time>
      </trkpt>
      <trkpt lat="47.06562" lon="5.9558">
        <ele>459</ele>
        <time>2017-11-23T09:12:46Z</time>
      </trkpt>
      <trkpt lat="47.06537" lon="5.95561">
        <ele>457</ele>
        <time>2017-11-23T09:13:18Z</time>
      </trkpt>
      <trkpt lat="47.0653" lon="5.95554">
        <ele>456</ele>
        <time>2017-11-23T09:13:28Z</time>
      </trkpt>
      <trkpt lat="47.06514" lon="5.95538">
        <ele>456</ele>
        <time>2017-11-23T09:13:43Z</time>
      </trkpt>
      <trkpt lat="47.06505" lon="5.95535">
        <ele>456</ele>
        <time>2017-11-23T09:13:51Z</time>
      </trkpt>
      <trkpt lat="47.06488" lon="5.95522">
        <ele>456</ele>
        <time>2017-11-23T09:14:11Z</time>
      </trkpt>
      <trkpt lat="47.06479" lon="5.95525">
        <ele>455</ele>
        <time>2017-11-23T09:14:21Z</time>
      </trkpt>
      <trkpt lat="47.0647" lon="5.95522">
        <ele>454</ele>
        <time>2017-11-23T09:14:29Z</time>
      </trkpt>
      <trkpt lat="47.06462" lon="5.95527">
        <ele>453</ele>
        <time>2017-11-23T09:14:41Z</time>
      </trkpt>
      <trkpt lat="47.06458" lon="5.95523">
        <ele>453</ele>
        <time>2017-11-23T09:14:46Z</time>
      </trkpt>
      <trkpt lat="47.06456" lon="5.95523">
        <ele>451</ele>
        <time>2017-11-23T09:16:22Z</time>
      </trkpt>
      <trkpt lat="47.06451" lon="5.95525">
        <ele>451</ele>
        <time>2017-11-23T09:17:42Z</time>
      </trkpt>
      <trkpt lat="47.06449" lon="5.95518">
        <ele>451</ele>
        <time>2017-11-23T09:18:37Z</time>
      </trkpt>
      <trkpt lat="47.0647" lon="5.95556">
        <ele>456</ele>
        <time>2017-11-23T09:25:28Z</time>
      </trkpt>
      <trkpt lat="47.06472" lon="5.95563">
        <ele>457</ele>
        <time>2017-11-23T09:25:35Z</time>
      </trkpt>
      <trkpt lat="47.06467" lon="5.95575">
        <ele>458</ele>
        <time>2017-11-23T09:25:49Z</time>
      </trkpt>
      <trkpt lat="47.06455" lon="5.95595">
        <ele>458</ele>
        <time>2017-11-23T09:26:07Z</time>
      </trkpt>
      <trkpt lat="47.06445" lon="5.95619">
        <ele>460</ele>
        <time>2017-11-23T09:26:30Z</time>
      </trkpt>
      <trkpt lat="47.06443" lon="5.95645">
        <ele>460</ele>
        <time>2017-11-23T09:26:48Z</time>
      </trkpt>
      <trkpt lat="47.0644" lon="5.95658">
        <ele>461</ele>
        <time>2017-11-23T09:26:58Z</time>
      </trkpt>
      <trkpt lat="47.06444" lon="5.95671">
        <ele>462</ele>
        <time>2017-11-23T09:27:10Z</time>
      </trkpt>
      <trkpt lat="47.06444" lon="5.95685">
        <ele>463</ele>
        <time>2017-11-23T09:27:20Z</time>
      </trkpt>
      <trkpt lat="47.06427" lon="5.9572">
        <ele>465</ele>
        <time>2017-11-23T09:27:52Z</time>
      </trkpt>
      <trkpt lat="47.06421" lon="5.9573">
        <ele>464</ele>
        <time>2017-11-23T09:28:04Z</time>
      </trkpt>
      <trkpt lat="47.06416" lon="5.95732">
        <ele>465</ele>
        <time>2017-11-23T09:28:10Z</time>
      </trkpt>
      <trkpt lat="47.06411" lon="5.95732">
        <ele>465</ele>
        <time>2017-11-23T09:28:15Z</time>
      </trkpt>
      <trkpt lat="47.06407" lon="5.95729">
        <ele>465</ele>
        <time>2017-11-23T09:28:20Z</time>
      </trkpt>
      <trkpt lat="47.06403" lon="5.95731">
        <ele>465</ele>
        <time>2017-11-23T09:28:25Z</time>
      </trkpt>
      <trkpt lat="47.06396" lon="5.95741">
        <ele>462</ele>
        <time>2017-11-23T09:28:37Z</time>
      </trkpt>
      <trkpt lat="47.06391" lon="5.95741">
        <ele>462</ele>
        <time>2017-11-23T09:28:47Z</time>
      </trkpt>
      <trkpt lat="47.06393" lon="5.95742">
        <ele>466</ele>
        <time>2017-11-23T09:30:50Z</time>
      </trkpt>
      <trkpt lat="47.06398" lon="5.95748">
        <ele>466</ele>
        <time>2017-11-23T09:31:52Z</time>
      </trkpt>
      <trkpt lat="47.06401" lon="5.9576">
        <ele>460</ele>
        <time>2017-11-23T09:32:08Z</time>
      </trkpt>
      <trkpt lat="47.06401" lon="5.95767">
        <ele>461</ele>
        <time>2017-11-23T09:32:12Z</time>
      </trkpt>
      <trkpt lat="47.06404" lon="5.95774">
        <ele>462</ele>
        <time>2017-11-23T09:32:17Z</time>
      </trkpt>
      <trkpt lat="47.06408" lon="5.95778">
        <ele>463</ele>
        <time>2017-11-23T09:32:23Z</time>
      </trkpt>
      <trkpt lat="47.06413" lon="5.95781">
        <ele>464</ele>
        <time>2017-11-23T09:32:28Z</time>
      </trkpt>
      <trkpt lat="47.06417" lon="5.95785">
        <ele>465</ele>
        <time>2017-11-23T09:32:33Z</time>
      </trkpt>
      <trkpt lat="47.06421" lon="5.95798">
        <ele>466</ele>
        <time>2017-11-23T09:32:44Z</time>
      </trkpt>
      <trkpt lat="47.06432" lon="5.95814">
        <ele>469</ele>
        <time>2017-11-23T09:33:00Z</time>
      </trkpt>
      <trkpt lat="47.06433" lon="5.9582">
        <ele>469</ele>
        <time>2017-11-23T09:33:05Z</time>
      </trkpt>
      <trkpt lat="47.06426" lon="5.95828">
        <ele>469</ele>
        <time>2017-11-23T09:33:13Z</time>
      </trkpt>
      <trkpt lat="47.06432" lon="5.95855">
        <ele>470</ele>
        <time>2017-11-23T09:33:32Z</time>
      </trkpt>
      <trkpt lat="47.06437" lon="5.95867">
        <ele>469</ele>
        <time>2017-11-23T09:33:40Z</time>
      </trkpt>
      <trkpt lat="47.06443" lon="5.95909">
        <ele>471</ele>
        <time>2017-11-23T09:34:05Z</time>
      </trkpt>
      <trkpt lat="47.06447" lon="5.95923">
        <ele>471</ele>
        <time>2017-11-23T09:34:15Z</time>
      </trkpt>
      <trkpt lat="47.06449" lon="5.95937">
        <ele>471</ele>
        <time>2017-11-23T09:34:23Z</time>
      </trkpt>
      <trkpt lat="47.06461" lon="5.95958">
        <ele>473</ele>
        <time>2017-11-23T09:34:41Z</time>
      </trkpt>
      <trkpt lat="47.0647" lon="5.95965">
        <ele>474</ele>
        <time>2017-11-23T09:34:51Z</time>
      </trkpt>
      <trkpt lat="47.06479" lon="5.95968">
        <ele>475</ele>
        <time>2017-11-23T09:34:59Z</time>
      </trkpt>
      <trkpt lat="47.06485" lon="5.95978">
        <ele>475</ele>
        <time>2017-11-23T09:35:07Z</time>
      </trkpt>
      <trkpt lat="47.06493" lon="5.95985">
        <ele>476</ele>
        <time>2017-11-23T09:35:16Z</time>
      </trkpt>
      <trkpt lat="47.0651" lon="5.95995">
        <ele>478</ele>
        <time>2017-11-23T09:35:33Z</time>
      </trkpt>
      <trkpt lat="47.06515" lon="5.95998">
        <ele>478</ele>
        <time>2017-11-23T09:35:38Z</time>
      </trkpt>
      <trkpt lat="47.0652" lon="5.95999">
        <ele>478</ele>
        <time>2017-11-23T09:35:42Z</time>
      </trkpt>
      <trkpt lat="47.06525" lon="5.96002">
        <ele>478</ele>
        <time>2017-11-23T09:35:49Z</time>
      </trkpt>
      <trkpt lat="47.06532" lon="5.96011">
        <ele>479</ele>
        <time>2017-11-23T09:35:58Z</time>
      </trkpt>
      <trkpt lat="47.06538" lon="5.96022">
        <ele>478</ele>
        <time>2017-11-23T09:36:08Z</time>
      </trkpt>
      <trkpt lat="47.06542" lon="5.96027">
        <ele>478</ele>
        <time>2017-11-23T09:36:13Z</time>
      </trkpt>
      <trkpt lat="47.0655" lon="5.96034">
        <ele>478</ele>
        <time>2017-11-23T09:36:23Z</time>
      </trkpt>
      <trkpt lat="47.06555" lon="5.96037">
        <ele>478</ele>
        <time>2017-11-23T09:36:28Z</time>
      </trkpt>
      <trkpt lat="47.0658" lon="5.96048">
        <ele>479</ele>
        <time>2017-11-23T09:36:56Z</time>
      </trkpt>
      <trkpt lat="47.06585" lon="5.96052">
        <ele>480</ele>
        <time>2017-11-23T09:37:02Z</time>
      </trkpt>
      <trkpt lat="47.06593" lon="5.96061">
        <ele>480</ele>
        <time>2017-11-23T09:37:12Z</time>
      </trkpt>
      <trkpt lat="47.06601" lon="5.96078">
        <ele>479</ele>
        <time>2017-11-23T09:37:26Z</time>
      </trkpt>
      <trkpt lat="47.06604" lon="5.96093">
        <ele>479</ele>
        <time>2017-11-23T09:37:36Z</time>
      </trkpt>
      <trkpt lat="47.06608" lon="5.96098">
        <ele>479</ele>
        <time>2017-11-23T09:37:41Z</time>
      </trkpt>
      <trkpt lat="47.06609" lon="5.96105">
        <ele>479</ele>
        <time>2017-11-23T09:37:47Z</time>
      </trkpt>
      <trkpt lat="47.06603" lon="5.96105">
        <ele>479</ele>
        <time>2017-11-23T09:38:11Z</time>
      </trkpt>
      <trkpt lat="47.06598" lon="5.96103">
        <ele>478</ele>
        <time>2017-11-23T09:38:16Z</time>
      </trkpt>
      <trkpt lat="47.06593" lon="5.961">
        <ele>478</ele>
        <time>2017-11-23T09:38:21Z</time>
      </trkpt>
      <trkpt lat="47.06588" lon="5.96098">
        <ele>478</ele>
        <time>2017-11-23T09:38:25Z</time>
      </trkpt>
      <trkpt lat="47.06579" lon="5.96094">
        <ele>479</ele>
        <time>2017-11-23T09:38:33Z</time>
      </trkpt>
      <trkpt lat="47.06574" lon="5.96093">
        <ele>479</ele>
        <time>2017-11-23T09:38:39Z</time>
      </trkpt>
      <trkpt lat="47.06569" lon="5.96091">
        <ele>478</ele>
        <time>2017-11-23T09:38:44Z</time>
      </trkpt>
      <trkpt lat="47.06563" lon="5.9609">
        <ele>478</ele>
        <time>2017-11-23T09:38:49Z</time>
      </trkpt>
      <trkpt lat="47.06549" lon="5.96084">
        <ele>478</ele>
        <time>2017-11-23T09:39:02Z</time>
      </trkpt>
      <trkpt lat="47.06515" lon="5.96075">
        <ele>477</ele>
        <time>2017-11-23T09:39:32Z</time>
      </trkpt>
      <trkpt lat="47.06497" lon="5.96065">
        <ele>477</ele>
        <time>2017-11-23T09:39:47Z</time>
      </trkpt>
      <trkpt lat="47.06471" lon="5.9606">
        <ele>477</ele>
        <time>2017-11-23T09:40:11Z</time>
      </trkpt>
      <trkpt lat="47.06463" lon="5.96054">
        <ele>477</ele>
        <time>2017-11-23T09:40:29Z</time>
      </trkpt>
      <trkpt lat="47.06458" lon="5.96052">
        <ele>477</ele>
        <time>2017-11-23T09:40:33Z</time>
      </trkpt>
      <trkpt lat="47.06448" lon="5.96051">
        <ele>477</ele>
        <time>2017-11-23T09:40:42Z</time>
      </trkpt>
      <trkpt lat="47.0643" lon="5.96043">
        <ele>476</ele>
        <time>2017-11-23T09:41:01Z</time>
      </trkpt>
      <trkpt lat="47.06421" lon="5.96042">
        <ele>475</ele>
        <time>2017-11-23T09:41:13Z</time>
      </trkpt>
      <trkpt lat="47.06429" lon="5.96037">
        <ele>473</ele>
        <time>2017-11-23T09:42:05Z</time>
      </trkpt>
      <trkpt lat="47.06436" lon="5.96045">
        <ele>472</ele>
        <time>2017-11-23T09:42:19Z</time>
      </trkpt>
      <trkpt lat="47.06437" lon="5.96062">
        <ele>472</ele>
        <time>2017-11-23T09:42:37Z</time>
      </trkpt>
      <trkpt lat="47.06434" lon="5.96075">
        <ele>472</ele>
        <time>2017-11-23T09:42:48Z</time>
      </trkpt>
      <trkpt lat="47.06427" lon="5.96086">
        <ele>472</ele>
        <time>2017-11-23T09:42:58Z</time>
      </trkpt>
      <trkpt lat="47.06427" lon="5.961">
        <ele>472</ele>
        <time>2017-11-23T09:43:08Z</time>
      </trkpt>
      <trkpt lat="47.06425" lon="5.96113">
        <ele>472</ele>
        <time>2017-11-23T09:43:22Z</time>
      </trkpt>
      <trkpt lat="47.06424" lon="5.96127">
        <ele>472</ele>
        <time>2017-11-23T09:43:36Z</time>
      </trkpt>
      <trkpt lat="47.06428" lon="5.96139">
        <ele>472</ele>
        <time>2017-11-23T09:43:47Z</time>
      </trkpt>
      <trkpt lat="47.06417" lon="5.96161">
        <ele>470</ele>
        <time>2017-11-23T09:44:09Z</time>
      </trkpt>
      <trkpt lat="47.06413" lon="5.96174">
        <ele>469</ele>
        <time>2017-11-23T09:44:21Z</time>
      </trkpt>
      <trkpt lat="47.0641" lon="5.96187">
        <ele>469</ele>
        <time>2017-11-23T09:44:30Z</time>
      </trkpt>
      <trkpt lat="47.06404" lon="5.96213">
        <ele>467</ele>
        <time>2017-11-23T09:44:58Z</time>
      </trkpt>
      <trkpt lat="47.06398" lon="5.96222">
        <ele>466</ele>
        <time>2017-11-23T09:45:16Z</time>
      </trkpt>
      <trkpt lat="47.06389" lon="5.96217">
        <ele>465</ele>
        <time>2017-11-23T09:45:32Z</time>
      </trkpt>
      <trkpt lat="47.06383" lon="5.96217">
        <ele>465</ele>
        <time>2017-11-23T09:45:40Z</time>
      </trkpt>
      <trkpt lat="47.06385" lon="5.96213">
        <ele>464</ele>
        <time>2017-11-23T09:46:12Z</time>
      </trkpt>
      <trkpt lat="47.06389" lon="5.96217">
        <ele>464</ele>
        <time>2017-11-23T09:46:19Z</time>
      </trkpt>
      <trkpt lat="47.06391" lon="5.96224">
        <ele>463</ele>
        <time>2017-11-23T09:46:28Z</time>
      </trkpt>
      <trkpt lat="47.06396" lon="5.96226">
        <ele>461</ele>
        <time>2017-11-23T09:46:34Z</time>
      </trkpt>
      <trkpt lat="47.064" lon="5.96227">
        <ele>461</ele>
        <time>2017-11-23T09:46:38Z</time>
      </trkpt>
      <trkpt lat="47.06411" lon="5.96228">
        <ele>462</ele>
        <time>2017-11-23T09:46:51Z</time>
      </trkpt>
      <trkpt lat="47.06414" lon="5.96237">
        <ele>464</ele>
        <time>2017-11-23T09:47:36Z</time>
      </trkpt>
      <trkpt lat="47.0641" lon="5.96249">
        <ele>461</ele>
        <time>2017-11-23T09:47:45Z</time>
      </trkpt>
      <trkpt lat="47.0641" lon="5.96257">
        <ele>461</ele>
        <time>2017-11-23T09:47:52Z</time>
      </trkpt>
      <trkpt lat="47.06411" lon="5.9627">
        <ele>461</ele>
        <time>2017-11-23T09:48:04Z</time>
      </trkpt>
      <trkpt lat="47.06414" lon="5.96283">
        <ele>462</ele>
        <time>2017-11-23T09:48:14Z</time>
      </trkpt>
      <trkpt lat="47.06422" lon="5.9629">
        <ele>463</ele>
        <time>2017-11-23T09:48:24Z</time>
      </trkpt>
      <trkpt lat="47.06428" lon="5.96301">
        <ele>464</ele>
        <time>2017-11-23T09:48:35Z</time>
      </trkpt>
      <trkpt lat="47.06437" lon="5.96306">
        <ele>464</ele>
        <time>2017-11-23T09:48:46Z</time>
      </trkpt>
      <trkpt lat="47.06443" lon="5.96318">
        <ele>464</ele>
        <time>2017-11-23T09:48:56Z</time>
      </trkpt>
      <trkpt lat="47.06444" lon="5.96326">
        <ele>464</ele>
        <time>2017-11-23T09:49:04Z</time>
      </trkpt>
      <trkpt lat="47.06441" lon="5.96355">
        <ele>461</ele>
        <time>2017-11-23T09:49:30Z</time>
      </trkpt>
      <trkpt lat="47.06434" lon="5.96365">
        <ele>460</ele>
        <time>2017-11-23T09:49:41Z</time>
      </trkpt>
      <trkpt lat="47.06425" lon="5.96369">
        <ele>460</ele>
        <time>2017-11-23T09:49:54Z</time>
      </trkpt>
      <trkpt lat="47.06425" lon="5.96369">
        <ele>457</ele>
        <time>2017-11-23T09:52:55Z</time>
      </trkpt>
      <trkpt lat="47.06433" lon="5.96384">
        <ele>455</ele>
        <time>2017-11-23T09:53:29Z</time>
      </trkpt>
      <trkpt lat="47.06436" lon="5.96388">
        <ele>454</ele>
        <time>2017-11-23T09:53:33Z</time>
      </trkpt>
      <trkpt lat="47.06441" lon="5.96392">
        <ele>453</ele>
        <time>2017-11-23T09:53:38Z</time>
      </trkpt>
      <trkpt lat="47.06449" lon="5.964">
        <ele>453</ele>
        <time>2017-11-23T09:53:48Z</time>
      </trkpt>
      <trkpt lat="47.06459" lon="5.96399">
        <ele>452</ele>
        <time>2017-11-23T09:53:57Z</time>
      </trkpt>
      <trkpt lat="47.06493" lon="5.96409">
        <ele>453</ele>
        <time>2017-11-23T09:54:27Z</time>
      </trkpt>
      <trkpt lat="47.06498" lon="5.96408">
        <ele>453</ele>
        <time>2017-11-23T09:54:31Z</time>
      </trkpt>
      <trkpt lat="47.06507" lon="5.9641">
        <ele>452</ele>
        <time>2017-11-23T09:54:39Z</time>
      </trkpt>
      <trkpt lat="47.0651" lon="5.96419">
        <ele>452</ele>
        <time>2017-11-23T09:54:56Z</time>
      </trkpt>
      <trkpt lat="47.06507" lon="5.96424">
        <ele>452</ele>
        <time>2017-11-23T09:55:02Z</time>
      </trkpt>
      <trkpt lat="47.06506" lon="5.96431">
        <ele>452</ele>
        <time>2017-11-23T09:55:07Z</time>
      </trkpt>
      <trkpt lat="47.06515" lon="5.96447">
        <ele>453</ele>
        <time>2017-11-23T09:55:21Z</time>
      </trkpt>
      <trkpt lat="47.06535" lon="5.96445">
        <ele>453</ele>
        <time>2017-11-23T09:55:42Z</time>
      </trkpt>
      <trkpt lat="47.06539" lon="5.96448">
        <ele>453</ele>
        <time>2017-11-23T09:56:27Z</time>
      </trkpt>
      <trkpt lat="47.06544" lon="5.96443">
        <ele>454</ele>
        <time>2017-11-23T09:56:32Z</time>
      </trkpt>
      <trkpt lat="47.06548" lon="5.9644">
        <ele>455</ele>
        <time>2017-11-23T09:56:38Z</time>
      </trkpt>
      <trkpt lat="47.06553" lon="5.96436">
        <ele>456</ele>
        <time>2017-11-23T09:56:42Z</time>
      </trkpt>
      <trkpt lat="47.06566" lon="5.96431">
        <ele>456</ele>
        <time>2017-11-23T09:56:55Z</time>
      </trkpt>
      <trkpt lat="47.06581" lon="5.96421">
        <ele>454</ele>
        <time>2017-11-23T09:57:10Z</time>
      </trkpt>
      <trkpt lat="47.06596" lon="5.96416">
        <ele>455</ele>
        <time>2017-11-23T09:57:22Z</time>
      </trkpt>
      <trkpt lat="47.066" lon="5.96412">
        <ele>455</ele>
        <time>2017-11-23T09:57:27Z</time>
      </trkpt>
      <trkpt lat="47.06613" lon="5.96404">
        <ele>455</ele>
        <time>2017-11-23T09:57:38Z</time>
      </trkpt>
      <trkpt lat="47.06618" lon="5.96402">
        <ele>456</ele>
        <time>2017-11-23T09:57:43Z</time>
      </trkpt>
      <trkpt lat="47.06621" lon="5.96395">
        <ele>456</ele>
        <time>2017-11-23T09:57:49Z</time>
      </trkpt>
      <trkpt lat="47.06625" lon="5.96381">
        <ele>458</ele>
        <time>2017-11-23T09:57:59Z</time>
      </trkpt>
      <trkpt lat="47.06627" lon="5.96366">
        <ele>459</ele>
        <time>2017-11-23T09:58:08Z</time>
      </trkpt>
      <trkpt lat="47.06621" lon="5.96353">
        <ele>461</ele>
        <time>2017-11-23T09:58:16Z</time>
      </trkpt>
      <trkpt lat="47.0662" lon="5.96346">
        <ele>461</ele>
        <time>2017-11-23T09:58:20Z</time>
      </trkpt>
      <trkpt lat="47.06615" lon="5.96325">
        <ele>463</ele>
        <time>2017-11-23T09:58:33Z</time>
      </trkpt>
      <trkpt lat="47.06611" lon="5.96319">
        <ele>463</ele>
        <time>2017-11-23T09:58:37Z</time>
      </trkpt>
      <trkpt lat="47.06609" lon="5.96312">
        <ele>464</ele>
        <time>2017-11-23T09:58:42Z</time>
      </trkpt>
      <trkpt lat="47.06608" lon="5.9629">
        <ele>465</ele>
        <time>2017-11-23T09:58:56Z</time>
      </trkpt>
      <trkpt lat="47.06607" lon="5.96276">
        <ele>466</ele>
        <time>2017-11-23T09:59:05Z</time>
      </trkpt>
      <trkpt lat="47.06607" lon="5.96262">
        <ele>467</ele>
        <time>2017-11-23T09:59:13Z</time>
      </trkpt>
      <trkpt lat="47.06611" lon="5.9625">
        <ele>468</ele>
        <time>2017-11-23T09:59:21Z</time>
      </trkpt>
      <trkpt lat="47.06614" lon="5.96237">
        <ele>468</ele>
        <time>2017-11-23T09:59:29Z</time>
      </trkpt>
      <trkpt lat="47.06618" lon="5.96209">
        <ele>470</ele>
        <time>2017-11-23T09:59:45Z</time>
      </trkpt>
      <trkpt lat="47.06632" lon="5.96172">
        <ele>472</ele>
        <time>2017-11-23T10:00:11Z</time>
      </trkpt>
      <trkpt lat="47.06637" lon="5.9613">
        <ele>473</ele>
        <time>2017-11-23T10:00:35Z</time>
      </trkpt>
      <trkpt lat="47.06644" lon="5.96092">
        <ele>474</ele>
        <time>2017-11-23T10:01:09Z</time>
      </trkpt>
      <trkpt lat="47.06647" lon="5.96079">
        <ele>474</ele>
        <time>2017-11-23T10:01:17Z</time>
      </trkpt>
      <trkpt lat="47.06651" lon="5.96073">
        <ele>475</ele>
        <time>2017-11-23T10:01:21Z</time>
      </trkpt>
      <trkpt lat="47.06654" lon="5.9606">
        <ele>475</ele>
        <time>2017-11-23T10:01:29Z</time>
      </trkpt>
      <trkpt lat="47.06658" lon="5.96047">
        <ele>475</ele>
        <time>2017-11-23T10:01:37Z</time>
      </trkpt>
      <trkpt lat="47.06681" lon="5.96015">
        <ele>473</ele>
        <time>2017-11-23T10:02:03Z</time>
      </trkpt>
      <trkpt lat="47.06691" lon="5.9601">
        <ele>473</ele>
        <time>2017-11-23T10:02:11Z</time>
      </trkpt>
      <trkpt lat="47.067" lon="5.96">
        <ele>474</ele>
        <time>2017-11-23T10:02:21Z</time>
      </trkpt>
      <trkpt lat="47.06725" lon="5.95967">
        <ele>474</ele>
        <time>2017-11-23T10:02:56Z</time>
      </trkpt>
      <trkpt lat="47.0673" lon="5.95962">
        <ele>474</ele>
        <time>2017-11-23T10:03:02Z</time>
      </trkpt>
      <trkpt lat="47.06743" lon="5.95953">
        <ele>474</ele>
        <time>2017-11-23T10:03:13Z</time>
      </trkpt>
      <trkpt lat="47.06781" lon="5.9591">
        <ele>473</ele>
        <time>2017-11-23T10:03:48Z</time>
      </trkpt>
      <trkpt lat="47.06797" lon="5.95897">
        <ele>472</ele>
        <time>2017-11-23T10:04:08Z</time>
      </trkpt>
      <trkpt lat="47.06806" lon="5.95891">
        <ele>472</ele>
        <time>2017-11-23T10:04:15Z</time>
      </trkpt>
      <trkpt lat="47.06814" lon="5.95882">
        <ele>471</ele>
        <time>2017-11-23T10:04:23Z</time>
      </trkpt>
      <trkpt lat="47.06822" lon="5.95873">
        <ele>471</ele>
        <time>2017-11-23T10:04:30Z</time>
      </trkpt>
      <trkpt lat="47.06827" lon="5.9586">
        <ele>472</ele>
        <time>2017-11-23T10:04:39Z</time>
      </trkpt>
      <trkpt lat="47.06859" lon="5.95807">
        <ele>471</ele>
        <time>2017-11-23T10:05:15Z</time>
      </trkpt>
      <trkpt lat="47.06862" lon="5.95795">
        <ele>471</ele>
        <time>2017-11-23T10:05:23Z</time>
      </trkpt>
      <trkpt lat="47.06876" lon="5.95756">
        <ele>471</ele>
        <time>2017-11-23T10:05:49Z</time>
      </trkpt>
      <trkpt lat="47.06888" lon="5.95731">
        <ele>471</ele>
        <time>2017-11-23T10:06:05Z</time>
      </trkpt>
      <trkpt lat="47.06892" lon="5.95726">
        <ele>471</ele>
        <time>2017-11-23T10:06:10Z</time>
      </trkpt>
      <trkpt lat="47.06894" lon="5.95713">
        <ele>470</ele>
        <time>2017-11-23T10:06:21Z</time>
      </trkpt>
      <trkpt lat="47.06894" lon="5.95706">
        <ele>470</ele>
        <time>2017-11-23T10:06:25Z</time>
      </trkpt>
      <trkpt lat="47.06895" lon="5.95698">
        <ele>470</ele>
        <time>2017-11-23T10:06:29Z</time>
      </trkpt>
      <trkpt lat="47.06895" lon="5.95691">
        <ele>470</ele>
        <time>2017-11-23T10:06:33Z</time>
      </trkpt>
      <trkpt lat="47.06895" lon="5.95683">
        <ele>471</ele>
        <time>2017-11-23T10:06:38Z</time>
      </trkpt>
      <trkpt lat="47.06894" lon="5.95662">
        <ele>471</ele>
        <time>2017-11-23T10:06:51Z</time>
      </trkpt>
      <trkpt lat="47.06892" lon="5.95655">
        <ele>471</ele>
        <time>2017-11-23T10:06:56Z</time>
      </trkpt>
      <trkpt lat="47.06892" lon="5.95647">
        <ele>471</ele>
        <time>2017-11-23T10:07:01Z</time>
      </trkpt>
      <trkpt lat="47.06893" lon="5.95626">
        <ele>471</ele>
        <time>2017-11-23T10:07:14Z</time>
      </trkpt>
      <trkpt lat="47.06895" lon="5.95619">
        <ele>471</ele>
        <time>2017-11-23T10:07:18Z</time>
      </trkpt>
      <trkpt lat="47.06897" lon="5.95595">
        <ele>472</ele>
        <time>2017-11-23T10:07:30Z</time>
      </trkpt>
      <trkpt lat="47.069" lon="5.95588">
        <ele>472</ele>
        <time>2017-11-23T10:07:34Z</time>
      </trkpt>
      <trkpt lat="47.06901" lon="5.95581">
        <ele>472</ele>
        <time>2017-11-23T10:07:38Z</time>
      </trkpt>
      <trkpt lat="47.06901" lon="5.95573">
        <ele>472</ele>
        <time>2017-11-23T10:07:43Z</time>
      </trkpt>
      <trkpt lat="47.06899" lon="5.95566">
        <ele>472</ele>
        <time>2017-11-23T10:07:47Z</time>
      </trkpt>
      <trkpt lat="47.06898" lon="5.9555">
        <ele>471</ele>
        <time>2017-11-23T10:07:57Z</time>
      </trkpt>
      <trkpt lat="47.06894" lon="5.95508">
        <ele>471</ele>
        <time>2017-11-23T10:08:22Z</time>
      </trkpt>
      <trkpt lat="47.06895" lon="5.95494">
        <ele>471</ele>
        <time>2017-11-23T10:08:30Z</time>
      </trkpt>
      <trkpt lat="47.06887" lon="5.95469">
        <ele>471</ele>
        <time>2017-11-23T10:08:45Z</time>
      </trkpt>
      <trkpt lat="47.06878" lon="5.95434">
        <ele>469</ele>
        <time>2017-11-23T10:09:08Z</time>
      </trkpt>
      <trkpt lat="47.06875" lon="5.95429">
        <ele>469</ele>
        <time>2017-11-23T10:09:12Z</time>
      </trkpt>
      <trkpt lat="47.0686" lon="5.95423">
        <ele>468</ele>
        <time>2017-11-23T10:09:25Z</time>
      </trkpt>
      <trkpt lat="47.06832" lon="5.95414">
        <ele>467</ele>
        <time>2017-11-23T10:09:49Z</time>
      </trkpt>
      <trkpt lat="47.06827" lon="5.95415">
        <ele>467</ele>
        <time>2017-11-23T10:09:53Z</time>
      </trkpt>
      <trkpt lat="47.06818" lon="5.9542">
        <ele>466</ele>
        <time>2017-11-23T10:10:01Z</time>
      </trkpt>
      <trkpt lat="47.06809" lon="5.95424">
        <ele>466</ele>
        <time>2017-11-23T10:10:10Z</time>
      </trkpt>
      <trkpt lat="47.06767" lon="5.95422">
        <ele>464</ele>
        <time>2017-11-23T10:10:44Z</time>
      </trkpt>
      <trkpt lat="47.06743" lon="5.95415">
        <ele>464</ele>
        <time>2017-11-23T10:11:04Z</time>
      </trkpt>
      <trkpt lat="47.06703" lon="5.95417">
        <ele>463</ele>
        <time>2017-11-23T10:11:37Z</time>
      </trkpt>
      <trkpt lat="47.06698" lon="5.95419">
        <ele>463</ele>
        <time>2017-11-23T10:11:41Z</time>
      </trkpt>
      <trkpt lat="47.0669" lon="5.95425">
        <ele>462</ele>
        <time>2017-11-23T10:11:49Z</time>
      </trkpt>
      <trkpt lat="47.06686" lon="5.9543">
        <ele>462</ele>
        <time>2017-11-23T10:11:53Z</time>
      </trkpt>
      <trkpt lat="47.06682" lon="5.95426">
        <ele>462</ele>
        <time>2017-11-23T10:13:11Z</time>
      </trkpt>
      <trkpt lat="47.06677" lon="5.95425">
        <ele>462</ele>
        <time>2017-11-23T10:13:16Z</time>
      </trkpt>
      <trkpt lat="47.06674" lon="5.95421">
        <ele>462</ele>
        <time>2017-11-23T10:13:20Z</time>
      </trkpt>
      <trkpt lat="47.06664" lon="5.95415">
        <ele>461</ele>
        <time>2017-11-23T10:13:28Z</time>
      </trkpt>
      <trkpt lat="47.06659" lon="5.95414">
        <ele>461</ele>
        <time>2017-11-23T10:13:33Z</time>
      </trkpt>
      <trkpt lat="47.06654" lon="5.95411">
        <ele>460</ele>
        <time>2017-11-23T10:13:38Z</time>
      </trkpt>
      <trkpt lat="47.06645" lon="5.95406">
        <ele>459</ele>
        <time>2017-11-23T10:13:46Z</time>
      </trkpt>
      <trkpt lat="47.0664" lon="5.95402">
        <ele>458</ele>
        <time>2017-11-23T10:13:51Z</time>
      </trkpt>
      <trkpt lat="47.0663" lon="5.95396">
        <ele>459</ele>
        <time>2017-11-23T10:14:01Z</time>
      </trkpt>
      <trkpt lat="47.06626" lon="5.95394">
        <ele>458</ele>
        <time>2017-11-23T10:14:06Z</time>
      </trkpt>
      <trkpt lat="47.06624" lon="5.95388">
        <ele>457</ele>
        <time>2017-11-23T10:14:11Z</time>
      </trkpt>
      <trkpt lat="47.06619" lon="5.95388">
        <ele>457</ele>
        <time>2017-11-23T10:14:17Z</time>
      </trkpt>
      <trkpt lat="47.06615" lon="5.9538">
        <ele>456</ele>
        <time>2017-11-23T10:14:43Z</time>
      </trkpt>
      <trkpt lat="47.06612" lon="5.95373">
        <ele>453</ele>
        <time>2017-11-23T10:14:49Z</time>
      </trkpt>
      <trkpt lat="47.06607" lon="5.95372">
        <ele>453</ele>
        <time>2017-11-23T10:14:57Z</time>
      </trkpt>
      <trkpt lat="47.06598" lon="5.95378">
        <ele>453</ele>
        <time>2017-11-23T10:15:09Z</time>
      </trkpt>
      <trkpt lat="47.06603" lon="5.95376">
        <ele>451</ele>
        <time>2017-11-23T10:16:08Z</time>
      </trkpt>
      <trkpt lat="47.06606" lon="5.95382">
        <ele>451</ele>
        <time>2017-11-23T10:16:11Z</time>
      </trkpt>
      <trkpt lat="47.06612" lon="5.95382">
        <ele>449</ele>
        <time>2017-11-23T10:16:26Z</time>
      </trkpt>
      <trkpt lat="47.06614" lon="5.95389">
        <ele>448</ele>
        <time>2017-11-23T10:17:23Z</time>
      </trkpt>
      <trkpt lat="47.06618" lon="5.95389">
        <ele>447</ele>
        <time>2017-11-23T10:17:53Z</time>
      </trkpt>
      <trkpt lat="47.06623" lon="5.95396">
        <ele>447</ele>
        <time>2017-11-23T10:18:05Z</time>
      </trkpt>
      <trkpt lat="47.06627" lon="5.95399">
        <ele>448</ele>
        <time>2017-11-23T10:18:10Z</time>
      </trkpt>
      <trkpt lat="47.06656" lon="5.95393">
        <ele>453</ele>
        <time>2017-11-23T10:18:39Z</time>
      </trkpt>
      <trkpt lat="47.0666" lon="5.95399">
        <ele>455</ele>
        <time>2017-11-23T10:19:52Z</time>
      </trkpt>
      <trkpt lat="47.06661" lon="5.95393">
        <ele>457</ele>
        <time>2017-11-23T10:22:42Z</time>
      </trkpt>
      <trkpt lat="47.0666" lon="5.95353">
        <ele>457</ele>
        <time>2017-11-23T10:24:47Z</time>
      </trkpt>
      <trkpt lat="47.06661" lon="5.95346">
        <ele>456</ele>
        <time>2017-11-23T10:24:52Z</time>
      </trkpt>
      <trkpt lat="47.06662" lon="5.95331">
        <ele>457</ele>
        <time>2017-11-23T10:25:01Z</time>
      </trkpt>
      <trkpt lat="47.06664" lon="5.95325">
        <ele>457</ele>
        <time>2017-11-23T10:25:05Z</time>
      </trkpt>
      <trkpt lat="47.06664" lon="5.95318">
        <ele>458</ele>
        <time>2017-11-23T10:25:11Z</time>
      </trkpt>
      <trkpt lat="47.06664" lon="5.9531">
        <ele>458</ele>
        <time>2017-11-23T10:25:16Z</time>
      </trkpt>
      <trkpt lat="47.06666" lon="5.95296">
        <ele>458</ele>
        <time>2017-11-23T10:25:25Z</time>
      </trkpt>
      <trkpt lat="47.06665" lon="5.95253">
        <ele>459</ele>
        <time>2017-11-23T10:25:51Z</time>
      </trkpt>
      <trkpt lat="47.06659" lon="5.9521">
        <ele>460</ele>
        <time>2017-11-23T10:26:16Z</time>
      </trkpt>
      <trkpt lat="47.06658" lon="5.95196">
        <ele>460</ele>
        <time>2017-11-23T10:26:30Z</time>
      </trkpt>
      <trkpt lat="47.0666" lon="5.9519">
        <ele>459</ele>
        <time>2017-11-23T10:26:36Z</time>
      </trkpt>
      <trkpt lat="47.06663" lon="5.95154">
        <ele>456</ele>
        <time>2017-11-23T10:27:05Z</time>
      </trkpt>
      <trkpt lat="47.06667" lon="5.95149">
        <ele>455</ele>
        <time>2017-11-23T10:27:11Z</time>
      </trkpt>
      <trkpt lat="47.06669" lon="5.95136">
        <ele>454</ele>
        <time>2017-11-23T10:27:26Z</time>
      </trkpt>
      <trkpt lat="47.06675" lon="5.95125">
        <ele>454</ele>
        <time>2017-11-23T10:27:39Z</time>
      </trkpt>
      <trkpt lat="47.06676" lon="5.95112">
        <ele>453</ele>
        <time>2017-11-23T10:27:47Z</time>
      </trkpt>
      <trkpt lat="47.06668" lon="5.95101">
        <ele>452</ele>
        <time>2017-11-23T10:27:52Z</time>
      </trkpt>
      <trkpt lat="47.06636" lon="5.95073">
        <ele>446</ele>
        <time>2017-11-23T10:28:26Z</time>
      </trkpt>
      <trkpt lat="47.0663" lon="5.95064">
        <ele>446</ele>
        <time>2017-11-23T10:28:36Z</time>
      </trkpt>
      <trkpt lat="47.06623" lon="5.95035">
        <ele>440</ele>
        <time>2017-11-23T10:29:04Z</time>
      </trkpt>
      <trkpt lat="47.06618" lon="5.95024">
        <ele>439</ele>
        <time>2017-11-23T10:29:14Z</time>
      </trkpt>
      <trkpt lat="47.0661" lon="5.95015">
        <ele>439</ele>
        <time>2017-11-23T10:29:27Z</time>
      </trkpt>
      <trkpt lat="47.06607" lon="5.95017">
        <ele>437</ele>
        <time>2017-11-23T10:30:12Z</time>
      </trkpt>
      <trkpt lat="47.06605" lon="5.95012">
        <ele>426</ele>
        <time>2017-11-23T10:31:20Z</time>
      </trkpt>
      <trkpt lat="47.06612" lon="5.95012">
        <ele>428</ele>
        <time>2017-11-23T10:32:09Z</time>
      </trkpt>
      <trkpt lat="47.06618" lon="5.95016">
        <ele>425</ele>
        <time>2017-11-23T10:32:24Z</time>
      </trkpt>
      <trkpt lat="47.0662" lon="5.95022">
        <ele>424</ele>
        <time>2017-11-23T10:32:32Z</time>
      </trkpt>
      <trkpt lat="47.06625" lon="5.95036">
        <ele>427</ele>
        <time>2017-11-23T10:32:45Z</time>
      </trkpt>
      <trkpt lat="47.06625" lon="5.95043">
        <ele>428</ele>
        <time>2017-11-23T10:32:49Z</time>
      </trkpt>
      <trkpt lat="47.06627" lon="5.95057">
        <ele>430</ele>
        <time>2017-11-23T10:32:59Z</time>
      </trkpt>
      <trkpt lat="47.06629" lon="5.95064">
        <ele>430</ele>
        <time>2017-11-23T10:33:04Z</time>
      </trkpt>
      <trkpt lat="47.0663" lon="5.95072">
        <ele>430</ele>
        <time>2017-11-23T10:33:09Z</time>
      </trkpt>
      <trkpt lat="47.06632" lon="5.95078">
        <ele>430</ele>
        <time>2017-11-23T10:33:14Z</time>
      </trkpt>
      <trkpt lat="47.06636" lon="5.95083">
        <ele>430</ele>
        <time>2017-11-23T10:33:18Z</time>
      </trkpt>
      <trkpt lat="47.0664" lon="5.95095">
        <ele>432</ele>
        <time>2017-11-23T10:33:28Z</time>
      </trkpt>
      <trkpt lat="47.06644" lon="5.951">
        <ele>432</ele>
        <time>2017-11-23T10:33:32Z</time>
      </trkpt>
      <trkpt lat="47.06649" lon="5.95103">
        <ele>433</ele>
        <time>2017-11-23T10:33:36Z</time>
      </trkpt>
      <trkpt lat="47.06664" lon="5.95106">
        <ele>434</ele>
        <time>2017-11-23T10:33:54Z</time>
      </trkpt>
      <trkpt lat="47.06668" lon="5.95109">
        <ele>435</ele>
        <time>2017-11-23T10:34:00Z</time>
      </trkpt>
      <trkpt lat="47.06671" lon="5.95103">
        <ele>436</ele>
        <time>2017-11-23T10:34:05Z</time>
      </trkpt>
      <trkpt lat="47.06674" lon="5.95076">
        <ele>438</ele>
        <time>2017-11-23T10:34:29Z</time>
      </trkpt>
      <trkpt lat="47.06674" lon="5.95061">
        <ele>439</ele>
        <time>2017-11-23T10:34:41Z</time>
      </trkpt>
      <trkpt lat="47.06678" lon="5.95049">
        <ele>441</ele>
        <time>2017-11-23T10:34:50Z</time>
      </trkpt>
      <trkpt lat="47.06677" lon="5.95035">
        <ele>442</ele>
        <time>2017-11-23T10:35:02Z</time>
      </trkpt>
      <trkpt lat="47.06675" lon="5.95022">
        <ele>445</ele>
        <time>2017-11-23T10:35:18Z</time>
      </trkpt>
      <trkpt lat="47.06678" lon="5.9501">
        <ele>446</ele>
        <time>2017-11-23T10:35:28Z</time>
      </trkpt>
      <trkpt lat="47.06676" lon="5.9497">
        <ele>449</ele>
        <time>2017-11-23T10:36:01Z</time>
      </trkpt>
      <trkpt lat="47.06665" lon="5.94931">
        <ele>451</ele>
        <time>2017-11-23T10:36:27Z</time>
      </trkpt>
      <trkpt lat="47.06662" lon="5.94917">
        <ele>453</ele>
        <time>2017-11-23T10:36:37Z</time>
      </trkpt>
      <trkpt lat="47.06661" lon="5.94903">
        <ele>454</ele>
        <time>2017-11-23T10:36:47Z</time>
      </trkpt>
      <trkpt lat="47.06664" lon="5.9489">
        <ele>454</ele>
        <time>2017-11-23T10:36:58Z</time>
      </trkpt>
      <trkpt lat="47.06662" lon="5.94875">
        <ele>454</ele>
        <time>2017-11-23T10:37:07Z</time>
      </trkpt>
      <trkpt lat="47.06653" lon="5.94851">
        <ele>454</ele>
        <time>2017-11-23T10:37:23Z</time>
      </trkpt>
      <trkpt lat="47.06635" lon="5.94801">
        <ele>457</ele>
        <time>2017-11-23T10:37:54Z</time>
      </trkpt>
      <trkpt lat="47.06627" lon="5.94777">
        <ele>457</ele>
        <time>2017-11-23T10:38:10Z</time>
      </trkpt>
      <trkpt lat="47.06623" lon="5.94765">
        <ele>456</ele>
        <time>2017-11-23T10:38:19Z</time>
      </trkpt>
      <trkpt lat="47.0662" lon="5.94752">
        <ele>456</ele>
        <time>2017-11-23T10:38:27Z</time>
      </trkpt>
      <trkpt lat="47.06614" lon="5.9474">
        <ele>456</ele>
        <time>2017-11-23T10:38:35Z</time>
      </trkpt>
      <trkpt lat="47.0661" lon="5.94713">
        <ele>458</ele>
        <time>2017-11-23T10:38:58Z</time>
      </trkpt>
      <trkpt lat="47.06605" lon="5.94699">
        <ele>458</ele>
        <time>2017-11-23T10:39:10Z</time>
      </trkpt>
      <trkpt lat="47.06601" lon="5.94687">
        <ele>459</ele>
        <time>2017-11-23T10:39:19Z</time>
      </trkpt>
      <trkpt lat="47.06597" lon="5.94675">
        <ele>458</ele>
        <time>2017-11-23T10:39:30Z</time>
      </trkpt>
      <trkpt lat="47.06592" lon="5.94659">
        <ele>455</ele>
        <time>2017-11-23T10:39:42Z</time>
      </trkpt>
      <trkpt lat="47.06585" lon="5.94648">
        <ele>454</ele>
        <time>2017-11-23T10:39:51Z</time>
      </trkpt>
      <trkpt lat="47.0658" lon="5.94636">
        <ele>453</ele>
        <time>2017-11-23T10:40:01Z</time>
      </trkpt>
      <trkpt lat="47.06576" lon="5.94632">
        <ele>453</ele>
        <time>2017-11-23T10:40:07Z</time>
      </trkpt>
      <trkpt lat="47.06565" lon="5.94607">
        <ele>452</ele>
        <time>2017-11-23T10:40:27Z</time>
      </trkpt>
      <trkpt lat="47.06567" lon="5.946">
        <ele>452</ele>
        <time>2017-11-23T10:40:31Z</time>
      </trkpt>
      <trkpt lat="47.06571" lon="5.94595">
        <ele>452</ele>
        <time>2017-11-23T10:40:36Z</time>
      </trkpt>
      <trkpt lat="47.06589" lon="5.94587">
        <ele>452</ele>
        <time>2017-11-23T10:40:56Z</time>
      </trkpt>
      <trkpt lat="47.06588" lon="5.94581">
        <ele>453</ele>
        <time>2017-11-23T10:41:01Z</time>
      </trkpt>
      <trkpt lat="47.06581" lon="5.9457">
        <ele>453</ele>
        <time>2017-11-23T10:41:11Z</time>
      </trkpt>
      <trkpt lat="47.06566" lon="5.94533">
        <ele>454</ele>
        <time>2017-11-23T10:41:36Z</time>
      </trkpt>
      <trkpt lat="47.06539" lon="5.94491">
        <ele>452</ele>
        <time>2017-11-23T10:42:10Z</time>
      </trkpt>
      <trkpt lat="47.06535" lon="5.94487">
        <ele>452</ele>
        <time>2017-11-23T10:42:15Z</time>
      </trkpt>
      <trkpt lat="47.06532" lon="5.94481">
        <ele>451</ele>
        <time>2017-11-23T10:42:19Z</time>
      </trkpt>
      <trkpt lat="47.06529" lon="5.94475">
        <ele>451</ele>
        <time>2017-11-23T10:42:24Z</time>
      </trkpt>
      <trkpt lat="47.06526" lon="5.9447">
        <ele>451</ele>
        <time>2017-11-23T10:42:28Z</time>
      </trkpt>
      <trkpt lat="47.06517" lon="5.94452">
        <ele>449</ele>
        <time>2017-11-23T10:42:41Z</time>
      </trkpt>
      <trkpt lat="47.06515" lon="5.94439">
        <ele>449</ele>
        <time>2017-11-23T10:42:49Z</time>
      </trkpt>
      <trkpt lat="47.06493" lon="5.94393">
        <ele>446</ele>
        <time>2017-11-23T10:43:20Z</time>
      </trkpt>
      <trkpt lat="47.06487" lon="5.94379">
        <ele>445</ele>
        <time>2017-11-23T10:43:31Z</time>
      </trkpt>
      <trkpt lat="47.06486" lon="5.94372">
        <ele>445</ele>
        <time>2017-11-23T10:43:34Z</time>
      </trkpt>
      <trkpt lat="47.06481" lon="5.94367">
        <ele>445</ele>
        <time>2017-11-23T10:43:39Z</time>
      </trkpt>
      <trkpt lat="47.06477" lon="5.94346">
        <ele>445</ele>
        <time>2017-11-23T10:43:51Z</time>
      </trkpt>
      <trkpt lat="47.06474" lon="5.94341">
        <ele>445</ele>
        <time>2017-11-23T10:43:55Z</time>
      </trkpt>
      <trkpt lat="47.06465" lon="5.94322">
        <ele>445</ele>
        <time>2017-11-23T10:44:08Z</time>
      </trkpt>
      <trkpt lat="47.06453" lon="5.94297">
        <ele>444</ele>
        <time>2017-11-23T10:44:27Z</time>
      </trkpt>
      <trkpt lat="47.06441" lon="5.94273">
        <ele>444</ele>
        <time>2017-11-23T10:44:44Z</time>
      </trkpt>
      <trkpt lat="47.06437" lon="5.94268">
        <ele>444</ele>
        <time>2017-11-23T10:44:48Z</time>
      </trkpt>
      <trkpt lat="47.06431" lon="5.94256">
        <ele>442</ele>
        <time>2017-11-23T10:44:58Z</time>
      </trkpt>
      <trkpt lat="47.06422" lon="5.94237">
        <ele>441</ele>
        <time>2017-11-23T10:45:12Z</time>
      </trkpt>
      <trkpt lat="47.06417" lon="5.94225">
        <ele>441</ele>
        <time>2017-11-23T10:45:22Z</time>
      </trkpt>
      <trkpt lat="47.06413" lon="5.9422">
        <ele>441</ele>
        <time>2017-11-23T10:45:27Z</time>
      </trkpt>
      <trkpt lat="47.06407" lon="5.94207">
        <ele>441</ele>
        <time>2017-11-23T10:45:36Z</time>
      </trkpt>
      <trkpt lat="47.06392" lon="5.94177">
        <ele>441</ele>
        <time>2017-11-23T10:45:55Z</time>
      </trkpt>
      <trkpt lat="47.06388" lon="5.94171">
        <ele>442</ele>
        <time>2017-11-23T10:45:59Z</time>
      </trkpt>
      <trkpt lat="47.06381" lon="5.94161">
        <ele>442</ele>
        <time>2017-11-23T10:46:08Z</time>
      </trkpt>
      <trkpt lat="47.06377" lon="5.94156">
        <ele>442</ele>
        <time>2017-11-23T10:46:13Z</time>
      </trkpt>
      <trkpt lat="47.06373" lon="5.94151">
        <ele>441</ele>
        <time>2017-11-23T10:46:17Z</time>
      </trkpt>
      <trkpt lat="47.06368" lon="5.94148">
        <ele>441</ele>
        <time>2017-11-23T10:46:21Z</time>
      </trkpt>
      <trkpt lat="47.06364" lon="5.94148">
        <ele>441</ele>
        <time>2017-11-23T10:46:28Z</time>
      </trkpt>
      <trkpt lat="47.06358" lon="5.94139">
        <ele>440</ele>
        <time>2017-11-23T10:46:47Z</time>
      </trkpt>
      <trkpt lat="47.06341" lon="5.94125">
        <ele>439</ele>
        <time>2017-11-23T10:47:03Z</time>
      </trkpt>
      <trkpt lat="47.06337" lon="5.94118">
        <ele>439</ele>
        <time>2017-11-23T10:47:07Z</time>
      </trkpt>
      <trkpt lat="47.06319" lon="5.94095">
        <ele>440</ele>
        <time>2017-11-23T10:47:27Z</time>
      </trkpt>
      <trkpt lat="47.06314" lon="5.94092">
        <ele>440</ele>
        <time>2017-11-23T10:47:31Z</time>
      </trkpt>
      <trkpt lat="47.0631" lon="5.94093">
        <ele>440</ele>
        <time>2017-11-23T10:47:49Z</time>
      </trkpt>
      <trkpt lat="47.06305" lon="5.94089">
        <ele>438</ele>
        <time>2017-11-23T10:47:58Z</time>
      </trkpt>
      <trkpt lat="47.06302" lon="5.94083">
        <ele>437</ele>
        <time>2017-11-23T10:48:03Z</time>
      </trkpt>
      <trkpt lat="47.06297" lon="5.9408">
        <ele>437</ele>
        <time>2017-11-23T10:48:10Z</time>
      </trkpt>
      <trkpt lat="47.06283" lon="5.94073">
        <ele>436</ele>
        <time>2017-11-23T10:48:27Z</time>
      </trkpt>
      <trkpt lat="47.06287" lon="5.94076">
        <ele>436</ele>
        <time>2017-11-23T10:48:36Z</time>
      </trkpt>
      <trkpt lat="47.06292" lon="5.94077">
        <ele>436</ele>
        <time>2017-11-23T10:48:45Z</time>
      </trkpt>
      <trkpt lat="47.06297" lon="5.94081">
        <ele>437</ele>
        <time>2017-11-23T10:48:53Z</time>
      </trkpt>
      <trkpt lat="47.06306" lon="5.94086">
        <ele>438</ele>
        <time>2017-11-23T10:49:02Z</time>
      </trkpt>
      <trkpt lat="47.0631" lon="5.94089">
        <ele>438</ele>
        <time>2017-11-23T10:49:06Z</time>
      </trkpt>
      <trkpt lat="47.06315" lon="5.94092">
        <ele>438</ele>
        <time>2017-11-23T10:49:10Z</time>
      </trkpt>
      <trkpt lat="47.0632" lon="5.94094">
        <ele>439</ele>
        <time>2017-11-23T10:49:14Z</time>
      </trkpt>
      <trkpt lat="47.06325" lon="5.94097">
        <ele>439</ele>
        <time>2017-11-23T10:49:20Z</time>
      </trkpt>
      <trkpt lat="47.06344" lon="5.94121">
        <ele>439</ele>
        <time>2017-11-23T10:49:46Z</time>
      </trkpt>
      <trkpt lat="47.06359" lon="5.94139">
        <ele>439</ele>
        <time>2017-11-23T10:50:05Z</time>
      </trkpt>
      <trkpt lat="47.0636" lon="5.94146">
        <ele>439</ele>
        <time>2017-11-23T10:50:11Z</time>
      </trkpt>
      <trkpt lat="47.06358" lon="5.9416">
        <ele>438</ele>
        <time>2017-11-23T10:50:23Z</time>
      </trkpt>
      <trkpt lat="47.0636" lon="5.94166">
        <ele>438</ele>
        <time>2017-11-23T10:50:28Z</time>
      </trkpt>
      <trkpt lat="47.0636" lon="5.94174">
        <ele>438</ele>
        <time>2017-11-23T10:50:34Z</time>
      </trkpt>
      <trkpt lat="47.0636" lon="5.94182">
        <ele>438</ele>
        <time>2017-11-23T10:50:41Z</time>
      </trkpt>
      <trkpt lat="47.06357" lon="5.94187">
        <ele>437</ele>
        <time>2017-11-23T10:50:49Z</time>
      </trkpt>
      <trkpt lat="47.06354" lon="5.94196">
        <ele>435</ele>
        <time>2017-11-23T10:51:05Z</time>
      </trkpt>
      <trkpt lat="47.06354" lon="5.94203">
        <ele>432</ele>
        <time>2017-11-23T10:51:23Z</time>
      </trkpt>
      <trkpt lat="47.06353" lon="5.942">
        <ele>429</ele>
        <time>2017-11-23T10:53:02Z</time>
      </trkpt>
      <trkpt lat="47.06355" lon="5.94194">
        <ele>428</ele>
        <time>2017-11-23T10:54:27Z</time>
      </trkpt>
      <trkpt lat="47.06361" lon="5.94192">
        <ele>428</ele>
        <time>2017-11-23T10:54:47Z</time>
      </trkpt>
      <trkpt lat="47.06365" lon="5.94186">
        <ele>427</ele>
        <time>2017-11-23T10:55:02Z</time>
      </trkpt>
      <trkpt lat="47.06367" lon="5.9417">
        <ele>428</ele>
        <time>2017-11-23T10:55:25Z</time>
      </trkpt>
      <trkpt lat="47.06367" lon="5.94157">
        <ele>431</ele>
        <time>2017-11-23T10:55:44Z</time>
      </trkpt>
      <trkpt lat="47.06363" lon="5.94145">
        <ele>432</ele>
        <time>2017-11-23T10:56:00Z</time>
      </trkpt>
      <trkpt lat="47.06355" lon="5.94137">
        <ele>434</ele>
        <time>2017-11-23T10:56:11Z</time>
      </trkpt>
      <trkpt lat="47.06342" lon="5.94116">
        <ele>436</ele>
        <time>2017-11-23T10:56:27Z</time>
      </trkpt>
      <trkpt lat="47.06326" lon="5.94098">
        <ele>437</ele>
        <time>2017-11-23T10:56:43Z</time>
      </trkpt>
      <trkpt lat="47.06299" lon="5.94079">
        <ele>437</ele>
        <time>2017-11-23T10:57:07Z</time>
      </trkpt>
      <trkpt lat="47.06263" lon="5.94056">
        <ele>438</ele>
        <time>2017-11-23T10:57:44Z</time>
      </trkpt>
      <trkpt lat="47.06226" lon="5.94039">
        <ele>439</ele>
        <time>2017-11-23T10:58:19Z</time>
      </trkpt>
      <trkpt lat="47.06191" lon="5.9403">
        <ele>440</ele>
        <time>2017-11-23T10:58:50Z</time>
      </trkpt>
      <trkpt lat="47.06186" lon="5.9403">
        <ele>440</ele>
        <time>2017-11-23T10:58:55Z</time>
      </trkpt>
      <trkpt lat="47.06181" lon="5.94028">
        <ele>440</ele>
        <time>2017-11-23T10:58:59Z</time>
      </trkpt>
      <trkpt lat="47.06176" lon="5.94029">
        <ele>440</ele>
        <time>2017-11-23T10:59:03Z</time>
      </trkpt>
      <trkpt lat="47.06174" lon="5.94035">
        <ele>439</ele>
        <time>2017-11-23T10:59:08Z</time>
      </trkpt>
      <trkpt lat="47.06172" lon="5.94028">
        <ele>436</ele>
        <time>2017-11-23T11:01:20Z</time>
      </trkpt>
      <trkpt lat="47.06167" lon="5.9403">
        <ele>436</ele>
        <time>2017-11-23T11:01:24Z</time>
      </trkpt>
      <trkpt lat="47.06162" lon="5.94029">
        <ele>434</ele>
        <time>2017-11-23T11:01:33Z</time>
      </trkpt>
      <trkpt lat="47.06156" lon="5.94029">
        <ele>433</ele>
        <time>2017-11-23T11:01:41Z</time>
      </trkpt>
      <trkpt lat="47.06114" lon="5.94041">
        <ele>434</ele>
        <time>2017-11-23T11:02:14Z</time>
      </trkpt>
      <trkpt lat="47.0611" lon="5.94043">
        <ele>434</ele>
        <time>2017-11-23T11:02:18Z</time>
      </trkpt>
      <trkpt lat="47.06105" lon="5.94045">
        <ele>434</ele>
        <time>2017-11-23T11:02:23Z</time>
      </trkpt>
      <trkpt lat="47.06101" lon="5.9405">
        <ele>433</ele>
        <time>2017-11-23T11:02:28Z</time>
      </trkpt>
      <trkpt lat="47.06096" lon="5.94053">
        <ele>434</ele>
        <time>2017-11-23T11:02:32Z</time>
      </trkpt>
      <trkpt lat="47.06087" lon="5.9406">
        <ele>433</ele>
        <time>2017-11-23T11:02:41Z</time>
      </trkpt>
      <trkpt lat="47.06082" lon="5.94064">
        <ele>433</ele>
        <time>2017-11-23T11:02:45Z</time>
      </trkpt>
      <trkpt lat="47.06061" lon="5.94083">
        <ele>430</ele>
        <time>2017-11-23T11:03:05Z</time>
      </trkpt>
      <trkpt lat="47.06054" lon="5.94094">
        <ele>430</ele>
        <time>2017-11-23T11:03:13Z</time>
      </trkpt>
      <trkpt lat="47.06044" lon="5.94119">
        <ele>430</ele>
        <time>2017-11-23T11:03:31Z</time>
      </trkpt>
      <trkpt lat="47.06037" lon="5.94145">
        <ele>428</ele>
        <time>2017-11-23T11:03:49Z</time>
      </trkpt>
      <trkpt lat="47.06032" lon="5.94174">
        <ele>426</ele>
        <time>2017-11-23T11:04:40Z</time>
      </trkpt>
      <trkpt lat="47.06037" lon="5.94171">
        <ele>424</ele>
        <time>2017-11-23T11:05:50Z</time>
      </trkpt>
      <trkpt lat="47.06035" lon="5.94183">
        <ele>424</ele>
        <time>2017-11-23T11:07:48Z</time>
      </trkpt>
      <trkpt lat="47.06037" lon="5.94178">
        <ele>424</ele>
        <time>2017-11-23T11:07:56Z</time>
      </trkpt>
      <trkpt lat="47.06031" lon="5.94176">
        <ele>424</ele>
        <time>2017-11-23T11:10:29Z</time>
      </trkpt>
      <trkpt lat="47.06033" lon="5.9417">
        <ele>424</ele>
        <time>2017-11-23T11:11:02Z</time>
      </trkpt>
      <trkpt lat="47.06038" lon="5.94172">
        <ele>424</ele>
        <time>2017-11-23T11:11:08Z</time>
      </trkpt>
      <trkpt lat="47.06015" lon="5.9414">
        <ele>424</ele>
        <time>2017-11-23T11:48:56Z</time>
      </trkpt>
      <trkpt lat="47.06013" lon="5.94132">
        <ele>424</ele>
        <time>2017-11-23T11:49:02Z</time>
      </trkpt>
      <trkpt lat="47.06011" lon="5.94125">
        <ele>425</ele>
        <time>2017-11-23T11:49:07Z</time>
      </trkpt>
      <trkpt lat="47.06008" lon="5.94119">
        <ele>424</ele>
        <time>2017-11-23T11:49:11Z</time>
      </trkpt>
      <trkpt lat="47.06007" lon="5.94112">
        <ele>425</ele>
        <time>2017-11-23T11:49:20Z</time>
      </trkpt>
      <trkpt lat="47.06003" lon="5.94108">
        <ele>425</ele>
        <time>2017-11-23T11:49:28Z</time>
      </trkpt>
      <trkpt lat="47.05998" lon="5.94101">
        <ele>425</ele>
        <time>2017-11-23T11:49:32Z</time>
      </trkpt>
      <trkpt lat="47.05993" lon="5.94059">
        <ele>426</ele>
        <time>2017-11-23T11:49:58Z</time>
      </trkpt>
      <trkpt lat="47.05988" lon="5.94047">
        <ele>426</ele>
        <time>2017-11-23T11:50:06Z</time>
      </trkpt>
      <trkpt lat="47.05973" lon="5.94028">
        <ele>425</ele>
        <time>2017-11-23T11:50:22Z</time>
      </trkpt>
      <trkpt lat="47.05968" lon="5.94017">
        <ele>425</ele>
        <time>2017-11-23T11:50:28Z</time>
      </trkpt>
      <trkpt lat="47.05959" lon="5.9401">
        <ele>424</ele>
        <time>2017-11-23T11:50:35Z</time>
      </trkpt>
      <trkpt lat="47.05952" lon="5.94002">
        <ele>424</ele>
        <time>2017-11-23T11:50:44Z</time>
      </trkpt>
      <trkpt lat="47.05944" lon="5.93996">
        <ele>423</ele>
        <time>2017-11-23T11:50:53Z</time>
      </trkpt>
      <trkpt lat="47.05936" lon="5.93987">
        <ele>423</ele>
        <time>2017-11-23T11:51:01Z</time>
      </trkpt>
      <trkpt lat="47.05929" lon="5.9398">
        <ele>422</ele>
        <time>2017-11-23T11:51:08Z</time>
      </trkpt>
      <trkpt lat="47.05925" lon="5.93975">
        <ele>422</ele>
        <time>2017-11-23T11:51:13Z</time>
      </trkpt>
      <trkpt lat="47.05917" lon="5.93968">
        <ele>421</ele>
        <time>2017-11-23T11:51:24Z</time>
      </trkpt>
      <trkpt lat="47.05914" lon="5.93963">
        <ele>421</ele>
        <time>2017-11-23T11:51:28Z</time>
      </trkpt>
      <trkpt lat="47.05912" lon="5.93956">
        <ele>421</ele>
        <time>2017-11-23T11:51:34Z</time>
      </trkpt>
      <trkpt lat="47.05909" lon="5.9395">
        <ele>421</ele>
        <time>2017-11-23T11:51:40Z</time>
      </trkpt>
      <trkpt lat="47.05905" lon="5.93946">
        <ele>420</ele>
        <time>2017-11-23T11:51:46Z</time>
      </trkpt>
      <trkpt lat="47.05898" lon="5.93934">
        <ele>420</ele>
        <time>2017-11-23T11:51:55Z</time>
      </trkpt>
      <trkpt lat="47.05894" lon="5.93929">
        <ele>420</ele>
        <time>2017-11-23T11:52:00Z</time>
      </trkpt>
      <trkpt lat="47.0589" lon="5.93924">
        <ele>420</ele>
        <time>2017-11-23T11:52:04Z</time>
      </trkpt>
      <trkpt lat="47.05886" lon="5.93918">
        <ele>420</ele>
        <time>2017-11-23T11:52:08Z</time>
      </trkpt>
      <trkpt lat="47.05883" lon="5.93914">
        <ele>420</ele>
        <time>2017-11-23T11:52:12Z</time>
      </trkpt>
      <trkpt lat="47.05878" lon="5.939">
        <ele>419</ele>
        <time>2017-11-23T11:52:21Z</time>
      </trkpt>
      <trkpt lat="47.05876" lon="5.93892">
        <ele>419</ele>
        <time>2017-11-23T11:52:25Z</time>
      </trkpt>
      <trkpt lat="47.05865" lon="5.93876">
        <ele>419</ele>
        <time>2017-11-23T11:52:37Z</time>
      </trkpt>
      <trkpt lat="47.0585" lon="5.93858">
        <ele>418</ele>
        <time>2017-11-23T11:52:53Z</time>
      </trkpt>
      <trkpt lat="47.05843" lon="5.93848">
        <ele>419</ele>
        <time>2017-11-23T11:53:01Z</time>
      </trkpt>
      <trkpt lat="47.05834" lon="5.93841">
        <ele>419</ele>
        <time>2017-11-23T11:53:09Z</time>
      </trkpt>
      <trkpt lat="47.05817" lon="5.93829">
        <ele>418</ele>
        <time>2017-11-23T11:53:26Z</time>
      </trkpt>
      <trkpt lat="47.05808" lon="5.93825">
        <ele>418</ele>
        <time>2017-11-23T11:53:34Z</time>
      </trkpt>
      <trkpt lat="47.05785" lon="5.9381">
        <ele>420</ele>
        <time>2017-11-23T11:53:57Z</time>
      </trkpt>
      <trkpt lat="47.05775" lon="5.93809">
        <ele>420</ele>
        <time>2017-11-23T11:54:05Z</time>
      </trkpt>
      <trkpt lat="47.05765" lon="5.93812">
        <ele>420</ele>
        <time>2017-11-23T11:54:14Z</time>
      </trkpt>
      <trkpt lat="47.05756" lon="5.93812">
        <ele>420</ele>
        <time>2017-11-23T11:54:22Z</time>
      </trkpt>
      <trkpt lat="47.05747" lon="5.93807">
        <ele>420</ele>
        <time>2017-11-23T11:54:29Z</time>
      </trkpt>
      <trkpt lat="47.05737" lon="5.93808">
        <ele>420</ele>
        <time>2017-11-23T11:54:37Z</time>
      </trkpt>
      <trkpt lat="47.05704" lon="5.93835">
        <ele>420</ele>
        <time>2017-11-23T11:55:06Z</time>
      </trkpt>
      <trkpt lat="47.05682" lon="5.9384">
        <ele>419</ele>
        <time>2017-11-23T11:55:25Z</time>
      </trkpt>
      <trkpt lat="47.05669" lon="5.93859">
        <ele>420</ele>
        <time>2017-11-23T11:55:45Z</time>
      </trkpt>
      <trkpt lat="47.0565" lon="5.93865">
        <ele>421</ele>
        <time>2017-11-23T11:55:59Z</time>
      </trkpt>
      <trkpt lat="47.05631" lon="5.93862">
        <ele>421</ele>
        <time>2017-11-23T11:56:14Z</time>
      </trkpt>
      <trkpt lat="47.05614" lon="5.93875">
        <ele>421</ele>
        <time>2017-11-23T11:56:34Z</time>
      </trkpt>
      <trkpt lat="47.05605" lon="5.93873">
        <ele>421</ele>
        <time>2017-11-23T11:56:44Z</time>
      </trkpt>
      <trkpt lat="47.05597" lon="5.93865">
        <ele>420</ele>
        <time>2017-11-23T11:56:56Z</time>
      </trkpt>
      <trkpt lat="47.05579" lon="5.93871">
        <ele>419</ele>
        <time>2017-11-23T11:57:10Z</time>
      </trkpt>
      <trkpt lat="47.05569" lon="5.93873">
        <ele>419</ele>
        <time>2017-11-23T11:57:18Z</time>
      </trkpt>
      <trkpt lat="47.05559" lon="5.93873">
        <ele>419</ele>
        <time>2017-11-23T11:57:26Z</time>
      </trkpt>
      <trkpt lat="47.05547" lon="5.93871">
        <ele>418</ele>
        <time>2017-11-23T11:57:37Z</time>
      </trkpt>
      <trkpt lat="47.05523" lon="5.93868">
        <ele>420</ele>
        <time>2017-11-23T11:57:57Z</time>
      </trkpt>
      <trkpt lat="47.05513" lon="5.93866">
        <ele>420</ele>
        <time>2017-11-23T11:58:06Z</time>
      </trkpt>
      <trkpt lat="47.05483" lon="5.93851">
        <ele>419</ele>
        <time>2017-11-23T11:58:31Z</time>
      </trkpt>
      <trkpt lat="47.05478" lon="5.9385">
        <ele>420</ele>
        <time>2017-11-23T11:58:35Z</time>
      </trkpt>
      <trkpt lat="47.05469" lon="5.93846">
        <ele>420</ele>
        <time>2017-11-23T11:58:43Z</time>
      </trkpt>
      <trkpt lat="47.05455" lon="5.93836">
        <ele>422</ele>
        <time>2017-11-23T11:58:55Z</time>
      </trkpt>
      <trkpt lat="47.05437" lon="5.9383">
        <ele>423</ele>
        <time>2017-11-23T11:59:10Z</time>
      </trkpt>
      <trkpt lat="47.05421" lon="5.93833">
        <ele>423</ele>
        <time>2017-11-23T11:59:21Z</time>
      </trkpt>
      <trkpt lat="47.05416" lon="5.93835">
        <ele>423</ele>
        <time>2017-11-23T11:59:25Z</time>
      </trkpt>
      <trkpt lat="47.05381" lon="5.93866">
        <ele>422</ele>
        <time>2017-11-23T11:59:58Z</time>
      </trkpt>
      <trkpt lat="47.05349" lon="5.939">
        <ele>423</ele>
        <time>2017-11-23T12:00:32Z</time>
      </trkpt>
      <trkpt lat="47.05344" lon="5.93903">
        <ele>424</ele>
        <time>2017-11-23T12:00:36Z</time>
      </trkpt>
      <trkpt lat="47.05326" lon="5.93915">
        <ele>424</ele>
        <time>2017-11-23T12:00:52Z</time>
      </trkpt>
      <trkpt lat="47.05321" lon="5.93917">
        <ele>424</ele>
        <time>2017-11-23T12:00:55Z</time>
      </trkpt>
      <trkpt lat="47.05316" lon="5.93922">
        <ele>425</ele>
        <time>2017-11-23T12:00:59Z</time>
      </trkpt>
      <trkpt lat="47.05312" lon="5.93926">
        <ele>425</ele>
        <time>2017-11-23T12:01:03Z</time>
      </trkpt>
      <trkpt lat="47.05307" lon="5.93929">
        <ele>425</ele>
        <time>2017-11-23T12:01:07Z</time>
      </trkpt>
      <trkpt lat="47.05299" lon="5.93938">
        <ele>425</ele>
        <time>2017-11-23T12:01:16Z</time>
      </trkpt>
      <trkpt lat="47.05274" lon="5.93953">
        <ele>425</ele>
        <time>2017-11-23T12:01:38Z</time>
      </trkpt>
      <trkpt lat="47.05259" lon="5.93971">
        <ele>427</ele>
        <time>2017-11-23T12:01:54Z</time>
      </trkpt>
      <trkpt lat="47.05248" lon="5.93987">
        <ele>428</ele>
        <time>2017-11-23T12:02:06Z</time>
      </trkpt>
      <trkpt lat="47.05244" lon="5.93991">
        <ele>428</ele>
        <time>2017-11-23T12:02:11Z</time>
      </trkpt>
      <trkpt lat="47.05241" lon="5.93997">
        <ele>429</ele>
        <time>2017-11-23T12:02:19Z</time>
      </trkpt>
      <trkpt lat="47.05236" lon="5.94002">
        <ele>429</ele>
        <time>2017-11-23T12:02:24Z</time>
      </trkpt>
      <trkpt lat="47.05223" lon="5.94015">
        <ele>430</ele>
        <time>2017-11-23T12:02:36Z</time>
      </trkpt>
      <trkpt lat="47.0522" lon="5.94021">
        <ele>430</ele>
        <time>2017-11-23T12:02:40Z</time>
      </trkpt>
      <trkpt lat="47.05212" lon="5.94031">
        <ele>432</ele>
        <time>2017-11-23T12:02:50Z</time>
      </trkpt>
      <trkpt lat="47.05195" lon="5.94047">
        <ele>433</ele>
        <time>2017-11-23T12:03:08Z</time>
      </trkpt>
      <trkpt lat="47.0519" lon="5.94043">
        <ele>433</ele>
        <time>2017-11-23T12:03:22Z</time>
      </trkpt>
      <trkpt lat="47.0518" lon="5.94038">
        <ele>432</ele>
        <time>2017-11-23T12:03:31Z</time>
      </trkpt>
      <trkpt lat="47.05157" lon="5.94022">
        <ele>432</ele>
        <time>2017-11-23T12:03:52Z</time>
      </trkpt>
      <trkpt lat="47.05148" lon="5.94015">
        <ele>432</ele>
        <time>2017-11-23T12:04:00Z</time>
      </trkpt>
      <trkpt lat="47.05125" lon="5.94003">
        <ele>432</ele>
        <time>2017-11-23T12:04:20Z</time>
      </trkpt>
      <trkpt lat="47.05104" lon="5.93984">
        <ele>431</ele>
        <time>2017-11-23T12:04:40Z</time>
      </trkpt>
      <trkpt lat="47.05099" lon="5.93982">
        <ele>431</ele>
        <time>2017-11-23T12:04:44Z</time>
      </trkpt>
      <trkpt lat="47.0509" lon="5.93973">
        <ele>431</ele>
        <time>2017-11-23T12:04:52Z</time>
      </trkpt>
      <trkpt lat="47.05083" lon="5.93963">
        <ele>431</ele>
        <time>2017-11-23T12:05:01Z</time>
      </trkpt>
      <trkpt lat="47.05074" lon="5.93955">
        <ele>430</ele>
        <time>2017-11-23T12:05:11Z</time>
      </trkpt>
      <trkpt lat="47.0507" lon="5.93949">
        <ele>431</ele>
        <time>2017-11-23T12:05:16Z</time>
      </trkpt>
      <trkpt lat="47.05068" lon="5.93942">
        <ele>431</ele>
        <time>2017-11-23T12:05:21Z</time>
      </trkpt>
      <trkpt lat="47.05063" lon="5.93912">
        <ele>430</ele>
        <time>2017-11-23T12:05:39Z</time>
      </trkpt>
      <trkpt lat="47.05061" lon="5.93905">
        <ele>430</ele>
        <time>2017-11-23T12:05:44Z</time>
      </trkpt>
      <trkpt lat="47.05057" lon="5.93899">
        <ele>430</ele>
        <time>2017-11-23T12:05:49Z</time>
      </trkpt>
      <trkpt lat="47.05038" lon="5.9389">
        <ele>430</ele>
        <time>2017-11-23T12:06:05Z</time>
      </trkpt>
      <trkpt lat="47.05033" lon="5.9389">
        <ele>429</ele>
        <time>2017-11-23T12:06:10Z</time>
      </trkpt>
      <trkpt lat="47.05029" lon="5.93889">
        <ele>429</ele>
        <time>2017-11-23T12:06:14Z</time>
      </trkpt>
      <trkpt lat="47.05019" lon="5.93889">
        <ele>429</ele>
        <time>2017-11-23T12:06:24Z</time>
      </trkpt>
      <trkpt lat="47.05006" lon="5.9391">
        <ele>428</ele>
        <time>2017-11-23T12:06:40Z</time>
      </trkpt>
      <trkpt lat="47.04989" lon="5.93926">
        <ele>427</ele>
        <time>2017-11-23T12:06:56Z</time>
      </trkpt>
      <trkpt lat="47.0497" lon="5.93933">
        <ele>425</ele>
        <time>2017-11-23T12:07:12Z</time>
      </trkpt>
      <trkpt lat="47.0496" lon="5.93932">
        <ele>425</ele>
        <time>2017-11-23T12:07:20Z</time>
      </trkpt>
      <trkpt lat="47.0495" lon="5.93931">
        <ele>424</ele>
        <time>2017-11-23T12:07:29Z</time>
      </trkpt>
      <trkpt lat="47.04945" lon="5.93928">
        <ele>423</ele>
        <time>2017-11-23T12:07:34Z</time>
      </trkpt>
      <trkpt lat="47.04936" lon="5.93923">
        <ele>424</ele>
        <time>2017-11-23T12:07:42Z</time>
      </trkpt>
      <trkpt lat="47.0493" lon="5.93922">
        <ele>424</ele>
        <time>2017-11-23T12:07:45Z</time>
      </trkpt>
      <trkpt lat="47.04921" lon="5.93925">
        <ele>424</ele>
        <time>2017-11-23T12:07:52Z</time>
      </trkpt>
      <trkpt lat="47.04916" lon="5.93928">
        <ele>425</ele>
        <time>2017-11-23T12:07:56Z</time>
      </trkpt>
      <trkpt lat="47.049" lon="5.93944">
        <ele>426</ele>
        <time>2017-11-23T12:08:11Z</time>
      </trkpt>
      <trkpt lat="47.04893" lon="5.93954">
        <ele>427</ele>
        <time>2017-11-23T12:08:20Z</time>
      </trkpt>
      <trkpt lat="47.04865" lon="5.93972">
        <ele>428</ele>
        <time>2017-11-23T12:08:49Z</time>
      </trkpt>
      <trkpt lat="47.04856" lon="5.93974">
        <ele>427</ele>
        <time>2017-11-23T12:08:57Z</time>
      </trkpt>
      <trkpt lat="47.04853" lon="5.93961">
        <ele>428</ele>
        <time>2017-11-23T12:09:11Z</time>
      </trkpt>
      <trkpt lat="47.04843" lon="5.93937">
        <ele>428</ele>
        <time>2017-11-23T12:09:33Z</time>
      </trkpt>
      <trkpt lat="47.04828" lon="5.93933">
        <ele>428</ele>
        <time>2017-11-23T12:09:46Z</time>
      </trkpt>
      <trkpt lat="47.04823" lon="5.93932">
        <ele>427</ele>
        <time>2017-11-23T12:09:52Z</time>
      </trkpt>
      <trkpt lat="47.04797" lon="5.93927">
        <ele>428</ele>
        <time>2017-11-23T12:10:14Z</time>
      </trkpt>
      <trkpt lat="47.04793" lon="5.93923">
        <ele>429</ele>
        <time>2017-11-23T12:10:18Z</time>
      </trkpt>
      <trkpt lat="47.04782" lon="5.93918">
        <ele>429</ele>
        <time>2017-11-23T12:10:26Z</time>
      </trkpt>
      <trkpt lat="47.04778" lon="5.93915">
        <ele>429</ele>
        <time>2017-11-23T12:10:30Z</time>
      </trkpt>
      <trkpt lat="47.0475" lon="5.93901">
        <ele>430</ele>
        <time>2017-11-23T12:10:55Z</time>
      </trkpt>
      <trkpt lat="47.04732" lon="5.93892">
        <ele>429</ele>
        <time>2017-11-23T12:11:11Z</time>
      </trkpt>
      <trkpt lat="47.04705" lon="5.93868">
        <ele>428</ele>
        <time>2017-11-23T12:11:40Z</time>
      </trkpt>
      <trkpt lat="47.047" lon="5.93866">
        <ele>428</ele>
        <time>2017-11-23T12:11:44Z</time>
      </trkpt>
      <trkpt lat="47.04686" lon="5.93855">
        <ele>428</ele>
        <time>2017-11-23T12:11:57Z</time>
      </trkpt>
      <trkpt lat="47.04682" lon="5.93849">
        <ele>428</ele>
        <time>2017-11-23T12:12:01Z</time>
      </trkpt>
      <trkpt lat="47.04677" lon="5.93845">
        <ele>428</ele>
        <time>2017-11-23T12:12:04Z</time>
      </trkpt>
      <trkpt lat="47.04672" lon="5.93844">
        <ele>428</ele>
        <time>2017-11-23T12:12:09Z</time>
      </trkpt>
      <trkpt lat="47.04667" lon="5.9384">
        <ele>428</ele>
        <time>2017-11-23T12:12:14Z</time>
      </trkpt>
      <trkpt lat="47.04659" lon="5.93834">
        <ele>427</ele>
        <time>2017-11-23T12:12:22Z</time>
      </trkpt>
      <trkpt lat="47.04654" lon="5.93834">
        <ele>427</ele>
        <time>2017-11-23T12:12:27Z</time>
      </trkpt>
      <trkpt lat="47.04646" lon="5.93853">
        <ele>427</ele>
        <time>2017-11-23T12:12:40Z</time>
      </trkpt>
      <trkpt lat="47.0464" lon="5.93867">
        <ele>427</ele>
        <time>2017-11-23T12:12:49Z</time>
      </trkpt>
      <trkpt lat="47.04636" lon="5.93882">
        <ele>427</ele>
        <time>2017-11-23T12:12:57Z</time>
      </trkpt>
      <trkpt lat="47.04635" lon="5.9389">
        <ele>428</ele>
        <time>2017-11-23T12:13:01Z</time>
      </trkpt>
      <trkpt lat="47.04634" lon="5.93896">
        <ele>428</ele>
        <time>2017-11-23T12:13:04Z</time>
      </trkpt>
      <trkpt lat="47.04631" lon="5.93901">
        <ele>427</ele>
        <time>2017-11-23T12:13:07Z</time>
      </trkpt>
      <trkpt lat="47.04626" lon="5.93903">
        <ele>427</ele>
        <time>2017-11-23T12:13:13Z</time>
      </trkpt>
      <trkpt lat="47.04618" lon="5.93912">
        <ele>427</ele>
        <time>2017-11-23T12:13:22Z</time>
      </trkpt>
      <trkpt lat="47.04615" lon="5.93916">
        <ele>427</ele>
        <time>2017-11-23T12:13:29Z</time>
      </trkpt>
      <trkpt lat="47.04597" lon="5.93924">
        <ele>427</ele>
        <time>2017-11-23T12:13:47Z</time>
      </trkpt>
      <trkpt lat="47.04571" lon="5.93912">
        <ele>429</ele>
        <time>2017-11-23T12:14:23Z</time>
      </trkpt>
      <trkpt lat="47.04555" lon="5.93911">
        <ele>430</ele>
        <time>2017-11-23T12:14:38Z</time>
      </trkpt>
      <trkpt lat="47.0455" lon="5.93909">
        <ele>430</ele>
        <time>2017-11-23T12:14:42Z</time>
      </trkpt>
      <trkpt lat="47.04535" lon="5.93904">
        <ele>432</ele>
        <time>2017-11-23T12:14:56Z</time>
      </trkpt>
      <trkpt lat="47.04521" lon="5.93903">
        <ele>433</ele>
        <time>2017-11-23T12:15:10Z</time>
      </trkpt>
      <trkpt lat="47.04512" lon="5.93897">
        <ele>433</ele>
        <time>2017-11-23T12:15:19Z</time>
      </trkpt>
      <trkpt lat="47.04507" lon="5.93894">
        <ele>433</ele>
        <time>2017-11-23T12:15:24Z</time>
      </trkpt>
      <trkpt lat="47.04497" lon="5.93895">
        <ele>433</ele>
        <time>2017-11-23T12:15:33Z</time>
      </trkpt>
      <trkpt lat="47.04481" lon="5.93889">
        <ele>434</ele>
        <time>2017-11-23T12:15:48Z</time>
      </trkpt>
      <trkpt lat="47.04478" lon="5.93894">
        <ele>433</ele>
        <time>2017-11-23T12:15:56Z</time>
      </trkpt>
      <trkpt lat="47.04476" lon="5.9391">
        <ele>431</ele>
        <time>2017-11-23T12:16:15Z</time>
      </trkpt>
      <trkpt lat="47.04477" lon="5.93917">
        <ele>431</ele>
        <time>2017-11-23T12:18:07Z</time>
      </trkpt>
      <trkpt lat="47.04482" lon="5.93913">
        <ele>431</ele>
        <time>2017-11-23T12:20:31Z</time>
      </trkpt>
      <trkpt lat="47.04482" lon="5.93871">
        <ele>432</ele>
        <time>2017-11-23T12:27:03Z</time>
      </trkpt>
      <trkpt lat="47.0448" lon="5.93855">
        <ele>432</ele>
        <time>2017-11-23T12:27:10Z</time>
      </trkpt>
      <trkpt lat="47.04482" lon="5.93841">
        <ele>432</ele>
        <time>2017-11-23T12:27:22Z</time>
      </trkpt>
      <trkpt lat="47.04481" lon="5.93832">
        <ele>432</ele>
        <time>2017-11-23T12:27:27Z</time>
      </trkpt>
      <trkpt lat="47.04474" lon="5.93798">
        <ele>432</ele>
        <time>2017-11-23T12:27:47Z</time>
      </trkpt>
      <trkpt lat="47.04484" lon="5.93756">
        <ele>431</ele>
        <time>2017-11-23T12:28:13Z</time>
      </trkpt>
      <trkpt lat="47.04491" lon="5.9375">
        <ele>430</ele>
        <time>2017-11-23T12:28:23Z</time>
      </trkpt>
      <trkpt lat="47.04485" lon="5.93739">
        <ele>430</ele>
        <time>2017-11-23T12:28:39Z</time>
      </trkpt>
      <trkpt lat="47.04482" lon="5.93735">
        <ele>430</ele>
        <time>2017-11-23T12:28:41Z</time>
      </trkpt>
      <trkpt lat="47.04477" lon="5.93732">
        <ele>431</ele>
        <time>2017-11-23T12:28:44Z</time>
      </trkpt>
      <trkpt lat="47.04451" lon="5.93731">
        <ele>431</ele>
        <time>2017-11-23T12:29:03Z</time>
      </trkpt>
      <trkpt lat="47.04447" lon="5.93726">
        <ele>431</ele>
        <time>2017-11-23T12:29:07Z</time>
      </trkpt>
      <trkpt lat="47.04433" lon="5.93728">
        <ele>431</ele>
        <time>2017-11-23T12:29:18Z</time>
      </trkpt>
      <trkpt lat="47.04419" lon="5.93724">
        <ele>431</ele>
        <time>2017-11-23T12:29:31Z</time>
      </trkpt>
      <trkpt lat="47.04409" lon="5.93726">
        <ele>430</ele>
        <time>2017-11-23T12:29:38Z</time>
      </trkpt>
      <trkpt lat="47.04401" lon="5.93731">
        <ele>429</ele>
        <time>2017-11-23T12:29:44Z</time>
      </trkpt>
      <trkpt lat="47.0438" lon="5.93733">
        <ele>427</ele>
        <time>2017-11-23T12:29:59Z</time>
      </trkpt>
      <trkpt lat="47.0434" lon="5.93732">
        <ele>426</ele>
        <time>2017-11-23T12:30:31Z</time>
      </trkpt>
      <trkpt lat="47.04313" lon="5.93733">
        <ele>424</ele>
        <time>2017-11-23T12:30:54Z</time>
      </trkpt>
      <trkpt lat="47.04307" lon="5.93732">
        <ele>424</ele>
        <time>2017-11-23T12:30:58Z</time>
      </trkpt>
      <trkpt lat="47.04303" lon="5.93733">
        <ele>424</ele>
        <time>2017-11-23T12:31:02Z</time>
      </trkpt>
      <trkpt lat="47.04293" lon="5.93737">
        <ele>424</ele>
        <time>2017-11-23T12:31:10Z</time>
      </trkpt>
      <trkpt lat="47.04263" lon="5.93742">
        <ele>423</ele>
        <time>2017-11-23T12:31:32Z</time>
      </trkpt>
      <trkpt lat="47.04258" lon="5.93744">
        <ele>423</ele>
        <time>2017-11-23T12:31:36Z</time>
      </trkpt>
      <trkpt lat="47.04242" lon="5.93748">
        <ele>421</ele>
        <time>2017-11-23T12:31:48Z</time>
      </trkpt>
      <trkpt lat="47.04237" lon="5.93747">
        <ele>420</ele>
        <time>2017-11-23T12:31:52Z</time>
      </trkpt>
      <trkpt lat="47.04227" lon="5.93745">
        <ele>420</ele>
        <time>2017-11-23T12:32:00Z</time>
      </trkpt>
      <trkpt lat="47.04201" lon="5.93747">
        <ele>422</ele>
        <time>2017-11-23T12:32:21Z</time>
      </trkpt>
      <trkpt lat="47.04197" lon="5.93746">
        <ele>422</ele>
        <time>2017-11-23T12:32:25Z</time>
      </trkpt>
      <trkpt lat="47.04192" lon="5.93743">
        <ele>421</ele>
        <time>2017-11-23T12:32:31Z</time>
      </trkpt>
      <trkpt lat="47.04183" lon="5.93738">
        <ele>422</ele>
        <time>2017-11-23T12:32:39Z</time>
      </trkpt>
      <trkpt lat="47.04174" lon="5.93737">
        <ele>423</ele>
        <time>2017-11-23T12:32:44Z</time>
      </trkpt>
      <trkpt lat="47.04165" lon="5.93734">
        <ele>423</ele>
        <time>2017-11-23T12:32:50Z</time>
      </trkpt>
      <trkpt lat="47.04156" lon="5.9373">
        <ele>424</ele>
        <time>2017-11-23T12:32:56Z</time>
      </trkpt>
      <trkpt lat="47.04148" lon="5.93728">
        <ele>424</ele>
        <time>2017-11-23T12:33:02Z</time>
      </trkpt>
      <trkpt lat="47.04144" lon="5.93725">
        <ele>424</ele>
        <time>2017-11-23T12:33:05Z</time>
      </trkpt>
      <trkpt lat="47.04129" lon="5.93719">
        <ele>425</ele>
        <time>2017-11-23T12:33:19Z</time>
      </trkpt>
      <trkpt lat="47.04124" lon="5.93717">
        <ele>424</ele>
        <time>2017-11-23T12:33:23Z</time>
      </trkpt>
      <trkpt lat="47.04096" lon="5.93702">
        <ele>424</ele>
        <time>2017-11-23T12:33:46Z</time>
      </trkpt>
      <trkpt lat="47.04092" lon="5.93699">
        <ele>424</ele>
        <time>2017-11-23T12:33:49Z</time>
      </trkpt>
      <trkpt lat="47.04082" lon="5.93693">
        <ele>425</ele>
        <time>2017-11-23T12:33:58Z</time>
      </trkpt>
      <trkpt lat="47.04078" lon="5.9369">
        <ele>425</ele>
        <time>2017-11-23T12:34:02Z</time>
      </trkpt>
      <trkpt lat="47.0406" lon="5.93677">
        <ele>425</ele>
        <time>2017-11-23T12:34:16Z</time>
      </trkpt>
      <trkpt lat="47.04051" lon="5.93676">
        <ele>424</ele>
        <time>2017-11-23T12:34:24Z</time>
      </trkpt>
      <trkpt lat="47.04009" lon="5.93657">
        <ele>425</ele>
        <time>2017-11-23T12:34:56Z</time>
      </trkpt>
      <trkpt lat="47.03988" lon="5.93648">
        <ele>425</ele>
        <time>2017-11-23T12:35:12Z</time>
      </trkpt>
      <trkpt lat="47.03984" lon="5.93644">
        <ele>425</ele>
        <time>2017-11-23T12:35:16Z</time>
      </trkpt>
      <trkpt lat="47.03979" lon="5.93641">
        <ele>425</ele>
        <time>2017-11-23T12:35:20Z</time>
      </trkpt>
      <trkpt lat="47.03974" lon="5.93638">
        <ele>424</ele>
        <time>2017-11-23T12:35:25Z</time>
      </trkpt>
      <trkpt lat="47.0394" lon="5.9363">
        <ele>422</ele>
        <time>2017-11-23T12:35:50Z</time>
      </trkpt>
      <trkpt lat="47.03935" lon="5.93631">
        <ele>422</ele>
        <time>2017-11-23T12:35:54Z</time>
      </trkpt>
      <trkpt lat="47.03924" lon="5.93633">
        <ele>422</ele>
        <time>2017-11-23T12:36:04Z</time>
      </trkpt>
      <trkpt lat="47.03905" lon="5.93647">
        <ele>421</ele>
        <time>2017-11-23T12:36:20Z</time>
      </trkpt>
      <trkpt lat="47.03894" lon="5.93652">
        <ele>420</ele>
        <time>2017-11-23T12:36:28Z</time>
      </trkpt>
      <trkpt lat="47.03886" lon="5.93659">
        <ele>419</ele>
        <time>2017-11-23T12:36:35Z</time>
      </trkpt>
      <trkpt lat="47.0388" lon="5.93668">
        <ele>418</ele>
        <time>2017-11-23T12:36:41Z</time>
      </trkpt>
      <trkpt lat="47.03873" lon="5.9368">
        <ele>419</ele>
        <time>2017-11-23T12:36:48Z</time>
      </trkpt>
      <trkpt lat="47.03864" lon="5.9369">
        <ele>419</ele>
        <time>2017-11-23T12:36:56Z</time>
      </trkpt>
      <trkpt lat="47.03855" lon="5.93698">
        <ele>419</ele>
        <time>2017-11-23T12:37:04Z</time>
      </trkpt>
      <trkpt lat="47.03846" lon="5.93704">
        <ele>419</ele>
        <time>2017-11-23T12:37:12Z</time>
      </trkpt>
      <trkpt lat="47.03841" lon="5.93706">
        <ele>419</ele>
        <time>2017-11-23T12:37:17Z</time>
      </trkpt>
      <trkpt lat="47.03835" lon="5.93707">
        <ele>419</ele>
        <time>2017-11-23T12:37:22Z</time>
      </trkpt>
      <trkpt lat="47.03825" lon="5.93705">
        <ele>418</ele>
        <time>2017-11-23T12:37:30Z</time>
      </trkpt>
      <trkpt lat="47.03821" lon="5.93705">
        <ele>417</ele>
        <time>2017-11-23T12:37:34Z</time>
      </trkpt>
      <trkpt lat="47.03815" lon="5.93705">
        <ele>417</ele>
        <time>2017-11-23T12:37:39Z</time>
      </trkpt>
      <trkpt lat="47.03806" lon="5.93698">
        <ele>416</ele>
        <time>2017-11-23T12:37:49Z</time>
      </trkpt>
      <trkpt lat="47.03802" lon="5.93694">
        <ele>417</ele>
        <time>2017-11-23T12:37:53Z</time>
      </trkpt>
      <trkpt lat="47.03797" lon="5.93694">
        <ele>416</ele>
        <time>2017-11-23T12:37:58Z</time>
      </trkpt>
      <trkpt lat="47.03792" lon="5.93692">
        <ele>415</ele>
        <time>2017-11-23T12:38:02Z</time>
      </trkpt>
      <trkpt lat="47.03788" lon="5.93688">
        <ele>415</ele>
        <time>2017-11-23T12:38:06Z</time>
      </trkpt>
      <trkpt lat="47.03783" lon="5.93686">
        <ele>413</ele>
        <time>2017-11-23T12:38:13Z</time>
      </trkpt>
      <trkpt lat="47.03778" lon="5.93688">
        <ele>412</ele>
        <time>2017-11-23T12:38:17Z</time>
      </trkpt>
      <trkpt lat="47.03773" lon="5.93688">
        <ele>412</ele>
        <time>2017-11-23T12:38:21Z</time>
      </trkpt>
      <trkpt lat="47.03763" lon="5.9369">
        <ele>413</ele>
        <time>2017-11-23T12:38:30Z</time>
      </trkpt>
      <trkpt lat="47.03742" lon="5.93699">
        <ele>412</ele>
        <time>2017-11-23T12:38:47Z</time>
      </trkpt>
      <trkpt lat="47.03738" lon="5.93704">
        <ele>412</ele>
        <time>2017-11-23T12:38:52Z</time>
      </trkpt>
      <trkpt lat="47.03737" lon="5.93711">
        <ele>412</ele>
        <time>2017-11-23T12:38:57Z</time>
      </trkpt>
      <trkpt lat="47.03742" lon="5.93724">
        <ele>412</ele>
        <time>2017-11-23T12:39:07Z</time>
      </trkpt>
      <trkpt lat="47.03747" lon="5.93726">
        <ele>412</ele>
        <time>2017-11-23T12:39:13Z</time>
      </trkpt>
      <trkpt lat="47.0375" lon="5.93732">
        <ele>412</ele>
        <time>2017-11-23T12:39:19Z</time>
      </trkpt>
      <trkpt lat="47.0375" lon="5.93739">
        <ele>412</ele>
        <time>2017-11-23T12:39:25Z</time>
      </trkpt>
      <trkpt lat="47.03756" lon="5.93752">
        <ele>411</ele>
        <time>2017-11-23T12:39:36Z</time>
      </trkpt>
      <trkpt lat="47.0377" lon="5.93764">
        <ele>411</ele>
        <time>2017-11-23T12:39:48Z</time>
      </trkpt>
      <trkpt lat="47.03773" lon="5.93768">
        <ele>410</ele>
        <time>2017-11-23T12:39:53Z</time>
      </trkpt>
      <trkpt lat="47.03795" lon="5.93786">
        <ele>409</ele>
        <time>2017-11-23T12:40:12Z</time>
      </trkpt>
      <trkpt lat="47.03814" lon="5.9379">
        <ele>409</ele>
        <time>2017-11-23T12:40:25Z</time>
      </trkpt>
      <trkpt lat="47.03842" lon="5.93808">
        <ele>409</ele>
        <time>2017-11-23T12:40:43Z</time>
      </trkpt>
      <trkpt lat="47.03847" lon="5.93821">
        <ele>408</ele>
        <time>2017-11-23T12:40:53Z</time>
      </trkpt>
      <trkpt lat="47.03861" lon="5.93841">
        <ele>407</ele>
        <time>2017-11-23T12:41:08Z</time>
      </trkpt>
      <trkpt lat="47.0388" lon="5.93889">
        <ele>405</ele>
        <time>2017-11-23T12:41:40Z</time>
      </trkpt>
      <trkpt lat="47.03887" lon="5.9393">
        <ele>404</ele>
        <time>2017-11-23T12:42:04Z</time>
      </trkpt>
      <trkpt lat="47.03897" lon="5.93951">
        <ele>404</ele>
        <time>2017-11-23T12:42:17Z</time>
      </trkpt>
      <trkpt lat="47.03898" lon="5.93964">
        <ele>404</ele>
        <time>2017-11-23T12:42:25Z</time>
      </trkpt>
      <trkpt lat="47.03902" lon="5.93977">
        <ele>403</ele>
        <time>2017-11-23T12:42:32Z</time>
      </trkpt>
      <trkpt lat="47.0391" lon="5.93987">
        <ele>402</ele>
        <time>2017-11-23T12:42:39Z</time>
      </trkpt>
      <trkpt lat="47.0392" lon="5.94009">
        <ele>401</ele>
        <time>2017-11-23T12:42:55Z</time>
      </trkpt>
      <trkpt lat="47.03945" lon="5.94039">
        <ele>399</ele>
        <time>2017-11-23T12:43:27Z</time>
      </trkpt>
      <trkpt lat="47.03952" lon="5.94048">
        <ele>397</ele>
        <time>2017-11-23T12:43:35Z</time>
      </trkpt>
      <trkpt lat="47.03958" lon="5.94059">
        <ele>397</ele>
        <time>2017-11-23T12:43:43Z</time>
      </trkpt>
      <trkpt lat="47.03962" lon="5.94072">
        <ele>396</ele>
        <time>2017-11-23T12:43:52Z</time>
      </trkpt>
      <trkpt lat="47.03967" lon="5.94083">
        <ele>396</ele>
        <time>2017-11-23T12:44:02Z</time>
      </trkpt>
      <trkpt lat="47.03988" lon="5.94112">
        <ele>393</ele>
        <time>2017-11-23T12:44:23Z</time>
      </trkpt>
      <trkpt lat="47.04006" lon="5.9412">
        <ele>391</ele>
        <time>2017-11-23T12:44:38Z</time>
      </trkpt>
      <trkpt lat="47.04044" lon="5.94122">
        <ele>387</ele>
        <time>2017-11-23T12:45:07Z</time>
      </trkpt>
      <trkpt lat="47.04071" lon="5.94105">
        <ele>386</ele>
        <time>2017-11-23T12:45:38Z</time>
      </trkpt>
      <trkpt lat="47.04081" lon="5.94105">
        <ele>385</ele>
        <time>2017-11-23T12:45:47Z</time>
      </trkpt>
      <trkpt lat="47.04127" lon="5.94119">
        <ele>380</ele>
        <time>2017-11-23T12:46:24Z</time>
      </trkpt>
      <trkpt lat="47.04155" lon="5.94123">
        <ele>379</ele>
        <time>2017-11-23T12:46:46Z</time>
      </trkpt>
      <trkpt lat="47.04165" lon="5.94122">
        <ele>377</ele>
        <time>2017-11-23T12:46:57Z</time>
      </trkpt>
      <trkpt lat="47.04174" lon="5.94125">
        <ele>376</ele>
        <time>2017-11-23T12:47:04Z</time>
      </trkpt>
      <trkpt lat="47.04183" lon="5.94132">
        <ele>374</ele>
        <time>2017-11-23T12:47:12Z</time>
      </trkpt>
      <trkpt lat="47.04192" lon="5.94135">
        <ele>374</ele>
        <time>2017-11-23T12:47:18Z</time>
      </trkpt>
      <trkpt lat="47.04207" lon="5.94152">
        <ele>371</ele>
        <time>2017-11-23T12:47:35Z</time>
      </trkpt>
      <trkpt lat="47.04213" lon="5.94163">
        <ele>368</ele>
        <time>2017-11-23T12:47:47Z</time>
      </trkpt>
      <trkpt lat="47.04217" lon="5.94177">
        <ele>366</ele>
        <time>2017-11-23T12:47:56Z</time>
      </trkpt>
      <trkpt lat="47.04203" lon="5.94196">
        <ele>362</ele>
        <time>2017-11-23T12:48:13Z</time>
      </trkpt>
      <trkpt lat="47.04202" lon="5.9421">
        <ele>361</ele>
        <time>2017-11-23T12:48:21Z</time>
      </trkpt>
      <trkpt lat="47.04208" lon="5.94222">
        <ele>359</ele>
        <time>2017-11-23T12:48:29Z</time>
      </trkpt>
      <trkpt lat="47.04224" lon="5.94239">
        <ele>357</ele>
        <time>2017-11-23T12:48:45Z</time>
      </trkpt>
      <trkpt lat="47.04263" lon="5.94258">
        <ele>349</ele>
        <time>2017-11-23T12:49:18Z</time>
      </trkpt>
      <trkpt lat="47.0429" lon="5.94265">
        <ele>344</ele>
        <time>2017-11-23T12:49:38Z</time>
      </trkpt>
      <trkpt lat="47.04294" lon="5.94266">
        <ele>344</ele>
        <time>2017-11-23T12:49:42Z</time>
      </trkpt>
      <trkpt lat="47.04304" lon="5.94269">
        <ele>343</ele>
        <time>2017-11-23T12:49:52Z</time>
      </trkpt>
      <trkpt lat="47.04318" lon="5.94275">
        <ele>340</ele>
        <time>2017-11-23T12:50:06Z</time>
      </trkpt>
      <trkpt lat="47.04322" lon="5.94277">
        <ele>339</ele>
        <time>2017-11-23T12:50:11Z</time>
      </trkpt>
      <trkpt lat="47.04338" lon="5.94292">
        <ele>337</ele>
        <time>2017-11-23T12:50:29Z</time>
      </trkpt>
      <trkpt lat="47.04344" lon="5.94304">
        <ele>335</ele>
        <time>2017-11-23T12:50:37Z</time>
      </trkpt>
      <trkpt lat="47.04354" lon="5.94344">
        <ele>333</ele>
        <time>2017-11-23T12:50:58Z</time>
      </trkpt>
      <trkpt lat="47.04361" lon="5.94353">
        <ele>332</ele>
        <time>2017-11-23T12:51:05Z</time>
      </trkpt>
      <trkpt lat="47.04369" lon="5.94363">
        <ele>333</ele>
        <time>2017-11-23T12:51:14Z</time>
      </trkpt>
      <trkpt lat="47.04372" lon="5.94377">
        <ele>333</ele>
        <time>2017-11-23T12:51:23Z</time>
      </trkpt>
      <trkpt lat="47.04373" lon="5.94391">
        <ele>332</ele>
        <time>2017-11-23T12:51:30Z</time>
      </trkpt>
      <trkpt lat="47.04374" lon="5.94404">
        <ele>332</ele>
        <time>2017-11-23T12:51:38Z</time>
      </trkpt>
      <trkpt lat="47.04375" lon="5.94411">
        <ele>332</ele>
        <time>2017-11-23T12:53:31Z</time>
      </trkpt>
      <trkpt lat="47.04376" lon="5.94419">
        <ele>331</ele>
        <time>2017-11-23T12:53:36Z</time>
      </trkpt>
      <trkpt lat="47.04376" lon="5.94442">
        <ele>331</ele>
        <time>2017-11-23T12:53:47Z</time>
      </trkpt>
      <trkpt lat="47.04381" lon="5.94462">
        <ele>331</ele>
        <time>2017-11-23T12:53:58Z</time>
      </trkpt>
      <trkpt lat="47.04381" lon="5.94477">
        <ele>331</ele>
        <time>2017-11-23T12:54:06Z</time>
      </trkpt>
      <trkpt lat="47.04383" lon="5.94483">
        <ele>331</ele>
        <time>2017-11-23T12:54:10Z</time>
      </trkpt>
      <trkpt lat="47.04385" lon="5.94492">
        <ele>331</ele>
        <time>2017-11-23T12:54:14Z</time>
      </trkpt>
      <trkpt lat="47.04389" lon="5.94496">
        <ele>331</ele>
        <time>2017-11-23T12:54:18Z</time>
      </trkpt>
      <trkpt lat="47.04393" lon="5.945">
        <ele>331</ele>
        <time>2017-11-23T12:54:21Z</time>
      </trkpt>
      <trkpt lat="47.044" lon="5.94519">
        <ele>331</ele>
        <time>2017-11-23T12:54:32Z</time>
      </trkpt>
      <trkpt lat="47.04402" lon="5.94526">
        <ele>331</ele>
        <time>2017-11-23T12:54:38Z</time>
      </trkpt>
      <trkpt lat="47.04409" lon="5.94536">
        <ele>332</ele>
        <time>2017-11-23T12:54:47Z</time>
      </trkpt>
      <trkpt lat="47.04417" lon="5.94555">
        <ele>332</ele>
        <time>2017-11-23T12:55:00Z</time>
      </trkpt>
      <trkpt lat="47.0442" lon="5.94561">
        <ele>333</ele>
        <time>2017-11-23T12:55:06Z</time>
      </trkpt>
      <trkpt lat="47.04421" lon="5.9457">
        <ele>333</ele>
        <time>2017-11-23T12:55:11Z</time>
      </trkpt>
      <trkpt lat="47.04424" lon="5.94575">
        <ele>333</ele>
        <time>2017-11-23T12:55:15Z</time>
      </trkpt>
      <trkpt lat="47.04428" lon="5.9458">
        <ele>333</ele>
        <time>2017-11-23T12:55:22Z</time>
      </trkpt>
      <trkpt lat="47.0443" lon="5.94586">
        <ele>333</ele>
        <time>2017-11-23T12:55:27Z</time>
      </trkpt>
      <trkpt lat="47.04432" lon="5.94593">
        <ele>332</ele>
        <time>2017-11-23T12:55:32Z</time>
      </trkpt>
      <trkpt lat="47.04432" lon="5.94601">
        <ele>332</ele>
        <time>2017-11-23T12:55:36Z</time>
      </trkpt>
      <trkpt lat="47.04434" lon="5.94608">
        <ele>332</ele>
        <time>2017-11-23T12:55:40Z</time>
      </trkpt>
      <trkpt lat="47.04434" lon="5.94616">
        <ele>332</ele>
        <time>2017-11-23T12:55:45Z</time>
      </trkpt>
      <trkpt lat="47.04432" lon="5.94624">
        <ele>332</ele>
        <time>2017-11-23T12:55:49Z</time>
      </trkpt>
      <trkpt lat="47.04433" lon="5.94646">
        <ele>333</ele>
        <time>2017-11-23T12:56:02Z</time>
      </trkpt>
      <trkpt lat="47.04435" lon="5.94652">
        <ele>333</ele>
        <time>2017-11-23T12:56:06Z</time>
      </trkpt>
      <trkpt lat="47.04435" lon="5.9466">
        <ele>333</ele>
        <time>2017-11-23T12:56:10Z</time>
      </trkpt>
      <trkpt lat="47.04434" lon="5.94668">
        <ele>333</ele>
        <time>2017-11-23T12:56:15Z</time>
      </trkpt>
      <trkpt lat="47.04436" lon="5.94688">
        <ele>336</ele>
        <time>2017-11-23T12:56:26Z</time>
      </trkpt>
      <trkpt lat="47.04439" lon="5.94694">
        <ele>336</ele>
        <time>2017-11-23T12:56:30Z</time>
      </trkpt>
      <trkpt lat="47.0444" lon="5.94701">
        <ele>337</ele>
        <time>2017-11-23T12:56:36Z</time>
      </trkpt>
      <trkpt lat="47.04444" lon="5.94704">
        <ele>337</ele>
        <time>2017-11-23T12:56:39Z</time>
      </trkpt>
      <trkpt lat="47.0445" lon="5.94705">
        <ele>338</ele>
        <time>2017-11-23T12:56:43Z</time>
      </trkpt>
      <trkpt lat="47.04477" lon="5.94725">
        <ele>340</ele>
        <time>2017-11-23T12:57:17Z</time>
      </trkpt>
      <trkpt lat="47.04482" lon="5.9473">
        <ele>340</ele>
        <time>2017-11-23T12:57:28Z</time>
      </trkpt>
      <trkpt lat="47.04486" lon="5.94733">
        <ele>339</ele>
        <time>2017-11-23T12:57:32Z</time>
      </trkpt>
      <trkpt lat="47.04494" lon="5.94742">
        <ele>340</ele>
        <time>2017-11-23T12:57:40Z</time>
      </trkpt>
      <trkpt lat="47.04497" lon="5.94748">
        <ele>340</ele>
        <time>2017-11-23T12:57:45Z</time>
      </trkpt>
      <trkpt lat="47.04502" lon="5.94753">
        <ele>340</ele>
        <time>2017-11-23T12:57:50Z</time>
      </trkpt>
      <trkpt lat="47.04506" lon="5.94756">
        <ele>339</ele>
        <time>2017-11-23T12:57:56Z</time>
      </trkpt>
      <trkpt lat="47.04511" lon="5.94755">
        <ele>340</ele>
        <time>2017-11-23T12:59:15Z</time>
      </trkpt>
      <trkpt lat="47.04521" lon="5.94751">
        <ele>342</ele>
        <time>2017-11-23T12:59:22Z</time>
      </trkpt>
      <trkpt lat="47.04518" lon="5.94757">
        <ele>341</ele>
        <time>2017-11-23T12:59:46Z</time>
      </trkpt>
      <trkpt lat="47.04514" lon="5.9476">
        <ele>342</ele>
        <time>2017-11-23T12:59:52Z</time>
      </trkpt>
      <trkpt lat="47.04509" lon="5.94759">
        <ele>342</ele>
        <time>2017-11-23T13:00:20Z</time>
      </trkpt>
      <trkpt lat="47.0451" lon="5.94762">
        <ele>346</ele>
        <time>2017-11-23T13:01:49Z</time>
      </trkpt>
      <trkpt lat="47.04516" lon="5.94759">
        <ele>346</ele>
        <time>2017-11-23T13:01:53Z</time>
      </trkpt>
      <trkpt lat="47.0453" lon="5.94755">
        <ele>344</ele>
        <time>2017-11-23T13:02:01Z</time>
      </trkpt>
      <trkpt lat="47.04535" lon="5.94755">
        <ele>344</ele>
        <time>2017-11-23T13:02:05Z</time>
      </trkpt>
      <trkpt lat="47.04542" lon="5.9476">
        <ele>344</ele>
        <time>2017-11-23T13:02:17Z</time>
      </trkpt>
      <trkpt lat="47.04547" lon="5.94759">
        <ele>344</ele>
        <time>2017-11-23T13:02:32Z</time>
      </trkpt>
      <trkpt lat="47.04557" lon="5.94755">
        <ele>344</ele>
        <time>2017-11-23T13:02:40Z</time>
      </trkpt>
      <trkpt lat="47.04558" lon="5.94749">
        <ele>344</ele>
        <time>2017-11-23T13:02:46Z</time>
      </trkpt>
      <trkpt lat="47.04565" lon="5.94739">
        <ele>345</ele>
        <time>2017-11-23T13:02:59Z</time>
      </trkpt>
      <trkpt lat="47.04561" lon="5.94735">
        <ele>345</ele>
        <time>2017-11-23T13:03:05Z</time>
      </trkpt>
      <trkpt lat="47.04544" lon="5.94742">
        <ele>345</ele>
        <time>2017-11-23T13:04:00Z</time>
      </trkpt>
      <trkpt lat="47.04541" lon="5.94748">
        <ele>345</ele>
        <time>2017-11-23T13:04:06Z</time>
      </trkpt>
      <trkpt lat="47.0454" lon="5.94755">
        <ele>346</ele>
        <time>2017-11-23T13:04:10Z</time>
      </trkpt>
      <trkpt lat="47.0454" lon="5.94763">
        <ele>346</ele>
        <time>2017-11-23T13:04:14Z</time>
      </trkpt>
      <trkpt lat="47.04541" lon="5.9477">
        <ele>346</ele>
        <time>2017-11-23T13:04:18Z</time>
      </trkpt>
      <trkpt lat="47.04542" lon="5.94776">
        <ele>346</ele>
        <time>2017-11-23T13:04:22Z</time>
      </trkpt>
      <trkpt lat="47.04549" lon="5.94788">
        <ele>345</ele>
        <time>2017-11-23T13:04:29Z</time>
      </trkpt>
      <trkpt lat="47.04552" lon="5.94794">
        <ele>345</ele>
        <time>2017-11-23T13:04:33Z</time>
      </trkpt>
      <trkpt lat="47.04553" lon="5.948">
        <ele>346</ele>
        <time>2017-11-23T13:04:38Z</time>
      </trkpt>
      <trkpt lat="47.04556" lon="5.94807">
        <ele>346</ele>
        <time>2017-11-23T13:04:43Z</time>
      </trkpt>
      <trkpt lat="47.04564" lon="5.9485">
        <ele>346</ele>
        <time>2017-11-23T13:05:08Z</time>
      </trkpt>
      <trkpt lat="47.04563" lon="5.94858">
        <ele>346</ele>
        <time>2017-11-23T13:05:12Z</time>
      </trkpt>
      <trkpt lat="47.04564" lon="5.94865">
        <ele>347</ele>
        <time>2017-11-23T13:05:16Z</time>
      </trkpt>
      <trkpt lat="47.04567" lon="5.94871">
        <ele>347</ele>
        <time>2017-11-23T13:05:20Z</time>
      </trkpt>
      <trkpt lat="47.0457" lon="5.94877">
        <ele>347</ele>
        <time>2017-11-23T13:05:24Z</time>
      </trkpt>
      <trkpt lat="47.04573" lon="5.94882">
        <ele>348</ele>
        <time>2017-11-23T13:05:28Z</time>
      </trkpt>
      <trkpt lat="47.04577" lon="5.94886">
        <ele>348</ele>
        <time>2017-11-23T13:05:32Z</time>
      </trkpt>
      <trkpt lat="47.0458" lon="5.94892">
        <ele>348</ele>
        <time>2017-11-23T13:05:36Z</time>
      </trkpt>
      <trkpt lat="47.04612" lon="5.94926">
        <ele>350</ele>
        <time>2017-11-23T13:06:09Z</time>
      </trkpt>
      <trkpt lat="47.04635" lon="5.94953">
        <ele>352</ele>
        <time>2017-11-23T13:06:35Z</time>
      </trkpt>
      <trkpt lat="47.04642" lon="5.94964">
        <ele>354</ele>
        <time>2017-11-23T13:06:57Z</time>
      </trkpt>
      <trkpt lat="47.04668" lon="5.94995">
        <ele>360</ele>
        <time>2017-11-23T13:07:27Z</time>
      </trkpt>
      <trkpt lat="47.04677" lon="5.95004">
        <ele>361</ele>
        <time>2017-11-23T13:07:35Z</time>
      </trkpt>
      <trkpt lat="47.04686" lon="5.95008">
        <ele>361</ele>
        <time>2017-11-23T13:07:44Z</time>
      </trkpt>
      <trkpt lat="47.04691" lon="5.95006">
        <ele>361</ele>
        <time>2017-11-23T13:07:49Z</time>
      </trkpt>
      <trkpt lat="47.04701" lon="5.94998">
        <ele>362</ele>
        <time>2017-11-23T13:07:58Z</time>
      </trkpt>
      <trkpt lat="47.04704" lon="5.94993">
        <ele>362</ele>
        <time>2017-11-23T13:08:02Z</time>
      </trkpt>
      <trkpt lat="47.04708" lon="5.94978">
        <ele>363</ele>
        <time>2017-11-23T13:08:11Z</time>
      </trkpt>
      <trkpt lat="47.04716" lon="5.94927">
        <ele>366</ele>
        <time>2017-11-23T13:08:42Z</time>
      </trkpt>
      <trkpt lat="47.0472" lon="5.94905">
        <ele>368</ele>
        <time>2017-11-23T13:08:54Z</time>
      </trkpt>
      <trkpt lat="47.04721" lon="5.94898">
        <ele>367</ele>
        <time>2017-11-23T13:08:58Z</time>
      </trkpt>
      <trkpt lat="47.04728" lon="5.94871">
        <ele>369</ele>
        <time>2017-11-23T13:09:14Z</time>
      </trkpt>
      <trkpt lat="47.04731" lon="5.94865">
        <ele>369</ele>
        <time>2017-11-23T13:09:18Z</time>
      </trkpt>
      <trkpt lat="47.04733" lon="5.94857">
        <ele>370</ele>
        <time>2017-11-23T13:09:23Z</time>
      </trkpt>
      <trkpt lat="47.04744" lon="5.94824">
        <ele>371</ele>
        <time>2017-11-23T13:09:46Z</time>
      </trkpt>
      <trkpt lat="47.04758" lon="5.94795">
        <ele>373</ele>
        <time>2017-11-23T13:10:15Z</time>
      </trkpt>
      <trkpt lat="47.04762" lon="5.9479">
        <ele>373</ele>
        <time>2017-11-23T13:10:29Z</time>
      </trkpt>
      <trkpt lat="47.04772" lon="5.94785">
        <ele>374</ele>
        <time>2017-11-23T13:10:42Z</time>
      </trkpt>
      <trkpt lat="47.04779" lon="5.94781">
        <ele>375</ele>
        <time>2017-11-23T13:10:58Z</time>
      </trkpt>
      <trkpt lat="47.04784" lon="5.94779">
        <ele>375</ele>
        <time>2017-11-23T13:11:03Z</time>
      </trkpt>
      <trkpt lat="47.04802" lon="5.94769">
        <ele>378</ele>
        <time>2017-11-23T13:11:30Z</time>
      </trkpt>
      <trkpt lat="47.04813" lon="5.94756">
        <ele>380</ele>
        <time>2017-11-23T13:11:51Z</time>
      </trkpt>
      <trkpt lat="47.04818" lon="5.94753">
        <ele>381</ele>
        <time>2017-11-23T13:11:57Z</time>
      </trkpt>
      <trkpt lat="47.04822" lon="5.94748">
        <ele>382</ele>
        <time>2017-11-23T13:12:03Z</time>
      </trkpt>
      <trkpt lat="47.04831" lon="5.94742">
        <ele>383</ele>
        <time>2017-11-23T13:12:15Z</time>
      </trkpt>
      <trkpt lat="47.04835" lon="5.94742">
        <ele>383</ele>
        <time>2017-11-23T13:12:21Z</time>
      </trkpt>
      <trkpt lat="47.04836" lon="5.94749">
        <ele>384</ele>
        <time>2017-11-23T13:12:30Z</time>
      </trkpt>
      <trkpt lat="47.04834" lon="5.94756">
        <ele>385</ele>
        <time>2017-11-23T13:12:35Z</time>
      </trkpt>
      <trkpt lat="47.04838" lon="5.94758">
        <ele>385</ele>
        <time>2017-11-23T13:12:42Z</time>
      </trkpt>
      <trkpt lat="47.04846" lon="5.94759">
        <ele>387</ele>
        <time>2017-11-23T13:13:06Z</time>
      </trkpt>
      <trkpt lat="47.04851" lon="5.94756">
        <ele>388</ele>
        <time>2017-11-23T13:13:16Z</time>
      </trkpt>
      <trkpt lat="47.04853" lon="5.9475">
        <ele>389</ele>
        <time>2017-11-23T13:13:25Z</time>
      </trkpt>
      <trkpt lat="47.04857" lon="5.94746">
        <ele>389</ele>
        <time>2017-11-23T13:13:31Z</time>
      </trkpt>
      <trkpt lat="47.04859" lon="5.9474">
        <ele>391</ele>
        <time>2017-11-23T13:13:39Z</time>
      </trkpt>
      <trkpt lat="47.04867" lon="5.9473">
        <ele>392</ele>
        <time>2017-11-23T13:13:51Z</time>
      </trkpt>
      <trkpt lat="47.04872" lon="5.9472">
        <ele>393</ele>
        <time>2017-11-23T13:14:05Z</time>
      </trkpt>
      <trkpt lat="47.04875" lon="5.94714">
        <ele>394</ele>
        <time>2017-11-23T13:14:20Z</time>
      </trkpt>
      <trkpt lat="47.04878" lon="5.94705">
        <ele>394</ele>
        <time>2017-11-23T13:14:36Z</time>
      </trkpt>
      <trkpt lat="47.04883" lon="5.94706">
        <ele>394</ele>
        <time>2017-11-23T13:14:45Z</time>
      </trkpt>
      <trkpt lat="47.04887" lon="5.94708">
        <ele>395</ele>
        <time>2017-11-23T13:14:50Z</time>
      </trkpt>
      <trkpt lat="47.04897" lon="5.94703">
        <ele>395</ele>
        <time>2017-11-23T13:14:59Z</time>
      </trkpt>
      <trkpt lat="47.04902" lon="5.94704">
        <ele>396</ele>
        <time>2017-11-23T13:15:03Z</time>
      </trkpt>
      <trkpt lat="47.04907" lon="5.94707">
        <ele>396</ele>
        <time>2017-11-23T13:15:07Z</time>
      </trkpt>
      <trkpt lat="47.04912" lon="5.94707">
        <ele>397</ele>
        <time>2017-11-23T13:15:16Z</time>
      </trkpt>
      <trkpt lat="47.04916" lon="5.94706">
        <ele>399</ele>
        <time>2017-11-23T13:15:22Z</time>
      </trkpt>
      <trkpt lat="47.04926" lon="5.94707">
        <ele>399</ele>
        <time>2017-11-23T13:15:31Z</time>
      </trkpt>
      <trkpt lat="47.04957" lon="5.94699">
        <ele>404</ele>
        <time>2017-11-23T13:16:11Z</time>
      </trkpt>
      <trkpt lat="47.04966" lon="5.94694">
        <ele>404</ele>
        <time>2017-11-23T13:16:21Z</time>
      </trkpt>
      <trkpt lat="47.04975" lon="5.94694">
        <ele>405</ele>
        <time>2017-11-23T13:16:31Z</time>
      </trkpt>
      <trkpt lat="47.04984" lon="5.94687">
        <ele>406</ele>
        <time>2017-11-23T13:16:44Z</time>
      </trkpt>
      <trkpt lat="47.04993" lon="5.94685">
        <ele>407</ele>
        <time>2017-11-23T13:16:57Z</time>
      </trkpt>
      <trkpt lat="47.05011" lon="5.94681">
        <ele>406</ele>
        <time>2017-11-23T13:17:22Z</time>
      </trkpt>
      <trkpt lat="47.05021" lon="5.94682">
        <ele>406</ele>
        <time>2017-11-23T13:17:30Z</time>
      </trkpt>
      <trkpt lat="47.0503" lon="5.94681">
        <ele>407</ele>
        <time>2017-11-23T13:17:41Z</time>
      </trkpt>
      <trkpt lat="47.05037" lon="5.94673">
        <ele>407</ele>
        <time>2017-11-23T13:17:55Z</time>
      </trkpt>
      <trkpt lat="47.05047" lon="5.9467">
        <ele>409</ele>
        <time>2017-11-23T13:18:07Z</time>
      </trkpt>
      <trkpt lat="47.05056" lon="5.94666">
        <ele>409</ele>
        <time>2017-11-23T13:18:19Z</time>
      </trkpt>
      <trkpt lat="47.05064" lon="5.94661">
        <ele>411</ele>
        <time>2017-11-23T13:18:29Z</time>
      </trkpt>
      <trkpt lat="47.05092" lon="5.94669">
        <ele>415</ele>
        <time>2017-11-23T13:19:05Z</time>
      </trkpt>
      <trkpt lat="47.05101" lon="5.94669">
        <ele>419</ele>
        <time>2017-11-23T13:19:18Z</time>
      </trkpt>
      <trkpt lat="47.05109" lon="5.94678">
        <ele>421</ele>
        <time>2017-11-23T13:19:27Z</time>
      </trkpt>
      <trkpt lat="47.05127" lon="5.94689">
        <ele>427</ele>
        <time>2017-11-23T13:19:46Z</time>
      </trkpt>
      <trkpt lat="47.05136" lon="5.94692">
        <ele>430</ele>
        <time>2017-11-23T13:19:55Z</time>
      </trkpt>
      <trkpt lat="47.05144" lon="5.94699">
        <ele>431</ele>
        <time>2017-11-23T13:20:04Z</time>
      </trkpt>
      <trkpt lat="47.05154" lon="5.94703">
        <ele>433</ele>
        <time>2017-11-23T13:20:14Z</time>
      </trkpt>
      <trkpt lat="47.05173" lon="5.94708">
        <ele>434</ele>
        <time>2017-11-23T13:20:30Z</time>
      </trkpt>
      <trkpt lat="47.05181" lon="5.94712">
        <ele>435</ele>
        <time>2017-11-23T13:20:38Z</time>
      </trkpt>
      <trkpt lat="47.0519" lon="5.9472">
        <ele>436</ele>
        <time>2017-11-23T13:20:48Z</time>
      </trkpt>
      <trkpt lat="47.05195" lon="5.94731">
        <ele>436</ele>
        <time>2017-11-23T13:20:58Z</time>
      </trkpt>
      <trkpt lat="47.05194" lon="5.94745">
        <ele>436</ele>
        <time>2017-11-23T13:21:05Z</time>
      </trkpt>
      <trkpt lat="47.05191" lon="5.94772">
        <ele>437</ele>
        <time>2017-11-23T13:21:21Z</time>
      </trkpt>
      <trkpt lat="47.05193" lon="5.94798">
        <ele>438</ele>
        <time>2017-11-23T13:21:37Z</time>
      </trkpt>
      <trkpt lat="47.05198" lon="5.94788">
        <ele>437</ele>
        <time>2017-11-23T13:22:26Z</time>
      </trkpt>
      <trkpt lat="47.05201" lon="5.94795">
        <ele>435</ele>
        <time>2017-11-23T13:22:59Z</time>
      </trkpt>
      <trkpt lat="47.052" lon="5.94801">
        <ele>434</ele>
        <time>2017-11-23T13:23:06Z</time>
      </trkpt>
      <trkpt lat="47.05201" lon="5.94808">
        <ele>433</ele>
        <time>2017-11-23T13:23:10Z</time>
      </trkpt>
      <trkpt lat="47.05202" lon="5.94817">
        <ele>433</ele>
        <time>2017-11-23T13:23:14Z</time>
      </trkpt>
      <trkpt lat="47.05204" lon="5.94824">
        <ele>434</ele>
        <time>2017-11-23T13:23:18Z</time>
      </trkpt>
      <trkpt lat="47.05208" lon="5.94827">
        <ele>434</ele>
        <time>2017-11-23T13:23:25Z</time>
      </trkpt>
      <trkpt lat="47.05209" lon="5.94834">
        <ele>434</ele>
        <time>2017-11-23T13:23:29Z</time>
      </trkpt>
      <trkpt lat="47.05208" lon="5.94841">
        <ele>434</ele>
        <time>2017-11-23T13:23:33Z</time>
      </trkpt>
      <trkpt lat="47.05207" lon="5.94849">
        <ele>434</ele>
        <time>2017-11-23T13:23:38Z</time>
      </trkpt>
      <trkpt lat="47.05205" lon="5.94864">
        <ele>434</ele>
        <time>2017-11-23T13:23:46Z</time>
      </trkpt>
      <trkpt lat="47.05207" lon="5.94907">
        <ele>434</ele>
        <time>2017-11-23T13:24:08Z</time>
      </trkpt>
      <trkpt lat="47.05208" lon="5.9492">
        <ele>433</ele>
        <time>2017-11-23T13:24:16Z</time>
      </trkpt>
      <trkpt lat="47.05203" lon="5.94975">
        <ele>432</ele>
        <time>2017-11-23T13:24:52Z</time>
      </trkpt>
      <trkpt lat="47.05203" lon="5.95003">
        <ele>432</ele>
        <time>2017-11-23T13:25:10Z</time>
      </trkpt>
      <trkpt lat="47.05218" lon="5.95055">
        <ele>432</ele>
        <time>2017-11-23T13:25:43Z</time>
      </trkpt>
      <trkpt lat="47.05221" lon="5.95069">
        <ele>433</ele>
        <time>2017-11-23T13:25:51Z</time>
      </trkpt>
      <trkpt lat="47.05226" lon="5.95122">
        <ele>434</ele>
        <time>2017-11-23T13:26:21Z</time>
      </trkpt>
      <trkpt lat="47.05226" lon="5.95137">
        <ele>434</ele>
        <time>2017-11-23T13:26:29Z</time>
      </trkpt>
      <trkpt lat="47.05214" lon="5.95193">
        <ele>433</ele>
        <time>2017-11-23T13:27:01Z</time>
      </trkpt>
      <trkpt lat="47.05211" lon="5.95208">
        <ele>434</ele>
        <time>2017-11-23T13:27:10Z</time>
      </trkpt>
      <trkpt lat="47.0521" lon="5.95216">
        <ele>434</ele>
        <time>2017-11-23T13:27:15Z</time>
      </trkpt>
      <trkpt lat="47.0521" lon="5.95224">
        <ele>433</ele>
        <time>2017-11-23T13:27:20Z</time>
      </trkpt>
      <trkpt lat="47.05211" lon="5.95239">
        <ele>433</ele>
        <time>2017-11-23T13:27:30Z</time>
      </trkpt>
      <trkpt lat="47.05213" lon="5.95246">
        <ele>432</ele>
        <time>2017-11-23T13:27:34Z</time>
      </trkpt>
      <trkpt lat="47.05216" lon="5.95253">
        <ele>432</ele>
        <time>2017-11-23T13:27:38Z</time>
      </trkpt>
      <trkpt lat="47.05221" lon="5.95257">
        <ele>432</ele>
        <time>2017-11-23T13:27:43Z</time>
      </trkpt>
      <trkpt lat="47.05225" lon="5.95257">
        <ele>432</ele>
        <time>2017-11-23T13:27:47Z</time>
      </trkpt>
      <trkpt lat="47.0523" lon="5.9526">
        <ele>432</ele>
        <time>2017-11-23T13:27:51Z</time>
      </trkpt>
      <trkpt lat="47.05234" lon="5.95266">
        <ele>432</ele>
        <time>2017-11-23T13:27:55Z</time>
      </trkpt>
      <trkpt lat="47.05242" lon="5.95273">
        <ele>432</ele>
        <time>2017-11-23T13:28:04Z</time>
      </trkpt>
      <trkpt lat="47.05247" lon="5.95275">
        <ele>432</ele>
        <time>2017-11-23T13:28:08Z</time>
      </trkpt>
      <trkpt lat="47.05252" lon="5.95279">
        <ele>432</ele>
        <time>2017-11-23T13:28:12Z</time>
      </trkpt>
      <trkpt lat="47.05262" lon="5.95284">
        <ele>432</ele>
        <time>2017-11-23T13:28:20Z</time>
      </trkpt>
      <trkpt lat="47.05271" lon="5.95292">
        <ele>433</ele>
        <time>2017-11-23T13:28:29Z</time>
      </trkpt>
      <trkpt lat="47.0528" lon="5.9529">
        <ele>433</ele>
        <time>2017-11-23T13:28:37Z</time>
      </trkpt>
      <trkpt lat="47.05299" lon="5.95297">
        <ele>434</ele>
        <time>2017-11-23T13:28:54Z</time>
      </trkpt>
      <trkpt lat="47.05308" lon="5.95292">
        <ele>435</ele>
        <time>2017-11-23T13:29:04Z</time>
      </trkpt>
      <trkpt lat="47.05317" lon="5.95291">
        <ele>436</ele>
        <time>2017-11-23T13:29:11Z</time>
      </trkpt>
      <trkpt lat="47.05328" lon="5.95292">
        <ele>436</ele>
        <time>2017-11-23T13:29:18Z</time>
      </trkpt>
      <trkpt lat="47.05346" lon="5.95288">
        <ele>436</ele>
        <time>2017-11-23T13:29:35Z</time>
      </trkpt>
      <trkpt lat="47.05356" lon="5.9529">
        <ele>436</ele>
        <time>2017-11-23T13:29:44Z</time>
      </trkpt>
      <trkpt lat="47.0539" lon="5.95312">
        <ele>437</ele>
        <time>2017-11-23T13:30:15Z</time>
      </trkpt>
      <trkpt lat="47.05409" lon="5.95316">
        <ele>437</ele>
        <time>2017-11-23T13:30:31Z</time>
      </trkpt>
      <trkpt lat="47.05417" lon="5.95323">
        <ele>438</ele>
        <time>2017-11-23T13:30:40Z</time>
      </trkpt>
      <trkpt lat="47.05431" lon="5.95344">
        <ele>438</ele>
        <time>2017-11-23T13:30:54Z</time>
      </trkpt>
      <trkpt lat="47.0544" lon="5.95347">
        <ele>438</ele>
        <time>2017-11-23T13:31:02Z</time>
      </trkpt>
      <trkpt lat="47.05463" lon="5.95392">
        <ele>440</ele>
        <time>2017-11-23T13:31:41Z</time>
      </trkpt>
      <trkpt lat="47.05468" lon="5.95403">
        <ele>440</ele>
        <time>2017-11-23T13:31:50Z</time>
      </trkpt>
      <trkpt lat="47.05478" lon="5.95413">
        <ele>441</ele>
        <time>2017-11-23T13:32:06Z</time>
      </trkpt>
      <trkpt lat="47.05488" lon="5.95412">
        <ele>441</ele>
        <time>2017-11-23T13:32:16Z</time>
      </trkpt>
      <trkpt lat="47.05509" lon="5.95409">
        <ele>441</ele>
        <time>2017-11-23T13:32:31Z</time>
      </trkpt>
      <trkpt lat="47.05528" lon="5.95394">
        <ele>442</ele>
        <time>2017-11-23T13:32:44Z</time>
      </trkpt>
      <trkpt lat="47.0554" lon="5.95373">
        <ele>442</ele>
        <time>2017-11-23T13:33:02Z</time>
      </trkpt>
      <trkpt lat="47.05538" lon="5.9536">
        <ele>443</ele>
        <time>2017-11-23T13:33:15Z</time>
      </trkpt>
      <trkpt lat="47.05542" lon="5.95333">
        <ele>445</ele>
        <time>2017-11-23T13:33:35Z</time>
      </trkpt>
      <trkpt lat="47.05547" lon="5.95323">
        <ele>446</ele>
        <time>2017-11-23T13:33:45Z</time>
      </trkpt>
      <trkpt lat="47.0555" lon="5.9531">
        <ele>446</ele>
        <time>2017-11-23T13:33:54Z</time>
      </trkpt>
      <trkpt lat="47.05551" lon="5.95296">
        <ele>447</ele>
        <time>2017-11-23T13:34:03Z</time>
      </trkpt>
      <trkpt lat="47.05554" lon="5.95282">
        <ele>448</ele>
        <time>2017-11-23T13:34:11Z</time>
      </trkpt>
      <trkpt lat="47.05572" lon="5.95249">
        <ele>449</ele>
        <time>2017-11-23T13:34:38Z</time>
      </trkpt>
      <trkpt lat="47.05576" lon="5.95237">
        <ele>449</ele>
        <time>2017-11-23T13:34:48Z</time>
      </trkpt>
      <trkpt lat="47.05577" lon="5.95223">
        <ele>450</ele>
        <time>2017-11-23T13:34:59Z</time>
      </trkpt>
      <trkpt lat="47.05589" lon="5.95201">
        <ele>449</ele>
        <time>2017-11-23T13:35:15Z</time>
      </trkpt>
      <trkpt lat="47.05596" lon="5.95176">
        <ele>447</ele>
        <time>2017-11-23T13:35:33Z</time>
      </trkpt>
      <trkpt lat="47.05594" lon="5.95162">
        <ele>447</ele>
        <time>2017-11-23T13:35:40Z</time>
      </trkpt>
      <trkpt lat="47.05595" lon="5.95148">
        <ele>447</ele>
        <time>2017-11-23T13:35:49Z</time>
      </trkpt>
      <trkpt lat="47.05602" lon="5.95138">
        <ele>446</ele>
        <time>2017-11-23T13:35:58Z</time>
      </trkpt>
      <trkpt lat="47.05606" lon="5.95125">
        <ele>445</ele>
        <time>2017-11-23T13:36:08Z</time>
      </trkpt>
      <trkpt lat="47.05605" lon="5.95112">
        <ele>444</ele>
        <time>2017-11-23T13:36:18Z</time>
      </trkpt>
      <trkpt lat="47.05612" lon="5.95103">
        <ele>444</ele>
        <time>2017-11-23T13:36:25Z</time>
      </trkpt>
      <trkpt lat="47.05621" lon="5.95079">
        <ele>443</ele>
        <time>2017-11-23T13:36:42Z</time>
      </trkpt>
      <trkpt lat="47.05624" lon="5.95066">
        <ele>442</ele>
        <time>2017-11-23T13:36:51Z</time>
      </trkpt>
      <trkpt lat="47.05628" lon="5.95053">
        <ele>442</ele>
        <time>2017-11-23T13:37:00Z</time>
      </trkpt>
      <trkpt lat="47.05632" lon="5.95039">
        <ele>440</ele>
        <time>2017-11-23T13:37:08Z</time>
      </trkpt>
      <trkpt lat="47.05634" lon="5.95026">
        <ele>440</ele>
        <time>2017-11-23T13:37:17Z</time>
      </trkpt>
      <trkpt lat="47.05639" lon="5.95014">
        <ele>439</ele>
        <time>2017-11-23T13:37:29Z</time>
      </trkpt>
      <trkpt lat="47.05643" lon="5.95001">
        <ele>438</ele>
        <time>2017-11-23T13:37:38Z</time>
      </trkpt>
      <trkpt lat="47.0566" lon="5.94965">
        <ele>435</ele>
        <time>2017-11-23T13:38:02Z</time>
      </trkpt>
      <trkpt lat="47.05663" lon="5.94937">
        <ele>433</ele>
        <time>2017-11-23T13:38:21Z</time>
      </trkpt>
      <trkpt lat="47.05668" lon="5.94925">
        <ele>432</ele>
        <time>2017-11-23T13:38:32Z</time>
      </trkpt>
      <trkpt lat="47.05671" lon="5.94911">
        <ele>430</ele>
        <time>2017-11-23T13:38:41Z</time>
      </trkpt>
      <trkpt lat="47.05671" lon="5.94896">
        <ele>429</ele>
        <time>2017-11-23T13:38:49Z</time>
      </trkpt>
      <trkpt lat="47.05675" lon="5.94883">
        <ele>428</ele>
        <time>2017-11-23T13:38:58Z</time>
      </trkpt>
      <trkpt lat="47.05676" lon="5.9487">
        <ele>428</ele>
        <time>2017-11-23T13:39:05Z</time>
      </trkpt>
      <trkpt lat="47.05684" lon="5.94844">
        <ele>426</ele>
        <time>2017-11-23T13:39:21Z</time>
      </trkpt>
      <trkpt lat="47.05689" lon="5.94834">
        <ele>427</ele>
        <time>2017-11-23T13:39:28Z</time>
      </trkpt>
      <trkpt lat="47.05694" lon="5.94822">
        <ele>428</ele>
        <time>2017-11-23T13:39:38Z</time>
      </trkpt>
      <trkpt lat="47.05722" lon="5.9478">
        <ele>429</ele>
        <time>2017-11-23T13:40:15Z</time>
      </trkpt>
      <trkpt lat="47.05727" lon="5.94769">
        <ele>429</ele>
        <time>2017-11-23T13:40:25Z</time>
      </trkpt>
      <trkpt lat="47.05736" lon="5.94728">
        <ele>430</ele>
        <time>2017-11-23T13:40:57Z</time>
      </trkpt>
      <trkpt lat="47.05747" lon="5.94706">
        <ele>431</ele>
        <time>2017-11-23T13:41:14Z</time>
      </trkpt>
      <trkpt lat="47.05771" lon="5.94683">
        <ele>433</ele>
        <time>2017-11-23T13:41:43Z</time>
      </trkpt>
      <trkpt lat="47.05777" lon="5.94673">
        <ele>434</ele>
        <time>2017-11-23T13:41:52Z</time>
      </trkpt>
      <trkpt lat="47.05785" lon="5.94663">
        <ele>435</ele>
        <time>2017-11-23T13:42:00Z</time>
      </trkpt>
      <trkpt lat="47.05793" lon="5.94656">
        <ele>436</ele>
        <time>2017-11-23T13:42:10Z</time>
      </trkpt>
      <trkpt lat="47.05799" lon="5.94651">
        <ele>437</ele>
        <time>2017-11-23T13:42:28Z</time>
      </trkpt>
      <trkpt lat="47.05819" lon="5.94648">
        <ele>434</ele>
        <time>2017-11-23T13:42:45Z</time>
      </trkpt>
      <trkpt lat="47.05824" lon="5.94649">
        <ele>433</ele>
        <time>2017-11-23T13:42:49Z</time>
      </trkpt>
      <trkpt lat="47.05844" lon="5.94652">
        <ele>434</ele>
        <time>2017-11-23T13:43:08Z</time>
      </trkpt>
      <trkpt lat="47.05853" lon="5.94652">
        <ele>434</ele>
        <time>2017-11-23T13:43:17Z</time>
      </trkpt>
      <trkpt lat="47.05862" lon="5.94648">
        <ele>434</ele>
        <time>2017-11-23T13:43:27Z</time>
      </trkpt>
      <trkpt lat="47.0587" lon="5.94638">
        <ele>434</ele>
        <time>2017-11-23T13:43:35Z</time>
      </trkpt>
      <trkpt lat="47.05887" lon="5.94625">
        <ele>433</ele>
        <time>2017-11-23T13:43:49Z</time>
      </trkpt>
      <trkpt lat="47.05896" lon="5.9462">
        <ele>433</ele>
        <time>2017-11-23T13:43:56Z</time>
      </trkpt>
      <trkpt lat="47.05898" lon="5.94607">
        <ele>434</ele>
        <time>2017-11-23T13:44:04Z</time>
      </trkpt>
      <trkpt lat="47.05898" lon="5.94594">
        <ele>434</ele>
        <time>2017-11-23T13:44:14Z</time>
      </trkpt>
      <trkpt lat="47.05906" lon="5.94569">
        <ele>434</ele>
        <time>2017-11-23T13:44:32Z</time>
      </trkpt>
      <trkpt lat="47.05908" lon="5.94556">
        <ele>434</ele>
        <time>2017-11-23T13:44:42Z</time>
      </trkpt>
      <trkpt lat="47.05911" lon="5.94542">
        <ele>436</ele>
        <time>2017-11-23T13:44:52Z</time>
      </trkpt>
      <trkpt lat="47.05926" lon="5.94524">
        <ele>439</ele>
        <time>2017-11-23T13:45:06Z</time>
      </trkpt>
      <trkpt lat="47.05933" lon="5.94514">
        <ele>440</ele>
        <time>2017-11-23T13:45:15Z</time>
      </trkpt>
      <trkpt lat="47.05936" lon="5.94501">
        <ele>442</ele>
        <time>2017-11-23T13:45:23Z</time>
      </trkpt>
      <trkpt lat="47.05939" lon="5.94488">
        <ele>442</ele>
        <time>2017-11-23T13:45:32Z</time>
      </trkpt>
      <trkpt lat="47.05944" lon="5.94475">
        <ele>441</ele>
        <time>2017-11-23T13:45:41Z</time>
      </trkpt>
      <trkpt lat="47.05946" lon="5.94446">
        <ele>441</ele>
        <time>2017-11-23T13:45:59Z</time>
      </trkpt>
      <trkpt lat="47.05951" lon="5.94419">
        <ele>441</ele>
        <time>2017-11-23T13:46:18Z</time>
      </trkpt>
      <trkpt lat="47.05955" lon="5.94407">
        <ele>440</ele>
        <time>2017-11-23T13:46:26Z</time>
      </trkpt>
      <trkpt lat="47.05959" lon="5.94394">
        <ele>437</ele>
        <time>2017-11-23T13:46:35Z</time>
      </trkpt>
      <trkpt lat="47.05962" lon="5.94382">
        <ele>436</ele>
        <time>2017-11-23T13:46:42Z</time>
      </trkpt>
      <trkpt lat="47.05964" lon="5.94365">
        <ele>433</ele>
        <time>2017-11-23T13:46:54Z</time>
      </trkpt>
      <trkpt lat="47.05974" lon="5.9434">
        <ele>430</ele>
        <time>2017-11-23T13:47:14Z</time>
      </trkpt>
      <trkpt lat="47.05978" lon="5.94325">
        <ele>430</ele>
        <time>2017-11-23T13:47:22Z</time>
      </trkpt>
      <trkpt lat="47.05979" lon="5.94318">
        <ele>430</ele>
        <time>2017-11-23T13:47:26Z</time>
      </trkpt>
      <trkpt lat="47.05987" lon="5.94299">
        <ele>428</ele>
        <time>2017-11-23T13:47:41Z</time>
      </trkpt>
      <trkpt lat="47.06001" lon="5.94266">
        <ele>427</ele>
        <time>2017-11-23T13:48:03Z</time>
      </trkpt>
      <trkpt lat="47.06007" lon="5.94256">
        <ele>427</ele>
        <time>2017-11-23T13:48:11Z</time>
      </trkpt>
      <trkpt lat="47.06011" lon="5.94243">
        <ele>427</ele>
        <time>2017-11-23T13:48:20Z</time>
      </trkpt>
      <trkpt lat="47.0602" lon="5.94218">
        <ele>425</ele>
        <time>2017-11-23T13:48:38Z</time>
      </trkpt>
      <trkpt lat="47.06028" lon="5.9421">
        <ele>426</ele>
        <time>2017-11-23T13:48:44Z</time>
      </trkpt>
      <trkpt lat="47.06032" lon="5.94197">
        <ele>426</ele>
        <time>2017-11-23T13:48:52Z</time>
      </trkpt>
      <trkpt lat="47.0603" lon="5.94184">
        <ele>426</ele>
        <time>2017-11-23T13:48:59Z</time>
      </trkpt>
      <trkpt lat="47.06027" lon="5.94177">
        <ele>426</ele>
        <time>2017-11-23T13:49:04Z</time>
      </trkpt>
      <trkpt lat="47.06023" lon="5.94183">
        <ele>425</ele>
        <time>2017-11-23T13:49:54Z</time>
      </trkpt>
      <trkpt lat="47.06025" lon="5.94189">
        <ele>425</ele>
        <time>2017-11-23T13:49:59Z</time>
      </trkpt>
      <trkpt lat="47.06026" lon="5.94199">
        <ele>423</ele>
        <time>2017-11-23T13:50:11Z</time>
      </trkpt>
      <trkpt lat="47.0603" lon="5.94193">
        <ele>423</ele>
        <time>2017-11-23T13:50:31Z</time>
      </trkpt>
      <trkpt lat="47.0603" lon="5.94185">
        <ele>423</ele>
        <time>2017-11-23T13:50:36Z</time>
      </trkpt>
      <trkpt lat="47.06028" lon="5.94179">
        <ele>423</ele>
        <time>2017-11-23T13:50:43Z</time>
      </trkpt>
      <trkpt lat="47.0603" lon="5.94182">
        <ele>422</ele>
        <time>2017-11-23T13:53:51Z</time>
      </trkpt>
      <trkpt lat="47.06032" lon="5.94188">
        <ele>422</ele>
        <time>2017-11-23T13:54:28Z</time>
      </trkpt>
      <trkpt lat="47.06038" lon="5.94183">
        <ele>424</ele>
        <time>2017-11-23T13:55:34Z</time>
      </trkpt>
      <trkpt lat="47.06052" lon="5.94163">
        <ele>419</ele>
        <time>2017-11-23T13:55:56Z</time>
      </trkpt>
      <trkpt lat="47.06057" lon="5.94152">
        <ele>418</ele>
        <time>2017-11-23T13:56:08Z</time>
      </trkpt>
      <trkpt lat="47.06062" lon="5.94147">
        <ele>417</ele>
        <time>2017-11-23T13:56:13Z</time>
      </trkpt>
      <trkpt lat="47.06068" lon="5.94137">
        <ele>416</ele>
        <time>2017-11-23T13:56:23Z</time>
      </trkpt>
      <trkpt lat="47.06073" lon="5.94133">
        <ele>416</ele>
        <time>2017-11-23T13:56:28Z</time>
      </trkpt>
      <trkpt lat="47.06076" lon="5.94128">
        <ele>415</ele>
        <time>2017-11-23T13:56:33Z</time>
      </trkpt>
      <trkpt lat="47.06106" lon="5.94108">
        <ele>412</ele>
        <time>2017-11-23T13:57:04Z</time>
      </trkpt>
      <trkpt lat="47.06124" lon="5.94099">
        <ele>412</ele>
        <time>2017-11-23T13:57:21Z</time>
      </trkpt>
      <trkpt lat="47.06143" lon="5.94101">
        <ele>410</ele>
        <time>2017-11-23T13:57:43Z</time>
      </trkpt>
      <trkpt lat="47.06153" lon="5.94105">
        <ele>409</ele>
        <time>2017-11-23T13:57:52Z</time>
      </trkpt>
      <trkpt lat="47.06168" lon="5.9412">
        <ele>407</ele>
        <time>2017-11-23T13:58:10Z</time>
      </trkpt>
      <trkpt lat="47.06182" lon="5.94139">
        <ele>405</ele>
        <time>2017-11-23T13:58:29Z</time>
      </trkpt>
      <trkpt lat="47.06198" lon="5.94155">
        <ele>404</ele>
        <time>2017-11-23T13:58:45Z</time>
      </trkpt>
      <trkpt lat="47.0623" lon="5.94189">
        <ele>397</ele>
        <time>2017-11-23T13:59:17Z</time>
      </trkpt>
      <trkpt lat="47.06237" lon="5.94196">
        <ele>396</ele>
        <time>2017-11-23T13:59:25Z</time>
      </trkpt>
      <trkpt lat="47.06245" lon="5.94204">
        <ele>396</ele>
        <time>2017-11-23T13:59:33Z</time>
      </trkpt>
      <trkpt lat="47.06253" lon="5.94213">
        <ele>396</ele>
        <time>2017-11-23T13:59:42Z</time>
      </trkpt>
      <trkpt lat="47.06286" lon="5.94236">
        <ele>387</ele>
        <time>2017-11-23T14:00:17Z</time>
      </trkpt>
      <trkpt lat="47.063" lon="5.94245">
        <ele>383</ele>
        <time>2017-11-23T14:00:33Z</time>
      </trkpt>
      <trkpt lat="47.06318" lon="5.9426">
        <ele>379</ele>
        <time>2017-11-23T14:00:52Z</time>
      </trkpt>
      <trkpt lat="47.06338" lon="5.94299">
        <ele>377</ele>
        <time>2017-11-23T14:01:23Z</time>
      </trkpt>
      <trkpt lat="47.06343" lon="5.94311">
        <ele>376</ele>
        <time>2017-11-23T14:01:32Z</time>
      </trkpt>
      <trkpt lat="47.06346" lon="5.94325">
        <ele>375</ele>
        <time>2017-11-23T14:01:43Z</time>
      </trkpt>
      <trkpt lat="47.06344" lon="5.94338">
        <ele>372</ele>
        <time>2017-11-23T14:01:56Z</time>
      </trkpt>
      <trkpt lat="47.06353" lon="5.94344">
        <ele>370</ele>
        <time>2017-11-23T14:02:20Z</time>
      </trkpt>
      <trkpt lat="47.06362" lon="5.94351">
        <ele>371</ele>
        <time>2017-11-23T14:02:35Z</time>
      </trkpt>
      <trkpt lat="47.06371" lon="5.94345">
        <ele>371</ele>
        <time>2017-11-23T14:02:43Z</time>
      </trkpt>
      <trkpt lat="47.06369" lon="5.94328">
        <ele>371</ele>
        <time>2017-11-23T14:03:27Z</time>
      </trkpt>
      <trkpt lat="47.0636" lon="5.94325">
        <ele>372</ele>
        <time>2017-11-23T14:03:44Z</time>
      </trkpt>
      <trkpt lat="47.0636" lon="5.94343">
        <ele>373</ele>
        <time>2017-11-23T14:03:54Z</time>
      </trkpt>
      <trkpt lat="47.06347" lon="5.94335">
        <ele>373</ele>
        <time>2017-11-23T14:05:36Z</time>
      </trkpt>
      <trkpt lat="47.06355" lon="5.94317">
        <ele>372</ele>
        <time>2017-11-23T14:06:11Z</time>
      </trkpt>
      <trkpt lat="47.06351" lon="5.94296">
        <ele>372</ele>
        <time>2017-11-23T14:06:36Z</time>
      </trkpt>
      <trkpt lat="47.06344" lon="5.94287">
        <ele>370</ele>
        <time>2017-11-23T14:06:45Z</time>
      </trkpt>
      <trkpt lat="47.06339" lon="5.94276">
        <ele>370</ele>
        <time>2017-11-23T14:06:57Z</time>
      </trkpt>
      <trkpt lat="47.06333" lon="5.94269">
        <ele>367</ele>
        <time>2017-11-23T14:07:40Z</time>
      </trkpt>
      <trkpt lat="47.06328" lon="5.94271">
        <ele>367</ele>
        <time>2017-11-23T14:08:23Z</time>
      </trkpt>
      <trkpt lat="47.06323" lon="5.9427">
        <ele>367</ele>
        <time>2017-11-23T14:08:30Z</time>
      </trkpt>
      <trkpt lat="47.06319" lon="5.94269">
        <ele>367</ele>
        <time>2017-11-23T14:08:34Z</time>
      </trkpt>
      <trkpt lat="47.06309" lon="5.94265">
        <ele>369</ele>
        <time>2017-11-23T14:08:41Z</time>
      </trkpt>
      <trkpt lat="47.06301" lon="5.94262">
        <ele>368</ele>
        <time>2017-11-23T14:09:02Z</time>
      </trkpt>
      <trkpt lat="47.06292" lon="5.94264">
        <ele>368</ele>
        <time>2017-11-23T14:09:09Z</time>
      </trkpt>
      <trkpt lat="47.06275" lon="5.94264">
        <ele>366</ele>
        <time>2017-11-23T14:09:30Z</time>
      </trkpt>
      <trkpt lat="47.06273" lon="5.94273">
        <ele>365</ele>
        <time>2017-11-23T14:09:43Z</time>
      </trkpt>
      <trkpt lat="47.06268" lon="5.94276">
        <ele>364</ele>
        <time>2017-11-23T14:09:59Z</time>
      </trkpt>
      <trkpt lat="47.06264" lon="5.94274">
        <ele>364</ele>
        <time>2017-11-23T14:10:07Z</time>
      </trkpt>
      <trkpt lat="47.06259" lon="5.94274">
        <ele>363</ele>
        <time>2017-11-23T14:10:11Z</time>
      </trkpt>
      <trkpt lat="47.06252" lon="5.94275">
        <ele>361</ele>
        <time>2017-11-23T14:10:31Z</time>
      </trkpt>
      <trkpt lat="47.06242" lon="5.94274">
        <ele>360</ele>
        <time>2017-11-23T14:10:41Z</time>
      </trkpt>
      <trkpt lat="47.06233" lon="5.94269">
        <ele>359</ele>
        <time>2017-11-23T14:10:51Z</time>
      </trkpt>
      <trkpt lat="47.06222" lon="5.94275">
        <ele>357</ele>
        <time>2017-11-23T14:11:06Z</time>
      </trkpt>
      <trkpt lat="47.06218" lon="5.94279">
        <ele>356</ele>
        <time>2017-11-23T14:11:13Z</time>
      </trkpt>
      <trkpt lat="47.06216" lon="5.94301">
        <ele>353</ele>
        <time>2017-11-23T14:11:30Z</time>
      </trkpt>
      <trkpt lat="47.06214" lon="5.94308">
        <ele>351</ele>
        <time>2017-11-23T14:11:36Z</time>
      </trkpt>
      <trkpt lat="47.06211" lon="5.94314">
        <ele>351</ele>
        <time>2017-11-23T14:11:42Z</time>
      </trkpt>
      <trkpt lat="47.06205" lon="5.94316">
        <ele>350</ele>
        <time>2017-11-23T14:11:47Z</time>
      </trkpt>
      <trkpt lat="47.06201" lon="5.94315">
        <ele>349</ele>
        <time>2017-11-23T14:11:51Z</time>
      </trkpt>
      <trkpt lat="47.06196" lon="5.94315">
        <ele>348</ele>
        <time>2017-11-23T14:11:56Z</time>
      </trkpt>
      <trkpt lat="47.06194" lon="5.94321">
        <ele>348</ele>
        <time>2017-11-23T14:12:02Z</time>
      </trkpt>
      <trkpt lat="47.06192" lon="5.94328">
        <ele>346</ele>
        <time>2017-11-23T14:12:08Z</time>
      </trkpt>
      <trkpt lat="47.06193" lon="5.94336">
        <ele>345</ele>
        <time>2017-11-23T14:12:14Z</time>
      </trkpt>
      <trkpt lat="47.06195" lon="5.94343">
        <ele>344</ele>
        <time>2017-11-23T14:12:19Z</time>
      </trkpt>
      <trkpt lat="47.06193" lon="5.9435">
        <ele>344</ele>
        <time>2017-11-23T14:12:23Z</time>
      </trkpt>
      <trkpt lat="47.06184" lon="5.94359">
        <ele>343</ele>
        <time>2017-11-23T14:12:30Z</time>
      </trkpt>
      <trkpt lat="47.06183" lon="5.94365">
        <ele>343</ele>
        <time>2017-11-23T14:12:34Z</time>
      </trkpt>
      <trkpt lat="47.06182" lon="5.94372">
        <ele>343</ele>
        <time>2017-11-23T14:12:38Z</time>
      </trkpt>
      <trkpt lat="47.0618" lon="5.9438">
        <ele>343</ele>
        <time>2017-11-23T14:12:43Z</time>
      </trkpt>
      <trkpt lat="47.06176" lon="5.94385">
        <ele>342</ele>
        <time>2017-11-23T14:12:49Z</time>
      </trkpt>
      <trkpt lat="47.06175" lon="5.94391">
        <ele>342</ele>
        <time>2017-11-23T14:12:54Z</time>
      </trkpt>
      <trkpt lat="47.06175" lon="5.944">
        <ele>341</ele>
        <time>2017-11-23T14:12:59Z</time>
      </trkpt>
      <trkpt lat="47.06175" lon="5.94423">
        <ele>340</ele>
        <time>2017-11-23T14:13:12Z</time>
      </trkpt>
      <trkpt lat="47.06172" lon="5.9443">
        <ele>339</ele>
        <time>2017-11-23T14:13:15Z</time>
      </trkpt>
      <trkpt lat="47.06171" lon="5.94436">
        <ele>339</ele>
        <time>2017-11-23T14:13:20Z</time>
      </trkpt>
      <trkpt lat="47.06172" lon="5.94444">
        <ele>339</ele>
        <time>2017-11-23T14:13:25Z</time>
      </trkpt>
      <trkpt lat="47.06172" lon="5.9445">
        <ele>338</ele>
        <time>2017-11-23T14:13:29Z</time>
      </trkpt>
      <trkpt lat="47.06171" lon="5.94465">
        <ele>337</ele>
        <time>2017-11-23T14:13:38Z</time>
      </trkpt>
      <trkpt lat="47.06172" lon="5.94472">
        <ele>337</ele>
        <time>2017-11-23T14:13:41Z</time>
      </trkpt>
      <trkpt lat="47.06172" lon="5.94479">
        <ele>337</ele>
        <time>2017-11-23T14:13:45Z</time>
      </trkpt>
      <trkpt lat="47.0617" lon="5.94486">
        <ele>337</ele>
        <time>2017-11-23T14:13:49Z</time>
      </trkpt>
      <trkpt lat="47.06171" lon="5.94501">
        <ele>336</ele>
        <time>2017-11-23T14:13:59Z</time>
      </trkpt>
      <trkpt lat="47.06172" lon="5.94508">
        <ele>336</ele>
        <time>2017-11-23T14:14:04Z</time>
      </trkpt>
      <trkpt lat="47.06184" lon="5.94547">
        <ele>334</ele>
        <time>2017-11-23T14:14:30Z</time>
      </trkpt>
      <trkpt lat="47.06183" lon="5.94563">
        <ele>334</ele>
        <time>2017-11-23T14:14:38Z</time>
      </trkpt>
      <trkpt lat="47.06186" lon="5.94569">
        <ele>334</ele>
        <time>2017-11-23T14:14:42Z</time>
      </trkpt>
      <trkpt lat="47.06187" lon="5.94575">
        <ele>334</ele>
        <time>2017-11-23T14:14:46Z</time>
      </trkpt>
      <trkpt lat="47.06194" lon="5.94595">
        <ele>333</ele>
        <time>2017-11-23T14:15:00Z</time>
      </trkpt>
      <trkpt lat="47.06198" lon="5.94606">
        <ele>332</ele>
        <time>2017-11-23T14:15:15Z</time>
      </trkpt>
      <trkpt lat="47.062" lon="5.94612">
        <ele>331</ele>
        <time>2017-11-23T14:15:20Z</time>
      </trkpt>
      <trkpt lat="47.06197" lon="5.94625">
        <ele>330</ele>
        <time>2017-11-23T14:15:30Z</time>
      </trkpt>
      <trkpt lat="47.06193" lon="5.9464">
        <ele>330</ele>
        <time>2017-11-23T14:15:40Z</time>
      </trkpt>
      <trkpt lat="47.06192" lon="5.94648">
        <ele>329</ele>
        <time>2017-11-23T14:15:45Z</time>
      </trkpt>
      <trkpt lat="47.06188" lon="5.94669">
        <ele>329</ele>
        <time>2017-11-23T14:15:58Z</time>
      </trkpt>
      <trkpt lat="47.06185" lon="5.94675">
        <ele>329</ele>
        <time>2017-11-23T14:16:02Z</time>
      </trkpt>
      <trkpt lat="47.06167" lon="5.94692">
        <ele>330</ele>
        <time>2017-11-23T14:16:18Z</time>
      </trkpt>
      <trkpt lat="47.06165" lon="5.94699">
        <ele>330</ele>
        <time>2017-11-23T14:16:22Z</time>
      </trkpt>
      <trkpt lat="47.06166" lon="5.94707">
        <ele>329</ele>
        <time>2017-11-23T14:16:26Z</time>
      </trkpt>
      <trkpt lat="47.06165" lon="5.94713">
        <ele>329</ele>
        <time>2017-11-23T14:16:30Z</time>
      </trkpt>
      <trkpt lat="47.06156" lon="5.94723">
        <ele>329</ele>
        <time>2017-11-23T14:16:39Z</time>
      </trkpt>
      <trkpt lat="47.06147" lon="5.9473">
        <ele>329</ele>
        <time>2017-11-23T14:16:47Z</time>
      </trkpt>
      <trkpt lat="47.0614" lon="5.94741">
        <ele>329</ele>
        <time>2017-11-23T14:16:55Z</time>
      </trkpt>
      <trkpt lat="47.06131" lon="5.94759">
        <ele>329</ele>
        <time>2017-11-23T14:17:07Z</time>
      </trkpt>
      <trkpt lat="47.06122" lon="5.94767">
        <ele>328</ele>
        <time>2017-11-23T14:17:16Z</time>
      </trkpt>
      <trkpt lat="47.06119" lon="5.94773">
        <ele>328</ele>
        <time>2017-11-23T14:17:20Z</time>
      </trkpt>
      <trkpt lat="47.06118" lon="5.94787">
        <ele>328</ele>
        <time>2017-11-23T14:17:28Z</time>
      </trkpt>
      <trkpt lat="47.06115" lon="5.94793">
        <ele>328</ele>
        <time>2017-11-23T14:17:32Z</time>
      </trkpt>
      <trkpt lat="47.06114" lon="5.948">
        <ele>328</ele>
        <time>2017-11-23T14:17:36Z</time>
      </trkpt>
      <trkpt lat="47.06117" lon="5.94806">
        <ele>328</ele>
        <time>2017-11-23T14:17:40Z</time>
      </trkpt>
      <trkpt lat="47.06121" lon="5.9481">
        <ele>328</ele>
        <time>2017-11-23T14:17:44Z</time>
      </trkpt>
      <trkpt lat="47.06123" lon="5.94817">
        <ele>328</ele>
        <time>2017-11-23T14:17:49Z</time>
      </trkpt>
      <trkpt lat="47.06118" lon="5.94837">
        <ele>327</ele>
        <time>2017-11-23T14:18:01Z</time>
      </trkpt>
      <trkpt lat="47.06111" lon="5.94847">
        <ele>327</ele>
        <time>2017-11-23T14:18:10Z</time>
      </trkpt>
      <trkpt lat="47.06114" lon="5.94853">
        <ele>327</ele>
        <time>2017-11-23T14:18:15Z</time>
      </trkpt>
      <trkpt lat="47.06126" lon="5.94863">
        <ele>325</ele>
        <time>2017-11-23T14:18:41Z</time>
      </trkpt>
      <trkpt lat="47.06132" lon="5.94874">
        <ele>325</ele>
        <time>2017-11-23T14:19:00Z</time>
      </trkpt>
      <trkpt lat="47.0613" lon="5.94885">
        <ele>325</ele>
        <time>2017-11-23T14:19:20Z</time>
      </trkpt>
      <trkpt lat="47.06128" lon="5.94892">
        <ele>325</ele>
        <time>2017-11-23T14:19:24Z</time>
      </trkpt>
      <trkpt lat="47.06125" lon="5.94906">
        <ele>325</ele>
        <time>2017-11-23T14:19:33Z</time>
      </trkpt>
      <trkpt lat="47.06122" lon="5.94912">
        <ele>324</ele>
        <time>2017-11-23T14:19:37Z</time>
      </trkpt>
      <trkpt lat="47.06115" lon="5.94929">
        <ele>325</ele>
        <time>2017-11-23T14:20:12Z</time>
      </trkpt>
      <trkpt lat="47.06112" lon="5.94934">
        <ele>325</ele>
        <time>2017-11-23T14:20:17Z</time>
      </trkpt>
      <trkpt lat="47.06099" lon="5.94946">
        <ele>325</ele>
        <time>2017-11-23T14:20:29Z</time>
      </trkpt>
      <trkpt lat="47.06095" lon="5.9495">
        <ele>326</ele>
        <time>2017-11-23T14:20:34Z</time>
      </trkpt>
      <trkpt lat="47.06089" lon="5.94949">
        <ele>326</ele>
        <time>2017-11-23T14:20:39Z</time>
      </trkpt>
      <trkpt lat="47.06085" lon="5.94945">
        <ele>326</ele>
        <time>2017-11-23T14:20:43Z</time>
      </trkpt>
      <trkpt lat="47.06062" lon="5.94959">
        <ele>325</ele>
        <time>2017-11-23T14:21:03Z</time>
      </trkpt>
      <trkpt lat="47.06039" lon="5.94968">
        <ele>322</ele>
        <time>2017-11-23T14:21:23Z</time>
      </trkpt>
      <trkpt lat="47.06022" lon="5.94983">
        <ele>321</ele>
        <time>2017-11-23T14:21:39Z</time>
      </trkpt>
      <trkpt lat="47.06016" lon="5.94993">
        <ele>320</ele>
        <time>2017-11-23T14:21:47Z</time>
      </trkpt>
      <trkpt lat="47.06013" lon="5.94999">
        <ele>320</ele>
        <time>2017-11-23T14:21:51Z</time>
      </trkpt>
      <trkpt lat="47.06007" lon="5.95011">
        <ele>321</ele>
        <time>2017-11-23T14:22:00Z</time>
      </trkpt>
      <trkpt lat="47.06003" lon="5.95015">
        <ele>322</ele>
        <time>2017-11-23T14:22:05Z</time>
      </trkpt>
      <trkpt lat="47.05999" lon="5.95021">
        <ele>322</ele>
        <time>2017-11-23T14:22:09Z</time>
      </trkpt>
      <trkpt lat="47.05996" lon="5.95027">
        <ele>323</ele>
        <time>2017-11-23T14:22:13Z</time>
      </trkpt>
      <trkpt lat="47.05991" lon="5.95047">
        <ele>323</ele>
        <time>2017-11-23T14:22:25Z</time>
      </trkpt>
      <trkpt lat="47.05983" lon="5.95075">
        <ele>322</ele>
        <time>2017-11-23T14:22:41Z</time>
      </trkpt>
      <trkpt lat="47.05976" lon="5.95095">
        <ele>322</ele>
        <time>2017-11-23T14:22:53Z</time>
      </trkpt>
      <trkpt lat="47.05972" lon="5.95109">
        <ele>322</ele>
        <time>2017-11-23T14:23:01Z</time>
      </trkpt>
      <trkpt lat="47.05964" lon="5.95167">
        <ele>323</ele>
        <time>2017-11-23T14:23:35Z</time>
      </trkpt>
      <trkpt lat="47.0596" lon="5.95189">
        <ele>322</ele>
        <time>2017-11-23T14:23:47Z</time>
      </trkpt>
      <trkpt lat="47.05959" lon="5.95197">
        <ele>322</ele>
        <time>2017-11-23T14:23:51Z</time>
      </trkpt>
      <trkpt lat="47.05959" lon="5.95234">
        <ele>321</ele>
        <time>2017-11-23T14:24:13Z</time>
      </trkpt>
      <trkpt lat="47.05954" lon="5.9528">
        <ele>319</ele>
        <time>2017-11-23T14:24:37Z</time>
      </trkpt>
      <trkpt lat="47.05954" lon="5.95288">
        <ele>319</ele>
        <time>2017-11-23T14:24:41Z</time>
      </trkpt>
      <trkpt lat="47.05954" lon="5.95317">
        <ele>317</ele>
        <time>2017-11-23T14:24:57Z</time>
      </trkpt>
      <trkpt lat="47.05955" lon="5.95324">
        <ele>318</ele>
        <time>2017-11-23T14:25:01Z</time>
      </trkpt>
      <trkpt lat="47.0596" lon="5.95362">
        <ele>317</ele>
        <time>2017-11-23T14:25:24Z</time>
      </trkpt>
      <trkpt lat="47.05963" lon="5.95376">
        <ele>317</ele>
        <time>2017-11-23T14:25:33Z</time>
      </trkpt>
      <trkpt lat="47.05963" lon="5.95383">
        <ele>316</ele>
        <time>2017-11-23T14:25:37Z</time>
      </trkpt>
      <trkpt lat="47.05963" lon="5.9539">
        <ele>317</ele>
        <time>2017-11-23T14:25:41Z</time>
      </trkpt>
      <trkpt lat="47.05964" lon="5.95398">
        <ele>317</ele>
        <time>2017-11-23T14:25:46Z</time>
      </trkpt>
      <trkpt lat="47.05964" lon="5.95435">
        <ele>317</ele>
        <time>2017-11-23T14:26:07Z</time>
      </trkpt>
      <trkpt lat="47.05966" lon="5.95443">
        <ele>316</ele>
        <time>2017-11-23T14:26:12Z</time>
      </trkpt>
      <trkpt lat="47.05966" lon="5.95457">
        <ele>316</ele>
        <time>2017-11-23T14:26:21Z</time>
      </trkpt>
      <trkpt lat="47.05966" lon="5.95465">
        <ele>316</ele>
        <time>2017-11-23T14:26:26Z</time>
      </trkpt>
      <trkpt lat="47.05967" lon="5.95472">
        <ele>316</ele>
        <time>2017-11-23T14:26:30Z</time>
      </trkpt>
      <trkpt lat="47.05966" lon="5.95479">
        <ele>317</ele>
        <time>2017-11-23T14:26:34Z</time>
      </trkpt>
      <trkpt lat="47.05965" lon="5.95486">
        <ele>317</ele>
        <time>2017-11-23T14:26:38Z</time>
      </trkpt>
      <trkpt lat="47.05966" lon="5.95494">
        <ele>317</ele>
        <time>2017-11-23T14:26:43Z</time>
      </trkpt>
      <trkpt lat="47.0597" lon="5.955">
        <ele>317</ele>
        <time>2017-11-23T14:26:48Z</time>
      </trkpt>
      <trkpt lat="47.0598" lon="5.95504">
        <ele>316</ele>
        <time>2017-11-23T14:26:56Z</time>
      </trkpt>
      <trkpt lat="47.05986" lon="5.95504">
        <ele>316</ele>
        <time>2017-11-23T14:27:00Z</time>
      </trkpt>
      <trkpt lat="47.05991" lon="5.95506">
        <ele>316</ele>
        <time>2017-11-23T14:27:04Z</time>
      </trkpt>
      <trkpt lat="47.06002" lon="5.95523">
        <ele>317</ele>
        <time>2017-11-23T14:27:17Z</time>
      </trkpt>
      <trkpt lat="47.06003" lon="5.95531">
        <ele>317</ele>
        <time>2017-11-23T14:27:22Z</time>
      </trkpt>
      <trkpt lat="47.06011" lon="5.95549">
        <ele>317</ele>
        <time>2017-11-23T14:27:32Z</time>
      </trkpt>
      <trkpt lat="47.06009" lon="5.95564">
        <ele>318</ele>
        <time>2017-11-23T14:27:41Z</time>
      </trkpt>
      <trkpt lat="47.06008" lon="5.95605">
        <ele>319</ele>
        <time>2017-11-23T14:28:08Z</time>
      </trkpt>
      <trkpt lat="47.06008" lon="5.95614">
        <ele>319</ele>
        <time>2017-11-23T14:28:13Z</time>
      </trkpt>
      <trkpt lat="47.06007" lon="5.95622">
        <ele>319</ele>
        <time>2017-11-23T14:28:18Z</time>
      </trkpt>
      <trkpt lat="47.06006" lon="5.9563">
        <ele>319</ele>
        <time>2017-11-23T14:28:23Z</time>
      </trkpt>
      <trkpt lat="47.06005" lon="5.9565">
        <ele>319</ele>
        <time>2017-11-23T14:28:36Z</time>
      </trkpt>
      <trkpt lat="47.06003" lon="5.95658">
        <ele>319</ele>
        <time>2017-11-23T14:28:41Z</time>
      </trkpt>
      <trkpt lat="47.06002" lon="5.95665">
        <ele>319</ele>
        <time>2017-11-23T14:28:45Z</time>
      </trkpt>
      <trkpt lat="47.06" lon="5.95671">
        <ele>319</ele>
        <time>2017-11-23T14:28:50Z</time>
      </trkpt>
    </trkseg>
  </trk>
</gpx>